# 29_08_6_0007
#el_time time m_kurs kren tang alt_bar alt_r IAS v_y alpfa n_y kolonka RV_pos met stab_pos el_pos RP_pos flaps_pos COG eng1_n1 eng1_n2 fuelflow latt long on_ground AP_kren AP_tang AT gear spoilers OMI
#(sek) HH:MM:SS (deg) (deg) (deg) (m) (m) (km/h) (m/sek) (deg) (g) (mm) (deg) (mm) (deg) (deg) (deg) (deg) (deg) (rpm) (rpm) (t/hour) (deg) (deg)
28.55553853 18:35:21 261.01 -0.01 -0.28 235.7 0.0 101.8 0.00 4.94 1.01 -26.0 -2.90 -26.0 -3.05 -0.01 0.00 28.0 27.8 92.3 92.6 6.874 56.74082 60.81933 1 1 1 0 1 0 0
29.05553823 18:35:22 261.00 0.00 -0.28 235.7 0.0 106.1 0.00 4.94 1.01 -25.9 -2.90 -26.0 -3.05 -0.01 0.00 28.0 27.8 92.3 92.6 6.877 56.74083 60.81906 1 1 1 0 1 0 0
29.55553793 18:35:22 261.01 -0.00 -0.28 235.7 0.0 109.8 0.00 4.94 1.01 -25.9 -2.90 -26.0 -3.05 -0.01 0.00 28.0 27.8 92.3 92.6 6.879 56.74084 60.81883 1 1 1 0 1 0 0
30.05553764 18:35:23 261.00 -0.02 -0.28 235.7 0.0 113.4 0.00 4.94 1.01 -26.0 -2.90 -26.0 -3.05 -0.01 0.00 28.0 27.8 92.3 92.6 6.882 56.74085 60.81859 1 1 1 0 1 0 0
30.55553734 18:35:23 261.01 -0.01 -0.29 235.7 0.0 117.7 0.00 4.94 1.01 -25.9 -2.90 -26.0 -3.05 -0.00 0.00 28.0 27.8 92.3 92.6 6.884 56.74086 60.81830 1 1 1 0 1 0 0
31.05553704 18:35:24 261.00 -0.01 -0.29 235.7 0.0 122.5 0.00 4.94 1.01 -25.9 -2.90 -26.0 -3.05 -0.01 0.00 28.0 27.8 92.4 92.6 6.887 56.74088 60.81796 1 1 1 0 1 0 0
31.55553674 18:35:25 261.01 0.01 -0.30 235.7 0.0 126.1 0.00 4.94 1.01 -26.0 -2.90 -26.0 -3.05 -0.00 0.00 28.0 27.8 92.4 92.6 6.889 56.74089 60.81769 1 1 1 0 1 0 0
32.05553644 18:35:26 261.00 0.01 -0.30 235.7 0.0 130.5 0.00 4.94 1.01 -25.9 -2.90 -26.0 -3.05 -0.01 0.00 28.0 27.8 92.4 92.6 6.892 56.74090 60.81735 1 1 1 0 1 0 0
32.55553615 18:35:26 261.01 -0.00 -0.31 235.7 0.0 134.2 0.00 4.94 1.01 -25.9 -2.90 -26.0 -3.05 -0.01 0.00 28.0 27.8 92.4 92.6 6.894 56.74091 60.81706 1 1 1 0 1 0 0
33.05553585 18:35:27 261.00 0.00 -0.31 235.7 0.0 137.7 0.00 4.94 1.01 -25.9 -2.90 -26.0 -3.05 -0.01 0.00 28.0 27.8 92.4 92.6 6.896 56.74092 60.81677 1 1 1 0 1 0 0
33.55553555 18:35:27 261.01 -0.01 -0.31 235.7 0.0 141.8 0.00 4.94 1.01 -25.9 -2.91 -26.0 -3.05 -0.01 0.00 28.0 27.8 92.5 92.6 6.899 56.74094 60.81642 1 1 1 0 1 0 0
34.05553525 18:35:28 261.00 0.00 -0.31 235.7 0.0 145.2 0.00 4.94 1.01 -25.9 -2.90 -26.0 -3.05 -0.00 0.00 28.0 27.8 92.5 92.6 6.901 56.74095 60.81613 1 1 1 0 1 0 0
34.55553495 18:35:28 261.01 -0.01 -0.32 235.7 0.0 149.2 0.00 4.94 1.01 -25.9 -2.90 -26.0 -3.05 -0.00 0.00 28.0 27.8 92.5 92.6 6.903 56.74096 60.81578 1 1 1 0 1 0 0
35.05553466 18:35:29 261.00 0.00 -0.32 235.7 0.0 153.0 0.00 4.94 1.01 -26.0 -2.89 -26.0 -3.05 -0.01 0.00 28.0 27.8 92.5 92.6 6.905 56.74098 60.81542 1 1 1 0 1 0 0
35.55553436 18:35:29 261.01 -0.00 -0.33 235.7 0.0 157.0 0.00 4.94 1.01 -26.0 -2.91 -26.0 -3.05 -0.01 0.00 28.0 27.8 92.6 92.6 6.907 56.74099 60.81504 1 1 1 0 1 0 0
36.05553406 18:35:30 261.00 -0.01 -0.34 235.7 0.0 161.1 0.00 4.94 1.01 -25.9 -2.89 -26.0 -3.05 -0.00 0.00 28.0 27.8 92.6 92.6 6.909 56.74101 60.81463 1 1 1 0 1 0 0
36.55553376 18:35:30 261.01 -0.02 -0.34 235.7 0.0 164.5 0.00 4.94 1.01 -25.9 -2.90 -26.0 -3.05 -0.01 0.00 28.0 27.8 92.6 92.6 6.911 56.74102 60.81428 1 1 1 0 1 0 0
37.05553346 18:35:31 261.00 0.00 -0.34 235.7 0.0 168.5 0.00 4.94 1.01 -25.9 -2.89 -26.0 -3.05 -0.01 0.00 28.0 27.8 92.6 92.6 6.913 56.74104 60.81387 1 1 1 0 1 0 0
37.55553317 18:35:31 261.01 0.01 -0.35 235.7 0.0 172.8 0.00 4.94 1.01 -26.0 -2.89 -26.0 -3.05 -0.00 0.00 28.0 27.8 92.6 92.6 6.915 56.74106 60.81341 1 1 1 0 1 0 0
38.05553287 18:35:32 261.00 0.01 -0.35 235.7 0.0 176.5 0.00 4.94 1.01 -25.9 -2.89 -26.0 -3.05 -0.00 0.00 28.0 27.8 92.7 92.6 6.917 56.74107 60.81300 1 1 1 0 1 0 0
38.49997705 18:35:32 261.00 0.01 -0.35 235.7 0.0 180.2 0.00 4.94 1.01 -25.9 -2.89 -26.0 -3.05 -0.00 0.00 28.0 27.8 92.7 92.6 6.918 56.74109 60.81259 1 1 1 0 1 0 0
38.66664361 18:35:32 261.01 -0.01 -0.36 235.7 0.0 180.8 0.00 4.94 1.01 -25.9 -2.90 -26.0 -3.05 -0.00 0.00 28.0 27.8 92.7 92.6 6.918 56.74109 60.81252 1 1 1 0 1 0 0
38.83331018 18:35:33 261.00 0.01 -0.36 235.7 0.0 182.6 0.00 4.94 1.01 -25.9 -2.89 -26.0 -3.05 -0.00 0.00 28.0 27.8 92.7 92.6 6.918 56.74110 60.81231 1 1 1 0 1 0 0
38.99997675 18:35:33 261.01 0.01 -0.35 235.7 0.0 183.8 0.00 4.94 1.01 -25.9 -2.90 -26.0 -3.05 -0.01 0.00 28.0 27.8 92.7 92.6 6.917 56.74111 60.81215 1 1 1 0 1 0 0
39.16664332 18:35:33 261.00 -0.01 -0.36 235.7 0.0 185.2 0.00 4.94 1.01 -25.9 -2.89 -26.0 -3.05 -0.01 0.00 28.0 27.8 92.7 92.6 6.916 56.74111 60.81200 1 1 1 0 1 0 0
39.33330988 18:35:33 261.01 0.02 -0.36 235.7 0.0 186.9 0.00 4.94 1.01 -25.9 -2.90 -26.0 -3.05 -0.01 0.00 28.0 27.8 92.7 92.6 6.915 56.74112 60.81179 1 1 1 0 1 0 0
39.49997645 18:35:33 261.00 0.01 -0.36 235.7 0.0 187.5 0.00 4.94 1.01 -25.9 -2.90 -26.0 -3.05 -0.00 0.00 28.0 27.8 92.7 92.6 6.914 56.74112 60.81172 1 1 1 0 1 0 0
39.66664302 18:35:33 261.01 -0.00 -0.37 235.7 0.0 188.7 0.00 4.94 1.01 -25.9 -2.89 -26.0 -3.05 -0.00 0.00 28.0 27.8 92.7 92.6 6.913 56.74113 60.81158 1 1 1 0 1 0 0
39.83330959 18:35:34 261.00 0.01 -0.36 235.7 0.0 190.5 0.00 4.94 1.01 -25.9 -2.90 -26.0 -3.05 -0.01 0.00 28.0 27.8 92.7 92.6 6.912 56.74114 60.81136 1 1 1 0 1 0 0
39.99997615 18:35:34 261.01 -0.01 -0.37 235.7 0.0 191.0 0.00 4.94 1.01 -25.9 -2.90 -26.0 -3.05 -0.01 0.00 28.0 27.8 92.8 92.6 6.911 56.74114 60.81129 1 1 1 0 1 0 0
40.16664272 18:35:34 261.00 0.00 -0.37 235.7 0.0 192.8 0.00 4.94 1.01 -25.9 -2.89 -26.0 -3.05 -0.01 0.00 28.0 27.8 92.8 92.6 6.910 56.74115 60.81106 1 1 1 0 1 0 0
40.33330929 18:35:34 261.01 -0.00 -0.37 235.7 0.0 194.0 0.00 4.94 1.01 -25.9 -2.89 -26.0 -3.05 -0.00 0.00 28.0 27.8 92.8 92.6 6.909 56.74116 60.81091 1 1 1 0 1 0 0
40.49997586 18:35:34 261.00 0.01 -0.38 235.7 0.0 195.2 0.00 4.94 1.01 -25.9 -2.90 -26.0 -3.05 -0.01 0.00 28.0 27.8 92.8 92.6 6.908 56.74116 60.81076 1 1 1 0 1 0 0
40.66664242 18:35:34 261.01 0.00 -0.37 235.7 0.0 195.8 0.00 4.94 1.01 -25.9 -2.90 -26.0 -3.05 -0.00 0.00 28.0 27.8 92.8 92.6 6.907 56.74117 60.81067 1 1 1 0 1 0 0
40.83330899 18:35:35 261.00 0.00 -0.37 235.7 0.0 197.8 0.00 4.94 1.01 -25.9 -2.89 -26.0 -3.05 -0.01 0.00 28.0 27.8 92.8 92.6 6.906 56.74118 60.81042 1 1 1 0 1 0 0
40.99997556 18:35:35 261.01 0.00 -0.38 235.7 0.0 198.4 0.00 4.94 1.01 -25.9 -2.91 -26.0 -3.05 -0.01 0.00 28.0 27.8 92.8 92.6 6.905 56.74118 60.81034 1 1 1 0 1 0 0
41.16664212 18:35:35 261.00 0.02 -0.38 235.7 0.0 199.7 0.00 4.94 1.01 -26.0 -2.91 -26.0 -3.05 -0.01 0.00 28.0 27.8 92.8 92.6 6.904 56.74119 60.81017 1 1 1 0 1 0 0
41.33330869 18:35:35 261.01 -0.00 -0.38 235.7 0.0 201.4 0.00 4.94 1.01 -25.9 -2.90 -26.0 -3.05 -0.00 0.00 28.0 27.8 92.8 92.6 6.903 56.74119 60.80995 1 1 1 0 1 0 0
41.49997526 18:35:35 261.00 0.00 -0.38 235.7 0.0 202.6 0.00 4.94 1.01 -25.9 -2.89 -26.0 -3.05 -0.00 0.00 28.0 27.8 92.8 92.6 6.902 56.74120 60.80978 1 1 1 0 1 0 0
41.66664183 18:35:35 261.01 -0.00 -0.38 235.7 0.0 203.2 0.00 4.94 1.01 -25.9 -2.90 -26.0 -3.05 -0.00 0.00 28.0 27.8 92.8 92.6 6.901 56.74120 60.80971 1 1 1 0 1 0 0
41.83330839 18:35:36 261.00 -0.01 -0.39 235.7 0.0 205.0 0.00 4.94 1.01 -25.9 -2.90 -26.0 -3.05 -0.01 0.00 28.0 27.8 92.8 92.6 6.899 56.74121 60.80947 1 1 1 0 1 0 0
41.99997496 18:35:36 261.01 -0.00 -0.39 235.7 0.0 205.5 0.00 4.94 1.01 -25.9 -2.91 -26.0 -3.05 -0.01 0.00 28.0 27.8 92.8 92.6 6.899 56.74122 60.80938 1 1 1 0 1 0 0
42.16664153 18:35:36 261.00 -0.00 -0.39 235.7 0.1 207.4 0.00 4.94 1.01 -25.9 -2.89 -26.0 -3.05 -0.00 0.00 28.0 27.8 92.8 92.6 6.897 56.74123 60.80913 1 1 1 0 1 0 0
42.33330810 18:35:36 261.01 0.00 -0.39 235.7 0.1 208.5 0.00 4.94 1.01 -25.9 -2.90 -26.0 -3.05 -0.01 0.00 28.0 27.8 92.9 92.6 6.896 56.74123 60.80896 1 1 1 0 1 0 0
42.49997466 18:35:36 261.00 0.00 -0.39 235.7 0.1 209.8 0.00 4.94 1.01 -25.9 -2.89 -26.0 -3.05 -0.01 0.00 28.0 27.8 92.9 92.6 6.895 56.74124 60.80879 1 1 1 0 1 0 0
42.66664123 18:35:36 261.01 -0.02 -0.39 235.7 0.1 211.0 0.00 4.94 1.01 -25.9 -2.89 -26.0 -3.05 -0.00 0.00 28.0 27.8 92.9 92.6 6.894 56.74125 60.80862 1 1 1 0 1 0 0
42.83330780 18:35:37 261.00 -0.00 -0.40 235.7 0.1 211.6 0.00 4.94 1.01 -26.0 -2.90 -26.0 -3.05 -0.01 0.00 28.0 27.8 92.9 92.6 6.894 56.74125 60.80853 1 1 1 0 1 0 0
42.99997437 18:35:37 261.01 0.02 -0.39 235.7 0.1 212.8 0.00 4.94 1.01 -26.0 -2.89 -26.0 -3.05 -0.00 0.00 28.0 27.8 92.9 92.6 6.893 56.74126 60.80835 1 1 1 0 1 0 0
43.16664093 18:35:37 261.00 -0.01 -0.40 235.7 0.1 214.0 0.00 4.94 1.01 -25.9 -2.91 -26.0 -3.05 -0.01 0.00 28.0 27.8 92.9 92.6 6.891 56.74126 60.80818 1 1 1 0 1 0 0
43.33330750 18:35:37 261.01 0.00 -0.40 235.7 0.1 215.2 0.00 4.94 1.01 -25.9 -2.89 -26.0 -3.05 -0.01 0.00 28.0 27.8 92.9 92.6 6.890 56.74127 60.80801 1 1 1 0 1 0 0
43.49997407 18:35:37 261.00 0.00 -0.40 235.7 0.1 216.4 0.00 4.94 1.01 -25.9 -2.90 -26.0 -3.05 -0.00 0.00 28.0 27.8 92.9 92.6 6.889 56.74128 60.80783 1 1 1 0 1 0 0
43.66664063 18:35:37 261.01 -0.00 -0.41 235.7 0.1 217.5 0.00 4.94 1.01 -25.9 -2.89 -26.0 -3.05 -0.01 0.00 28.0 27.8 92.9 92.6 6.888 56.74128 60.80766 1 1 1 0 1 0 0
43.83330720 18:35:38 261.00 -0.00 -0.40 235.7 0.1 218.6 0.00 4.94 1.01 -25.9 -2.90 -26.0 -3.05 -0.00 0.00 28.0 27.8 92.9 92.6 6.887 56.74129 60.80750 1 1 1 0 1 0 0
43.99997377 18:35:38 261.01 0.00 -0.41 235.7 0.1 219.7 0.00 4.94 1.01 -25.9 -2.90 -26.0 -3.05 -0.00 0.00 28.0 27.8 92.9 92.6 6.886 56.74130 60.80733 1 1 1 0 1 0 0
44.16664034 18:35:38 261.00 0.01 -0.41 235.7 0.1 220.9 0.00 4.94 1.01 -25.9 -2.90 -26.0 -3.05 -0.00 0.00 28.0 27.8 92.9 92.6 6.885 56.74130 60.80714 1 1 1 0 1 0 0
44.33330690 18:35:38 261.01 -0.00 -0.40 235.7 0.1 222.0 0.00 4.94 1.01 -25.9 -2.90 -26.0 -3.05 -0.01 0.00 28.0 27.8 92.9 92.6 6.884 56.74131 60.80698 1 1 1 0 1 0 0
44.49997347 18:35:38 261.00 -0.01 -0.41 235.7 0.1 222.6 0.00 4.94 1.01 -25.9 -2.90 -26.0 -3.05 -0.01 0.00 28.0 27.8 92.9 92.6 6.884 56.74131 60.80689 1 1 1 0 1 0 0
44.66664004 18:35:38 261.01 -0.00 -0.41 235.7 0.1 224.4 0.00 4.94 1.01 -25.9 -2.90 -26.0 -3.05 -0.01 0.00 28.0 27.8 92.9 92.6 6.882 56.74133 60.80660 1 1 1 0 1 0 0
44.83330661 18:35:39 261.00 0.02 -0.41 235.7 0.1 225.0 0.00 4.94 1.01 -25.9 -2.90 -26.0 -3.05 -0.00 0.00 28.0 27.8 92.9 92.6 6.881 56.74133 60.80651 1 1 1 0 1 0 0
44.99997317 18:35:39 261.01 -0.00 -0.42 235.7 0.1 226.1 0.00 4.94 1.01 -25.9 -2.91 -26.0 -3.05 -0.01 0.00 28.0 27.8 93.0 92.6 6.880 56.74134 60.80632 1 1 1 0 1 0 0
45.16663974 18:35:39 261.00 -0.01 -0.41 235.7 0.1 227.3 0.00 4.94 1.01 -25.9 -2.89 -26.0 -3.05 -0.01 0.00 28.0 27.8 93.0 92.6 6.879 56.74134 60.80614 1 1 1 0 1 0 0
45.33330631 18:35:39 261.01 0.01 -0.42 235.7 0.1 228.4 0.00 4.94 1.01 -25.9 -2.90 -26.0 -3.05 -0.00 0.00 28.0 27.8 93.0 92.6 6.878 56.74135 60.80597 1 1 1 0 1 0 0
45.49997287 18:35:39 261.00 0.00 -0.42 235.7 0.1 229.5 0.00 4.94 1.01 -25.9 -2.90 -26.0 -3.05 -0.00 0.00 28.0 27.8 93.0 92.6 6.877 56.74136 60.80579 1 1 1 0 1 0 0
45.66663944 18:35:39 261.01 0.01 -0.42 235.7 0.1 230.6 0.00 4.94 1.01 -25.9 -2.89 -26.0 -3.05 -0.01 0.00 28.0 27.8 93.0 92.6 6.876 56.74137 60.80560 1 1 1 0 1 0 0
45.83330601 18:35:41 261.00 0.01 -0.42 235.7 0.1 231.7 0.00 4.94 1.01 -25.9 -2.89 -26.0 -3.05 -0.00 0.00 28.0 27.8 93.0 92.6 6.875 56.74137 60.80542 1 1 1 0 1 0 0
45.99997258 18:35:41 261.01 -0.00 -0.42 235.7 0.1 232.9 0.00 4.94 1.01 -25.9 -2.91 -26.0 -3.05 -0.01 0.00 28.0 27.8 93.0 92.6 6.874 56.74138 60.80522 1 1 1 0 1 0 0
46.16663914 18:35:41 261.00 0.00 -0.42 235.7 0.1 234.1 0.00 4.94 1.01 -25.9 -2.90 -26.0 -3.05 -0.00 0.00 28.0 27.8 93.0 92.6 6.873 56.74139 60.80503 1 1 1 0 1 0 0
46.33330571 18:35:41 261.01 -0.00 -0.43 235.7 0.1 235.1 0.00 4.94 1.01 -25.9 -2.90 -26.0 -3.05 -0.01 0.00 28.0 27.8 93.0 92.6 6.872 56.74140 60.80485 1 1 1 0 1 0 0
46.49997228 18:35:41 261.00 0.00 -0.43 235.7 0.1 236.3 0.00 4.94 1.01 -25.9 -2.89 -26.0 -3.05 -0.00 0.00 28.0 27.8 93.0 92.6 6.870 56.74140 60.80465 1 1 1 0 1 0 0
46.66663885 18:35:41 261.01 0.02 -0.43 235.7 0.1 237.4 0.00 4.94 1.01 -25.9 -2.89 -26.0 -3.05 -0.01 0.00 28.0 27.8 93.0 92.6 6.869 56.74141 60.80446 1 1 1 0 1 0 0
46.83330541 18:35:42 261.00 -0.00 -0.43 235.7 0.1 238.6 0.00 4.94 1.01 -25.9 -2.90 -26.0 -3.05 -0.00 0.00 28.0 27.8 93.0 92.6 6.868 56.74142 60.80426 1 1 1 0 1 0 0
46.99997198 18:35:42 261.01 -0.00 -0.43 235.7 0.1 239.2 0.00 4.94 1.01 -26.0 -2.90 -26.0 -3.05 -0.00 0.00 28.0 27.8 93.0 92.6 6.868 56.74142 60.80415 1 1 1 0 1 0 0
47.16663855 18:35:42 261.00 -0.00 -0.44 235.7 0.1 240.9 0.00 4.94 1.01 -25.9 -2.90 -26.0 -3.05 -0.01 0.00 28.0 27.8 93.0 92.6 6.866 56.74143 60.80385 1 1 1 0 1 0 0
47.33330512 18:35:42 261.01 -0.00 -0.44 235.7 0.1 241.5 0.00 4.94 1.01 -25.9 -2.90 -26.0 -3.05 -0.00 0.00 28.0 27.8 93.0 92.6 6.865 56.74144 60.80375 1 1 1 0 1 0 0
47.49997168 18:35:42 261.00 0.00 -0.44 235.7 0.1 242.7 0.00 4.94 1.01 -25.9 -2.91 -26.0 -3.05 -0.01 0.00 28.0 27.8 93.0 92.6 6.864 56.74145 60.80353 1 1 1 0 1 0 0
47.66663825 18:35:42 261.01 -0.00 -0.44 235.7 0.1 244.4 0.00 4.94 1.01 -26.0 -2.90 -26.0 -3.05 -0.01 0.00 28.0 27.8 93.1 92.6 6.862 56.74146 60.80323 1 1 1 0 1 0 0
47.83330482 18:35:43 261.00 0.00 -0.44 235.7 0.1 245.5 0.00 4.94 1.01 -26.5 -2.96 -26.0 -3.05 -0.00 0.00 28.0 27.8 93.1 92.6 6.861 56.74147 60.80302 1 1 1 0 1 0 0
47.99997138 18:35:43 261.01 0.01 -0.44 235.7 0.1 246.6 0.00 4.94 1.01 -30.0 -3.04 -26.0 -3.05 -0.00 0.00 28.0 27.8 93.1 92.6 6.860 56.74148 60.80281 1 1 1 0 1 0 0
48.16663795 18:35:43 261.00 -0.00 -0.46 235.7 0.1 247.7 0.01 4.94 1.00 -111.0 -11.17 -26.0 -3.05 -0.01 0.00 28.0 27.8 93.1 92.6 6.859 56.74148 60.80261 1 1 1 0 1 0 0
48.33330452 18:35:43 261.01 -0.01 -0.51 235.7 0.1 248.3 0.03 4.94 1.00 -259.0 -24.17 -26.0 -3.05 -0.03 0.00 28.0 27.8 93.1 92.6 6.858 56.74149 60.80252 1 1 1 0 1 0 0
48.49997109 18:35:43 261.00 0.01 -0.96 235.7 0.1 249.9 0.06 4.94 1.00 -259.0 -27.11 -26.0 -3.05 -0.02 0.00 28.0 27.8 93.1 92.6 6.857 56.74150 60.80221 1 1 1 0 1 0 0
48.66663765 18:35:43 261.01 0.00 -1.12 235.8 0.1 250.4 0.06 4.87 1.00 -259.0 -29.00 -26.0 -3.05 -0.03 0.00 28.0 27.8 93.1 92.6 6.856 56.74150 60.80212 1 1 1 0 1 0 0
48.83330422 18:35:44 261.00 -0.01 -1.63 235.8 0.1 251.9 0.09 4.86 1.00 -259.0 -26.98 -26.0 -3.05 -0.02 0.00 28.0 27.8 93.1 92.6 6.854 56.74152 60.80181 1 1 1 0 1 0 0
48.99997079 18:35:44 261.01 0.02 -2.22 235.8 0.1 253.3 0.09 4.99 1.00 -259.0 -27.07 -26.0 -3.05 -0.02 0.00 28.0 27.8 93.1 92.6 6.853 56.74153 60.80152 1 1 1 0 1 0 0
49.16663736 18:35:44 261.00 -0.01 -2.64 235.8 0.2 254.4 0.09 5.21 1.00 -259.0 -29.00 -26.0 -3.05 -0.02 0.00 28.0 27.8 93.1 92.6 6.852 56.74154 60.80130 1 1 1 0 1 0 0
49.33330392 18:35:44 261.01 -0.01 -3.03 235.8 0.2 255.4 0.09 5.47 1.00 -259.0 -26.98 -26.0 -3.05 -0.03 0.00 28.0 27.8 93.1 92.6 6.850 56.74154 60.80108 1 1 1 0 1 0 0
49.49997049 18:35:44 261.00 0.01 -3.23 235.8 0.2 255.9 0.09 5.74 1.00 -259.0 -29.00 -26.0 -3.05 -0.02 0.00 28.0 27.8 93.1 92.6 6.850 56.74155 60.80096 1 1 1 0 1 0 0
49.66663706 18:35:44 261.01 -0.00 -3.56 235.9 0.2 256.9 0.07 6.03 1.00 -259.0 -29.00 -26.0 -3.05 -0.04 0.00 28.0 27.8 93.1 92.6 6.849 56.74156 60.80075 1 1 1 0 1 0 0
49.83330363 18:35:45 261.00 -0.01 -3.90 235.9 0.2 257.9 0.09 6.33 1.00 -259.0 -27.08 -26.0 -3.05 -0.04 0.00 28.0 27.8 93.1 92.6 6.848 56.74157 60.80054 1 1 1 0 1 0 0
49.99997019 18:35:45 261.01 -0.01 -4.24 235.9 0.2 258.8 0.07 6.64 0.99 -259.0 -29.00 -26.0 -3.05 -0.05 0.00 28.0 27.8 93.1 92.6 6.846 56.74157 60.80032 1 1 1 0 1 0 0
50.16663676 18:35:45 261.00 -0.00 -4.55 235.9 0.2 259.7 0.08 6.94 0.99 -259.0 -27.08 -26.0 -3.05 -0.06 0.00 28.0 27.8 93.2 92.6 6.845 56.74158 60.80011 1 1 1 0 1 0 0
50.33330333 18:35:45 261.01 0.02 -4.88 235.9 0.3 260.6 0.08 7.24 0.99 -259.0 -27.29 -26.0 -3.05 -0.03 0.00 28.0 27.8 93.2 92.6 6.844 56.74159 60.79989 1 1 1 0 1 0 0
50.49996989 18:35:45 261.00 -0.01 -5.03 235.9 0.3 261.0 0.08 7.53 0.99 -259.0 -29.00 -26.0 -3.05 -0.03 0.00 28.0 27.8 93.2 92.6 6.844 56.74159 60.79979 1 1 1 0 1 0 0
50.66663646 18:35:45 261.01 0.00 -5.34 235.9 0.3 261.9 0.08 7.83 0.99 -248.7 -27.17 -26.0 -3.05 -0.03 0.00 28.0 27.8 93.2 92.6 6.843 56.74160 60.79957 1 1 1 0 1 0 0
50.83330303 18:35:46 261.00 -0.01 -5.68 235.9 0.3 262.7 0.09 8.14 0.99 -224.3 -25.68 -26.0 -3.05 -0.03 0.00 28.0 27.8 93.2 92.6 6.842 56.74161 60.79935 1 1 1 0 1 0 0
50.99996960 18:35:46 261.01 0.00 -6.07 236.0 0.3 263.6 0.17 8.43 1.00 -213.2 -24.02 -26.0 -3.05 -0.04 0.00 28.0 27.8 93.2 92.6 6.840 56.74162 60.79914 0 1 1 0 1 0 0
51.16663616 18:35:46 261.00 -0.00 -6.52 236.0 0.4 264.3 0.32 8.74 1.02 -192.0 -21.82 -26.0 -3.05 -0.03 0.00 28.0 27.8 93.2 92.6 6.839 56.74163 60.79892 0 1 1 0 1 0 0
51.33330273 18:35:46 261.01 -0.00 -6.93 236.1 0.4 265.1 0.53 9.03 1.04 -172.7 -17.51 -26.0 -3.05 -0.02 0.00 28.0 27.8 93.2 92.6 6.838 56.74164 60.79870 0 1 1 0 1 0 0
51.49996930 18:35:46 261.00 -0.00 -7.24 236.2 0.6 265.8 0.76 9.32 1.07 -137.9 -16.53 -26.0 -3.05 -0.02 0.00 28.0 27.8 93.2 92.6 6.838 56.74165 60.79849 0 1 1 0 1 0 0
51.66663587 18:35:46 261.01 -0.02 -7.48 236.3 0.7 266.6 1.03 9.55 1.09 -129.6 -14.39 -26.0 -3.05 -0.01 0.00 28.0 27.8 93.2 92.6 6.837 56.74166 60.79826 0 1 1 0 1 0 0
51.83330243 18:35:47 261.00 0.00 -7.63 236.5 0.9 267.4 1.32 9.71 1.10 -115.4 -13.00 -26.0 -3.05 -0.02 0.00 28.0 27.8 93.2 92.6 6.835 56.74166 60.79803 0 1 1 0 1 0 0
51.99996900 18:35:47 261.01 -0.00 -7.72 236.8 1.2 268.3 1.60 9.81 1.11 -112.3 -11.91 -26.0 -3.05 -0.02 0.00 28.0 27.8 93.2 92.6 6.834 56.74167 60.79780 0 1 1 0 1 0 0
52.16663557 18:35:47 261.00 -0.00 -7.78 237.0 1.5 269.1 1.84 9.85 1.12 -89.0 -10.39 -26.0 -3.05 -0.04 0.00 28.0 27.8 93.2 92.6 6.833 56.74168 60.79758 0 1 1 0 1 0 0
52.33330214 18:35:47 261.01 -0.00 -7.80 237.5 2.1 270.3 2.15 9.83 1.12 -83.0 -9.54 -26.0 -3.05 -0.01 0.00 28.0 27.8 93.2 92.6 6.832 56.74169 60.79726 0 1 1 0 1 0 0
52.49996870 18:35:47 261.00 -0.01 -7.80 237.7 2.3 270.6 2.25 9.79 1.11 -83.4 -9.33 -26.0 -3.05 -0.01 0.00 28.0 27.8 93.2 92.6 6.832 56.74170 60.79714 0 1 1 0 1 0 0
52.66663527 18:35:47 261.01 -0.01 -7.79 238.3 2.9 271.8 2.50 9.71 1.10 -83.7 -9.50 -26.0 -3.05 -0.01 0.00 28.0 27.8 93.2 92.6 6.830 56.74171 60.79681 0 1 1 0 1 0 0
52.83330184 18:35:48 261.00 -0.00 -7.79 238.5 3.1 272.1 2.57 9.63 1.09 -81.6 -9.35 -26.0 -3.05 -0.01 0.00 28.0 27.8 93.2 92.6 6.828 56.74172 60.79670 0 1 1 0 1 0 0
52.99996840 18:35:48 261.01 -0.01 -7.80 239.0 3.6 272.9 2.70 9.55 1.08 -82.4 -9.29 -26.0 -3.05 -0.01 0.00 28.0 27.8 93.2 92.6 6.828 56.74173 60.79646 0 1 1 0 1 0 0
53.16663497 18:35:48 261.00 -0.01 -7.80 239.6 4.2 273.6 2.82 9.47 1.07 -83.2 -9.19 -26.0 -3.05 -0.01 0.00 28.0 27.8 93.2 92.6 6.827 56.74174 60.79622 0 1 1 0 1 0 0
53.33330154 18:35:48 261.01 -0.00 -7.81 239.8 4.5 274.0 2.87 9.40 1.06 -83.4 -9.34 -26.0 -3.05 -0.01 0.00 28.0 27.8 93.2 92.6 6.826 56.74174 60.79610 0 1 1 0 1 0 0
53.49996811 18:35:48 261.00 -0.01 -7.82 240.4 5.0 274.7 2.96 9.33 1.05 -82.4 -9.26 -26.0 -3.05 -0.01 0.00 28.0 27.8 93.2 92.6 6.825 56.74175 60.79585 0 1 1 0 1 0 0
53.66663467 18:35:48 261.01 -0.02 -7.84 241.0 5.6 275.4 3.03 9.27 1.05 -81.9 -9.02 -26.0 -3.05 -0.01 0.00 28.0 27.8 93.2 92.6 6.825 56.74176 60.79561 0 1 1 0 1 0 0
53.83330124 18:35:49 261.01 -0.01 -7.86 241.4 6.1 276.0 3.09 9.22 1.04 -81.4 -9.23 -26.0 -3.05 -0.01 0.00 28.0 27.8 93.2 92.6 6.824 56.74177 60.79541 0 1 1 0 1 0 0
53.99996781 18:35:49 261.01 -0.01 -7.87 242.0 6.7 276.6 3.14 9.18 1.03 -81.4 -9.08 -26.0 -3.05 -0.01 0.00 28.0 27.8 93.3 92.6 6.821 56.74178 60.79519 0 1 1 0 0 0 0
54.16663438 18:35:49 261.01 -0.01 -7.89 242.6 7.2 277.2 3.19 9.15 1.03 -80.3 -9.08 -26.0 -3.05 -0.01 0.00 28.0 27.8 93.3 92.6 6.820 56.74179 60.79496 0 1 1 0 0 0 0
54.33330094 18:35:49 261.01 -0.01 -7.94 243.5 8.1 278.2 3.26 9.12 1.02 -81.3 -9.03 -26.0 -3.05 -0.02 0.00 28.0 27.8 93.3 92.6 6.819 56.74180 60.79460 0 1 1 0 0 0 0
54.49996751 18:35:49 261.01 -0.01 -7.95 244.1 8.8 278.8 3.30 9.10 1.02 -80.2 -8.92 -26.0 -3.05 -0.01 0.00 28.0 27.8 93.3 92.6 6.818 56.74181 60.79436 0 1 1 0 0 0 0
54.66663408 18:35:49 261.01 -0.00 -7.97 244.4 9.1 279.2 3.32 9.08 1.01 -80.3 -9.07 -26.0 -3.05 -0.02 0.00 28.0 27.8 93.3 92.6 6.818 56.74181 60.79424 0 1 1 0 0 0 0
54.83330065 18:35:50 261.01 -0.01 -8.00 245.0 9.7 279.8 3.37 9.07 1.01 -80.1 -8.97 -26.0 -3.05 -0.01 0.00 28.0 27.8 93.3 92.6 6.815 56.74182 60.79399 0 1 1 0 0 0 0
54.99996721 18:35:50 261.01 -0.02 -8.02 245.7 10.4 280.4 3.41 9.06 1.01 -79.7 -8.59 -26.0 -3.05 -0.01 0.00 28.0 27.8 93.3 92.6 6.814 56.74183 60.79375 0 1 1 0 0 0 0
55.16663378 18:35:50 261.01 -0.00 -8.05 246.3 11.0 281.0 3.45 9.06 1.01 -80.8 -8.73 -26.0 -3.05 -0.01 0.00 28.0 27.8 93.3 92.6 6.813 56.74184 60.79351 0 1 1 0 0 0 0
55.33330035 18:35:50 261.01 -0.01 -8.07 246.9 11.7 281.6 3.49 9.05 1.01 -79.9 -8.85 -26.0 -3.05 -0.01 0.00 28.0 27.8 93.3 92.6 6.812 56.74185 60.79327 0 1 1 0 0 0 0
55.49996691 18:35:50 261.01 -0.01 -8.10 247.7 12.4 282.2 3.54 9.05 1.01 -79.9 -8.68 -26.0 -3.05 -0.01 0.00 28.0 27.8 93.3 92.6 6.812 56.74186 60.79301 0 1 1 0 0 0 0
55.66663348 18:35:50 261.01 -0.00 -8.12 247.9 12.7 282.6 3.56 9.05 1.01 -78.1 -8.86 -26.0 -3.05 -0.01 0.00 28.0 27.8 93.3 92.6 6.811 56.74187 60.79290 0 1 1 0 0 0 0
55.83330005 18:35:51 261.01 -0.01 -8.16 248.9 13.7 283.3 3.63 9.05 1.01 -80.2 -8.85 -26.0 -3.05 -0.01 -0.05 28.0 27.8 93.3 92.6 6.807 56.74188 60.79255 0 1 1 0 0 0 0
55.99996662 18:35:51 261.01 -0.01 -8.20 249.8 14.6 284.1 3.70 9.05 1.01 -77.6 -8.37 -26.0 -3.05 -0.01 -0.05 28.0 27.8 93.3 92.6 6.806 56.74189 60.79223 0 1 1 0 0 0 0
56.16663318 18:35:51 261.01 -0.00 -8.21 250.1 14.9 284.4 3.72 9.05 1.01 -75.8 -8.52 -26.0 -3.05 -0.01 -0.05 28.0 27.8 93.3 92.6 6.806 56.74190 60.79212 0 1 1 0 0 0 0
56.33329975 18:35:51 261.02 0.01 -8.24 251.1 15.9 285.2 3.80 9.04 1.01 -76.6 -8.35 -26.0 -3.05 -0.01 -0.05 28.0 27.8 93.3 92.6 6.805 56.74191 60.79178 0 1 1 0 0 0 0
56.49996632 18:35:51 261.01 0.01 -8.26 251.7 16.5 285.7 3.86 9.03 1.01 -69.8 -8.24 -26.0 -3.05 -0.01 -0.05 28.0 27.8 93.3 92.6 6.804 56.74192 60.79157 0 1 1 0 0 0 0
56.66663289 18:35:51 261.02 0.02 -8.27 252.0 16.9 285.9 3.88 9.03 1.01 -59.7 -7.03 -26.0 -3.05 -0.01 -0.05 28.0 27.8 93.3 92.6 6.804 56.74192 60.79146 0 1 1 0 0 0 0
56.83329945 18:35:52 261.02 0.03 -8.25 253.0 17.9 286.7 3.96 9.01 1.02 -59.1 -6.72 -26.0 -3.05 -0.01 -0.05 28.0 27.8 93.3 92.6 6.800 56.74194 60.79112 0 1 1 0 0 0 0
56.99996602 18:35:52 261.03 0.03 -8.24 253.7 18.6 287.2 4.01 8.98 1.02 -58.6 -6.62 -26.0 -3.05 -0.02 -0.05 28.0 27.8 93.3 92.6 6.799 56.74195 60.79089 0 1 1 0 0 0 0
57.16663259 18:35:52 261.02 0.04 -8.21 254.5 19.4 287.8 4.07 8.95 1.02 -58.4 -6.67 -26.0 -3.05 -0.02 -0.05 28.0 27.8 93.3 92.6 6.798 56.74196 60.79064 0 1 1 0 0 0 0
57.33329916 18:35:52 261.03 0.04 -8.20 255.3 20.1 288.4 4.12 8.91 1.01 -59.2 -6.57 -26.0 -3.05 -0.01 -0.05 28.0 27.8 93.3 92.6 6.798 56.74197 60.79039 0 1 1 0 0 0 0
57.49996572 18:35:52 261.03 0.05 -8.18 256.0 20.9 288.9 4.16 8.87 1.01 -58.3 -6.49 -26.0 -3.05 -0.01 -0.05 28.0 27.8 93.3 92.6 6.797 56.74198 60.79015 0 1 1 0 0 0 0
57.66663229 18:35:52 261.04 0.05 -8.17 256.4 21.3 289.2 4.19 8.84 1.01 -59.2 -6.62 -26.0 -3.05 -0.01 -0.05 28.0 27.8 93.3 92.6 6.797 56.74198 60.79002 0 1 1 0 0 0 0
57.83329886 18:35:53 261.04 0.06 -8.16 257.2 22.1 289.7 4.24 8.80 1.01 -61.9 -6.71 -26.0 -3.05 -0.01 -0.05 28.0 27.8 93.3 92.6 6.793 56.74199 60.78976 0 1 1 0 0 0 0
57.99996542 18:35:53 261.04 0.07 -8.15 258.4 23.3 290.6 4.30 8.76 1.01 -61.6 -7.13 -26.0 -3.05 -0.01 -0.05 28.0 27.8 93.3 92.6 6.792 56.74201 60.78940 0 1 1 0 0 0 0
58.16663199 18:35:53 261.04 0.07 -8.15 259.2 24.1 291.1 4.35 8.72 1.01 -59.8 -6.90 -26.0 -3.05 -0.01 -0.05 28.0 27.8 93.3 92.6 6.791 56.74202 60.78915 0 1 1 0 0 0 0
58.33329856 18:35:53 261.05 0.08 -8.16 259.6 24.6 291.4 4.37 8.69 1.01 -58.5 -6.73 -26.0 -3.05 -0.01 -0.05 28.0 27.8 93.3 92.6 6.791 56.74202 60.78902 0 1 1 0 0 0 0
58.49996513 18:35:53 261.05 0.08 -8.15 260.5 25.5 292.0 4.42 8.66 1.01 -57.6 -6.47 -26.0 -3.05 -0.01 -0.05 28.0 27.8 93.3 92.6 6.790 56.74203 60.78875 0 1 1 0 0 0 0
58.66663169 18:35:53 261.05 0.09 -8.14 261.4 26.4 292.5 4.47 8.63 1.01 -56.1 -6.39 -26.0 -3.05 -0.01 -0.05 28.0 27.8 93.3 92.6 6.789 56.74204 60.78848 0 1 1 0 0 0 0
58.83329826 18:35:54 261.05 0.10 -8.14 261.8 26.8 292.7 4.50 8.60 1.01 -56.9 -6.41 -26.0 -3.05 -0.01 -0.05 28.0 27.8 93.3 92.6 6.785 56.74205 60.78836 0 1 1 0 0 0 0
58.99996483 18:35:54 261.06 0.10 -8.13 262.7 27.7 293.3 4.55 8.57 1.01 -57.6 -6.43 -26.0 -3.05 -0.01 -0.05 28.0 27.8 93.3 92.6 6.784 56.74206 60.78810 0 1 1 0 0 0 0
59.16663140 18:35:54 261.06 0.10 -8.14 263.6 28.6 293.8 4.60 8.54 1.01 -58.1 -6.37 -26.0 -3.05 -0.01 -0.05 28.0 27.8 93.4 92.6 6.784 56.74207 60.78784 0 1 1 0 0 0 0
59.33329796 18:35:54 261.06 0.10 -8.14 264.4 29.4 294.4 4.64 8.51 1.01 -56.7 -6.36 -26.0 -3.05 -0.01 -0.05 28.0 27.8 93.4 92.6 6.783 56.74208 60.78760 0 1 1 0 0 0 0
59.49996453 18:35:54 261.06 0.10 -8.14 264.8 29.8 294.6 4.67 8.49 1.01 -57.4 -6.43 -26.0 -3.05 -0.01 -0.05 28.0 27.8 93.4 92.6 6.783 56.74208 60.78747 0 1 1 0 0 0 0
59.66663110 18:35:54 261.07 0.09 -8.15 266.1 31.1 295.4 4.74 8.46 1.01 -57.3 -6.28 -26.0 -3.05 -0.01 -0.05 28.0 27.8 93.4 92.6 6.782 56.74210 60.78710 0 1 1 0 0 0 0
59.83329766 18:35:54 261.07 0.08 -8.14 266.5 31.6 295.6 4.76 8.43 1.01 -51.5 -6.07 -26.0 -3.05 -0.01 -0.05 28.0 27.8 93.4 92.6 6.777 56.74210 60.78698 0 1 1 0 0 0 0
59.99996423 18:35:55 261.07 0.09 -8.14 267.4 32.5 296.1 4.81 8.41 1.01 -44.9 -5.10 -26.0 -3.05 -0.01 -0.05 28.0 27.8 93.4 92.6 6.777 56.74211 60.78673 0 1 1 0 0 0 0
60.16663080 18:35:55 261.07 0.08 -8.13 268.3 33.4 296.6 4.86 8.38 1.01 -45.3 -5.08 -26.0 -3.05 -0.02 -0.05 28.0 27.8 93.4 92.6 6.776 56.74212 60.78648 0 1 1 0 0 0 0
60.33329737 18:35:55 261.08 0.07 -8.11 268.8 33.8 296.8 4.88 8.35 1.01 -45.3 -5.08 -26.0 -3.05 -0.01 -0.05 28.0 27.8 93.4 92.6 6.776 56.74213 60.78635 0 1 1 0 0 0 0
60.49996393 18:35:55 261.07 0.06 -8.09 270.1 35.2 297.6 4.95 8.32 1.01 -44.9 -5.18 -26.0 -3.05 -0.01 -0.05 28.0 27.8 93.4 92.6 6.775 56.74214 60.78596 0 1 1 0 0 0 0
60.66663050 18:35:55 261.08 0.05 -8.08 271.0 36.2 298.1 4.99 8.28 1.01 -45.3 -5.08 -26.0 -3.05 -0.01 -0.05 28.0 27.8 93.4 92.6 6.774 56.74215 60.78572 0 1 1 0 0 0 0
60.83329707 18:35:55 261.09 0.05 -8.07 271.5 36.6 298.4 5.02 8.25 1.01 -46.9 -5.02 -26.0 -3.05 -0.01 -0.05 28.0 27.8 93.4 92.6 6.774 56.74216 60.78559 0 1 1 0 0 0 0
60.99996364 18:35:56 261.08 0.04 -8.07 272.5 37.6 298.8 5.06 8.21 1.01 -46.1 -5.17 -26.0 -3.05 -0.01 -0.05 28.0 27.8 93.4 92.6 6.769 56.74217 60.78533 0 1 1 0 0 0 0
61.16663020 18:35:56 261.09 0.03 -8.05 273.5 38.6 299.3 5.10 8.18 1.01 -40.4 -5.04 -26.0 -3.05 -0.01 -0.05 28.0 27.8 93.4 92.6 6.769 56.74218 60.78506 0 1 1 0 0 0 0
61.33329677 18:35:56 261.09 0.03 -8.04 274.3 39.5 299.8 5.13 8.15 1.01 -30.5 -3.63 -26.0 -3.05 -0.02 -0.05 28.0 27.8 93.4 92.6 6.768 56.74219 60.78483 0 1 1 0 0 0 0
61.49996334 18:35:56 261.09 0.03 -8.01 275.2 40.4 300.3 5.16 8.12 1.01 -27.3 -3.35 -26.0 -3.05 -0.02 -0.05 28.0 27.8 93.4 92.6 6.768 56.74220 60.78458 0 1 1 0 0 0 0
61.66662991 18:35:56 261.09 0.02 -7.97 276.2 41.4 300.8 5.20 8.08 1.01 -26.1 -3.20 -26.0 -3.05 -0.07 -0.05 28.0 27.8 93.4 92.6 6.767 56.74221 60.78433 0 1 1 0 0 0 0
61.83329647 18:35:56 261.09 0.01 -7.93 277.2 42.3 301.2 5.22 8.03 1.01 -26.1 -2.92 -26.0 -3.05 -0.02 -0.05 28.0 27.8 93.4 92.6 6.762 56.74222 60.78407 0 1 1 0 0 0 0
61.99996304 18:35:57 261.09 0.01 -7.90 277.7 42.8 301.5 5.23 7.99 1.00 -26.0 -2.92 -26.0 -3.05 -0.02 -0.05 28.0 27.8 93.4 92.6 6.762 56.74222 60.78394 0 1 1 0 0 0 0
62.16662961 18:35:57 261.10 0.00 -7.84 279.1 44.3 302.3 5.26 7.95 1.00 -26.1 -3.19 -26.0 -3.05 -0.02 -0.05 28.0 27.8 93.4 92.6 6.761 56.74224 60.78355 0 1 1 0 0 0 0
62.33329617 18:35:57 261.09 -0.00 -7.83 279.5 44.7 302.5 5.27 7.90 1.00 -26.0 -2.92 -26.0 -3.05 -0.02 -0.05 28.0 27.8 93.4 92.6 6.761 56.74224 60.78344 0 1 1 0 0 0 0
62.49996274 18:35:57 261.10 -0.01 -7.77 280.9 46.1 303.2 5.28 7.86 1.00 -26.0 -3.12 -26.0 -3.05 -0.02 -0.05 28.0 27.8 93.4 92.6 6.760 56.74226 60.78308 0 1 1 0 0 0 0
62.66662931 18:35:57 261.09 -0.01 -7.73 282.2 47.4 303.8 5.30 7.81 1.00 -26.1 -3.09 -26.0 -3.05 -0.01 -0.05 28.0 27.8 93.4 92.6 6.759 56.74227 60.78274 0 1 1 0 0 0 0
62.83329588 18:35:57 261.10 -0.01 -7.72 282.6 47.9 304.0 5.30 7.77 1.00 -26.0 -2.92 -26.0 -3.05 -0.01 -0.05 28.0 27.8 93.4 92.6 6.754 56.74228 60.78262 0 1 1 0 0 0 0
62.99996244 18:35:58 261.10 -0.02 -7.67 284.1 49.3 304.7 5.31 7.74 0.99 -26.0 -3.10 -26.0 -3.05 -0.01 -0.05 28.0 27.8 93.4 92.6 6.753 56.74229 60.78226 0 1 1 0 0 0 0
63.16662901 18:35:58 261.10 -0.01 -7.67 284.5 49.7 304.9 5.31 7.70 0.99 -26.0 -2.92 -26.0 -3.05 -0.01 -0.05 28.0 27.8 93.4 92.6 6.753 56.74229 60.78214 0 1 1 0 0 0 0
63.66662871 18:35:58 261.10 -0.02 -7.58 287.9 53.1 306.6 5.34 7.61 0.99 -26.0 -3.04 -26.0 -3.05 -0.01 -0.05 28.0 27.8 93.4 92.6 6.750 56.74233 60.78125 0 1 1 0 0 0 0
64.16662842 18:35:59 261.11 -0.02 -7.52 290.7 55.9 307.9 5.36 7.54 0.99 -26.0 -2.91 -26.0 -3.05 -0.01 -0.05 28.0 27.8 93.4 92.6 6.744 56.74236 60.78052 0 1 1 0 0 0 0
64.66662812 18:35:59 261.11 -0.02 -7.48 293.1 58.4 309.1 5.39 7.47 0.99 -26.0 -2.91 -26.0 -3.05 -0.01 -0.05 28.0 27.8 93.4 92.6 6.742 56.74238 60.77989 0 1 1 0 0 0 0
65.16662782 18:36:00 261.12 -0.01 -7.44 296.0 61.2 310.4 5.44 7.42 1.00 -26.6 -3.08 -26.0 -3.05 -0.01 -0.05 28.0 27.8 93.4 92.6 6.736 56.74241 60.77914 0 1 1 0 0 0 0
65.66662752 18:36:00 261.12 -0.00 -7.40 298.8 64.1 311.8 5.49 7.36 1.00 -26.3 -2.95 -26.0 -3.05 -0.01 -0.05 28.0 27.8 93.5 92.6 6.735 56.74245 60.77839 0 1 1 0 0 0 0
66.16662722 18:36:01 261.13 -0.00 -7.38 301.5 66.8 312.9 5.55 7.32 1.00 -26.3 -2.94 -26.0 -3.05 -0.00 -0.05 28.0 27.8 93.5 92.6 6.728 56.74247 60.77770 0 1 1 0 0 0 0
66.66662693 18:36:01 261.13 0.00 -7.37 304.0 69.4 314.0 5.61 7.27 1.00 -26.2 -2.93 -26.0 -3.05 -0.02 -0.05 28.0 27.8 93.5 92.6 6.727 56.74250 60.77705 0 1 1 0 0 0 0
67.16662663 18:36:02 261.14 0.00 -7.36 307.1 72.5 315.3 5.69 7.22 1.00 -30.3 -3.36 -26.0 -3.05 -0.03 -0.05 28.0 27.8 93.5 92.6 6.720 56.74253 60.77627 0 1 1 0 0 0 0
67.66662633 18:36:02 261.14 0.01 -7.43 310.2 75.7 316.6 5.81 7.18 1.01 -54.1 -6.00 -26.0 -3.05 -0.00 -0.05 28.0 27.8 93.5 92.6 6.718 56.74256 60.77547 0 1 1 0 0 0 0
68.16662603 18:36:03 261.16 0.01 -7.60 313.4 78.9 317.7 5.98 7.21 1.02 -43.4 -4.55 -26.0 -3.05 -0.00 -0.05 28.0 27.8 93.5 92.6 6.712 56.74259 60.77469 0 1 1 0 0 0 0
68.66662573 18:36:03 261.16 0.01 -7.70 316.2 81.7 318.7 6.17 7.23 1.03 -47.9 -5.27 -26.0 -3.05 -0.00 -0.05 28.0 27.8 93.5 92.6 6.711 56.74262 60.77402 0 1 1 0 0 0 0
69.16662544 18:36:04 261.17 0.01 -7.85 319.2 84.8 319.5 6.41 7.24 1.03 -58.9 -6.31 -26.0 -3.05 -0.00 -0.05 28.0 27.7 93.5 92.6 6.704 56.74265 60.77332 0 1 1 0 0 0 0
69.66662514 18:36:04 261.17 0.02 -8.07 322.9 88.6 320.6 6.73 7.26 1.04 -57.7 -6.09 -26.0 -3.05 -0.00 -0.05 28.0 27.7 93.5 92.6 6.702 56.74268 60.77249 0 1 1 0 0 0 0
70.16662484 18:36:05 261.19 0.02 -8.29 327.1 93.0 321.5 7.13 7.27 1.05 -38.5 -4.41 -26.0 -3.05 -0.00 -0.05 28.0 27.7 93.5 92.6 6.695 56.74272 60.77159 0 1 1 0 0 0 0
70.66662454 18:36:05 261.19 0.02 -8.37 331.2 97.1 322.4 7.46 7.23 1.05 -35.1 -3.82 -26.0 -3.05 -0.00 -0.05 28.0 27.7 93.5 92.6 6.694 56.74276 60.77076 0 1 1 0 0 0 0
71.16662424 18:36:06 261.23 0.02 -8.44 335.3 101.4 323.2 7.75 7.14 1.05 -34.2 -3.84 -26.0 -3.05 -0.00 -0.05 28.0 27.7 93.5 92.6 6.687 56.74279 60.76996 0 1 1 0 0 0 0
71.66662395 18:36:06 261.22 0.02 -8.49 339.5 105.7 323.9 7.99 7.05 1.04 -31.0 -3.45 -26.0 -3.05 -0.00 -0.05 28.0 27.7 93.5 92.6 6.686 56.74282 60.76916 0 1 1 0 0 0 0
72.16662365 18:36:07 261.22 0.02 -8.56 343.7 110.0 324.5 8.19 6.97 1.03 -51.8 -4.22 -26.0 -3.05 -0.00 -0.05 28.0 27.7 93.5 92.6 6.678 56.74285 60.76838 0 1 1 0 0 0 0
72.66662335 18:36:07 261.24 0.02 -8.76 348.6 115.0 325.1 8.45 6.94 1.03 -38.3 -4.36 -26.0 -3.05 -0.00 -0.05 28.0 27.7 93.5 92.6 6.677 56.74289 60.76751 0 1 1 0 0 0 1
73.16662305 18:36:08 261.24 0.02 -8.91 353.6 120.2 325.6 8.73 6.94 1.04 -42.3 -4.76 -26.0 -3.05 -0.00 -0.05 28.0 27.7 93.5 92.6 6.670 56.74293 60.76664 0 1 1 0 0 0 1
73.66662275 18:36:08 261.25 0.02 -9.04 358.0 124.7 326.1 8.98 6.93 1.04 -36.8 -4.22 -26.0 -3.05 -0.00 -0.05 28.0 27.7 93.5 92.6 6.670 56.74296 60.76590 0 1 1 0 0 0 1
74.16662245 18:36:11 261.26 0.02 -9.15 362.7 129.5 326.4 9.22 6.91 1.04 -34.8 -3.89 -26.0 -3.05 -0.00 -0.05 27.6 27.7 93.5 92.6 6.661 56.74299 60.76513 0 1 1 0 0 0 1
74.66662216 18:36:11 261.27 0.02 -9.29 368.8 135.7 327.0 9.42 6.89 1.03 -31.2 -3.37 -26.0 -3.05 -0.00 -0.05 26.2 27.7 93.5 92.6 6.660 56.74303 60.76416 0 1 1 0 0 0 1
75.16662186 18:36:12 261.28 0.02 -9.41 373.8 140.8 327.3 9.52 6.91 1.01 -28.6 -3.07 -26.0 -3.05 -0.00 -0.05 25.1 27.7 93.6 92.6 6.652 56.74306 60.76336 0 1 1 0 0 0 1
75.66662156 18:36:12 261.29 0.02 -9.52 378.8 145.9 327.8 9.57 6.97 1.01 -18.7 -2.52 -26.0 -3.05 -0.03 -0.05 24.0 27.7 93.6 92.6 6.651 56.74309 60.76258 0 1 1 0 0 0 1
76.16662126 18:36:13 261.29 0.02 -9.50 383.1 150.3 328.2 9.56 7.03 1.00 6.9 0.61 -26.0 -3.05 -0.05 -0.05 23.0 27.7 93.6 92.6 6.642 56.74312 60.76191 0 1 1 0 0 0 1
76.66662096 18:36:13 261.31 0.01 -9.41 387.7 154.9 328.9 9.49 7.03 0.98 4.9 0.81 -26.0 -3.05 -0.03 -0.05 22.0 27.7 93.6 92.6 6.641 56.74315 60.76119 0 1 1 0 0 0 1
77.16662067 18:36:14 261.31 0.01 -9.33 393.1 161.0 329.6 9.32 7.03 0.96 5.5 0.36 -26.0 -3.05 -0.02 -0.05 20.8 27.7 93.6 92.6 6.632 56.74319 60.76033 0 1 1 0 0 0 0
77.66662037 18:36:14 261.33 0.01 -9.28 397.4 165.4 330.4 9.14 7.08 0.95 11.0 1.53 -26.0 -3.05 -0.04 -0.05 19.8 27.7 93.6 92.6 6.631 56.74322 60.75962 0 1 1 0 0 0 0
78.16662007 18:36:15 261.33 0.01 -9.23 402.6 170.5 331.3 8.91 7.15 0.95 7.9 0.87 -26.0 -3.05 -0.02 -0.05 18.5 27.7 93.6 92.6 6.621 56.74326 60.75876 0 1 1 0 0 0 0
78.66661977 18:36:15 261.34 0.01 -9.22 406.6 174.6 332.3 8.72 7.25 0.94 6.7 0.62 -26.0 -3.05 -0.01 -0.05 17.6 27.7 93.6 92.6 6.620 56.74329 60.75807 0 1 1 0 0 0 0
79.16661947 18:36:16 261.35 0.01 -9.24 411.3 183.6 333.3 8.53 7.37 0.94 -2.1 -0.16 -26.0 -3.05 -0.02 -0.05 16.4 27.7 93.6 92.6 6.611 56.74332 60.75723 0 1 1 0 0 0 0
79.66661918 18:36:16 261.36 0.01 -9.30 415.4 187.7 334.4 8.39 7.51 0.95 -0.3 -0.04 -26.0 -3.05 -0.01 -0.05 15.4 27.7 93.6 92.6 6.609 56.74335 60.75651 0 1 1 0 0 0 0
80.16661888 18:36:17 261.37 0.02 -9.32 419.3 191.7 335.5 8.29 7.66 0.96 21.1 2.07 -26.0 -3.05 -0.01 -0.05 15.0 27.7 93.6 92.6 6.601 56.74338 60.75579 0 1 1 0 0 0 0
80.66661858 18:36:17 261.39 0.02 -9.14 424.6 196.9 337.2 8.20 7.71 0.97 35.0 3.87 -26.0 -3.05 -0.01 -0.05 15.0 27.7 93.6 92.6 6.598 56.74342 60.75480 0 1 1 0 0 0 0
81.16661828 18:36:18 261.39 0.03 -8.98 428.3 204.8 338.3 8.13 7.66 0.96 27.4 3.41 -26.0 -3.05 -0.01 -0.05 15.0 27.7 93.6 92.6 6.589 56.74345 60.75410 0 1 1 0 0 0 0
81.66661798 18:36:18 261.41 0.03 -8.85 432.6 209.1 339.7 8.02 7.60 0.96 16.5 1.99 -26.0 -3.05 -0.01 -0.05 15.0 27.7 93.6 92.6 6.587 56.74349 60.75326 0 1 1 0 0 0 0
82.16661769 18:36:19 261.42 0.03 -8.79 436.8 213.3 341.0 7.93 7.58 0.96 20.0 2.27 -26.0 -3.05 -0.01 -0.05 15.0 27.7 93.6 92.6 6.578 56.74353 60.75244 0 1 1 0 0 0 0
82.66661739 18:36:19 261.43 0.03 -8.74 440.4 216.9 342.3 7.89 7.56 0.97 17.9 2.24 -26.0 -3.05 -0.01 -0.05 15.0 27.7 93.6 92.6 6.576 56.74356 60.75173 0 1 1 0 0 0 0
83.16661709 18:36:20 261.44 0.03 -8.72 445.2 222.4 343.8 7.87 7.55 0.97 -11.7 -0.15 -26.0 -3.05 -0.01 -0.05 15.0 27.7 93.7 92.6 6.568 56.74360 60.75078 0 1 1 0 0 0 0
83.66661679 18:36:20 261.46 0.03 -8.89 449.6 227.0 345.2 7.96 7.61 0.99 -11.5 -0.96 -26.0 -3.05 -0.01 -0.05 15.0 27.7 93.7 92.6 6.565 56.74364 60.74988 0 1 1 0 0 0 0
84.16661649 18:36:21 261.47 0.03 -9.05 453.9 231.4 346.3 8.15 7.68 1.01 -10.0 -1.19 -26.0 -3.05 -0.01 -0.05 15.0 27.7 93.7 92.6 6.556 56.74367 60.74905 0 1 1 0 0 0 0
84.66661620 18:36:21 261.49 0.03 -9.19 458.1 235.7 347.6 8.40 7.74 1.02 -9.1 -0.80 -26.0 -3.05 -0.01 -0.05 15.0 27.7 93.7 92.6 6.554 56.74371 60.74823 0 1 1 0 0 0 0
85.16661590 18:36:22 261.50 0.03 -9.33 462.9 240.3 348.7 8.71 7.75 1.03 -9.1 -1.02 -26.0 -3.02 -0.01 -0.05 14.5 27.7 93.7 92.6 6.545 56.74375 60.74732 0 1 1 0 0 0 0
85.66661560 18:36:22 261.52 0.03 -9.41 467.6 245.1 350.0 8.90 7.76 1.03 24.6 2.54 -26.0 -2.92 -0.01 -0.05 13.4 27.7 93.7 92.6 6.544 56.74379 60.74647 0 1 1 0 0 0 0
86.16661530 18:36:23 261.53 0.03 -9.31 471.9 249.4 351.1 8.96 7.71 1.01 42.0 4.39 -26.0 -2.82 -0.01 -0.05 12.3 27.7 93.7 92.6 6.535 56.74382 60.74569 0 1 1 0 0 0 0
86.66661500 18:36:23 261.55 0.03 -8.94 477.5 254.8 352.9 8.77 7.60 0.98 87.1 8.09 -26.0 -2.72 -0.02 -0.05 11.0 27.7 93.7 92.6 6.532 56.74387 60.74467 0 1 1 0 0 0 0
87.16661471 18:36:24 261.56 0.03 -8.31 482.5 259.3 354.6 8.27 7.36 0.92 97.1 9.43 -26.0 -2.63 -0.02 -0.05 9.7 27.7 93.7 92.6 6.522 56.74391 60.74374 0 1 1 0 0 0 0
87.66661441 18:36:24 261.58 0.03 -7.53 488.1 264.4 357.3 7.21 7.11 0.87 95.1 9.61 -26.0 -2.52 -0.02 -0.05 8.2 27.7 93.7 92.6 6.518 56.74396 60.74256 0 1 1 0 0 0 0
88.16661411 18:36:25 261.58 0.02 -6.95 491.9 267.8 359.5 6.26 6.99 0.83 97.1 9.75 -26.0 -2.42 -0.01 -0.05 7.0 27.7 93.7 92.6 6.507 56.74400 60.74166 0 1 1 0 0 0 0
88.66661381 18:36:25 261.60 0.03 -6.40 494.9 281.7 361.8 5.30 6.95 0.80 89.8 9.19 -26.0 -2.32 -0.01 -0.05 5.9 27.7 93.8 92.6 6.504 56.74404 60.74083 0 1 1 0 0 0 0
89.16661351 18:36:26 261.62 0.03 -5.99 498.0 284.5 365.0 4.12 7.01 0.79 64.4 7.59 -26.0 -2.22 -0.01 -0.05 4.6 27.7 93.8 92.6 6.494 56.74409 60.73976 0 1 1 0 0 0 0
89.66661322 18:36:26 261.63 0.04 -5.89 499.9 286.3 367.5 3.37 7.21 0.81 23.8 2.60 -26.0 -2.12 -0.01 -0.05 3.5 27.7 93.8 92.6 6.485 56.74412 60.73895 0 1 1 0 0 0 0
90.16661292 18:36:27 261.65 0.04 -6.06 501.4 287.9 370.1 2.88 7.54 0.85 -23.3 -2.74 -26.0 -2.03 -0.03 -0.05 2.5 27.7 93.8 92.6 6.481 56.74416 60.73813 0 1 1 0 0 0 0
90.66661262 18:36:27 261.66 0.05 -6.43 502.9 278.5 373.2 2.66 7.98 0.91 -9.1 -1.11 -26.0 -1.92 -0.01 -0.05 1.3 27.7 93.8 92.6 6.473 56.74420 60.73718 0 1 1 0 0 0 0
91.16661232 18:36:28 261.69 0.06 -6.45 504.2 279.8 376.1 2.62 8.33 0.95 26.5 5.21 -26.0 -1.83 -0.01 -0.05 0.3 27.7 93.8 92.6 6.468 56.74424 60.73635 0 1 1 0 0 0 0
91.66661202 18:36:28 261.70 0.07 -6.28 505.7 281.1 379.6 2.56 8.40 0.96 15.3 2.81 -26.0 -1.72 -0.00 -0.05 0.0 27.7 93.9 92.6 6.463 56.74429 60.73538 0 1 1 0 0 0 0
92.16661173 18:36:29 261.72 0.08 -6.14 506.8 282.2 382.5 2.48 8.38 0.96 14.0 3.78 -26.0 -1.63 -0.00 -0.05 0.0 27.7 93.9 92.6 6.455 56.74432 60.73459 0 1 1 0 0 0 0
92.66661143 18:36:29 261.73 0.08 -6.00 508.2 283.4 386.0 2.40 8.31 0.96 6.8 2.57 -26.0 -1.52 -0.00 -0.05 0.0 27.7 93.9 92.6 6.450 56.74437 60.73361 0 1 1 0 0 0 0
93.16661113 18:36:30 261.75 0.08 -6.04 509.3 284.5 389.0 2.39 8.28 0.97 -19.5 -1.68 -26.0 -1.42 -0.02 -0.05 0.0 27.7 93.9 92.6 6.442 56.74441 60.73275 0 1 1 0 0 0 0
93.66661083 18:36:30 261.76 0.07 -6.29 510.6 286.0 392.2 2.56 8.35 1.00 -26.8 -3.02 -26.0 -1.32 -0.01 -0.05 0.0 27.7 93.9 92.6 6.436 56.74445 60.73178 0 1 1 0 0 0 0
94.16661053 18:36:31 261.78 0.07 -6.54 511.9 287.5 395.1 2.90 8.46 1.03 -30.7 -3.59 -26.0 -1.22 -0.01 -0.05 0.0 27.7 94.0 92.6 6.430 56.74449 60.73089 0 1 1 0 0 0 0
94.66661024 18:36:32 261.80 0.07 -6.81 513.4 288.9 397.9 3.37 8.53 1.06 -41.0 -4.21 -26.0 -1.14 -0.00 -0.05 0.0 27.7 94.0 92.6 6.425 56.74453 60.73001 0 1 1 0 0 0 0
95.16660994 18:36:33 261.82 0.07 -7.26 515.4 291.3 401.0 4.07 8.60 1.09 -53.5 -7.20 -26.0 -1.02 0.01 -0.05 0.0 27.7 94.0 92.6 6.417 56.74458 60.72897 0 1 1 0 0 0 0
95.66660964 18:36:33 261.84 0.07 -7.79 517.9 294.2 403.9 4.97 8.70 1.12 -56.8 -7.70 -26.0 -0.92 0.00 -0.05 0.0 27.7 94.0 92.6 6.411 56.74463 60.72793 0 1 1 0 0 0 0
96.16660934 18:36:34 261.86 0.09 -8.21 520.4 297.1 406.2 5.84 8.76 1.15 -55.8 -6.51 -26.0 -0.84 0.42 -0.05 0.0 27.7 94.0 92.6 6.403 56.74467 60.72703 0 1 1 0 0 0 0
96.66660904 18:36:34 261.88 0.18 -8.65 523.8 300.8 408.9 6.89 8.76 1.16 -54.4 -6.41 -26.0 -0.74 0.46 -0.05 0.0 27.7 94.0 92.6 6.398 56.74472 60.72599 0 1 1 0 0 0 0
97.16660875 18:36:35 261.90 0.28 -9.04 527.3 304.7 410.8 7.81 8.72 1.17 -54.3 -7.26 -26.0 -0.64 1.94 0.19 0.0 27.7 94.1 92.6 6.390 56.74477 60.72509 0 1 1 0 0 0 0
97.66660845 18:36:35 261.89 0.74 -9.46 531.9 309.8 413.2 8.89 8.67 1.17 -55.1 -6.60 -26.0 -0.53 3.71 0.19 0.0 27.7 94.1 92.6 6.386 56.74482 60.72403 0 1 1 0 0 0 1
98.16660815 18:36:36 261.86 1.50 -9.81 536.2 314.6 414.8 9.76 8.61 1.17 -54.3 -7.29 -26.0 -0.43 4.43 0.34 0.0 27.7 94.1 92.6 6.375 56.74486 60.72313 0 1 1 0 0 0 1
98.66660785 18:36:36 261.76 2.66 -10.17 541.1 320.0 416.5 10.63 8.54 1.16 -56.5 -6.62 -26.0 -0.34 5.36 0.49 0.0 27.7 94.1 92.6 6.372 56.74490 60.72221 0 1 1 0 0 0 1
99.16660755 18:36:37 261.59 4.17 -10.56 546.5 326.4 417.9 11.52 8.49 1.16 -58.7 -7.03 -26.0 -0.24 5.09 0.63 0.0 27.7 94.1 92.6 6.361 56.74495 60.72126 0 1 1 0 0 0 1
99.66660726 18:36:37 261.34 5.89 -11.04 553.2 334.7 419.6 12.53 8.46 1.16 -64.7 -8.01 -26.0 -0.13 2.68 0.63 0.0 27.7 94.1 92.6 6.358 56.74499 60.72018 0 1 1 0 0 0 1
100.1666069 18:36:38 260.99 7.23 -11.47 560.2 343.4 420.8 13.52 8.44 1.16 -64.2 -8.03 -26.0 -0.03 1.87 0.27 0.0 27.8 94.1 92.6 6.350 56.74504 60.71913 0 1 1 0 0 0 1
103.1666051 18:36:41 258.22 13.17 -12.90 612.4 407.1 425.9 17.94 7.87 1.08 -35.6 -4.42 -26.0 0.00 1.92 0.57 0.0 27.8 94.1 92.6 6.318 56.74521 60.71279 0 1 1 0 0 0 1
106.1666033 18:36:44 254.42 16.30 -12.99 670.4 474.4 428.7 18.66 7.56 1.02 -28.9 -3.39 -26.0 0.00 -0.11 0.65 0.0 27.8 94.2 92.6 6.280 56.74519 60.70663 0 1 1 0 0 0 0
109.1666015 18:36:48 250.64 16.53 -11.96 726.9 532.9 431.6 17.97 7.15 0.95 33.3 4.70 -26.0 0.00 -0.01 1.11 0.0 27.8 92.9 91.8 6.120 56.74494 60.70064 0 1 1 0 0 0 0
112.1665998 18:36:51 247.14 16.69 -9.43 775.9 573.5 435.1 13.02 6.71 0.86 -12.0 -0.50 -26.0 0.00 -0.29 0.88 0.0 27.8 84.6 86.9 5.109 56.74447 60.69443 0 1 1 0 0 0 0
115.1665980 18:36:54 243.32 16.22 -7.62 813.0 602.9 438.0 9.39 6.80 0.89 11.2 2.80 -26.0 0.00 -0.10 1.26 0.0 27.8 79.8 84.3 4.189 56.74375 60.68798 0 1 1 0 0 0 0
118.1665962 18:36:57 240.17 16.13 -4.63 835.2 609.1 440.4 4.06 6.32 0.79 -8.7 0.03 -26.0 0.00 -0.03 1.18 0.0 27.8 75.4 82.1 3.183 56.74287 60.68189 0 1 1 0 0 0 0
121.1665944 18:37:00 236.29 16.13 -3.75 841.1 606.3 444.7 0.24 7.05 0.97 -26.1 -2.91 -26.0 0.00 -0.00 1.26 0.0 27.8 74.4 81.6 2.969 56.74170 60.67542 0 1 1 0 0 0 0
124.1665926 18:37:03 232.56 16.09 -3.73 841.3 589.1 449.4 0.03 7.23 1.04 -26.1 -2.94 -26.0 0.00 0.00 1.02 0.0 27.8 73.8 81.3 2.835 56.74037 60.66939 0 1 1 0 0 0 0
127.1665908 18:37:06 228.80 16.02 -3.68 841.3 580.7 453.9 0.00 7.16 1.04 -26.1 -2.93 -26.0 0.00 0.00 0.87 0.0 27.8 73.7 81.2 2.802 56.73877 60.66333 0 1 1 0 0 0 0
130.1665890 18:37:09 225.05 15.90 -3.73 841.5 567.1 458.1 0.18 7.11 1.05 -26.2 -2.94 -26.0 0.00 0.00 0.96 0.0 27.8 73.7 81.2 2.789 56.73688 60.65729 0 1 1 0 0 0 0
133.1665872 18:37:13 221.46 15.77 -3.84 842.5 564.0 461.0 0.50 7.07 1.05 -26.1 -2.90 -26.0 0.00 0.00 0.57 0.0 27.7 70.9 79.8 2.265 56.73491 60.65186 0 1 1 0 0 0 0
136.1665855 18:37:16 217.70 15.58 -3.83 844.6 559.3 461.1 0.63 7.00 1.04 -16.4 -1.92 -16.4 0.00 -0.01 0.65 0.0 27.7 68.8 78.7 1.948 56.73250 60.64606 0 1 1 0 0 0 0
139.1665837 18:37:19 214.12 15.35 -3.48 845.7 552.4 461.0 -0.02 6.92 1.01 -14.8 -1.73 -14.0 0.00 -0.00 0.65 0.0 27.7 68.5 78.6 1.910 56.73006 60.64093 0 1 1 0 0 0 0
142.1665819 18:37:22 210.49 15.12 -3.17 844.4 545.0 461.4 -0.76 6.92 1.02 -14.7 -1.77 -14.0 0.00 -0.00 0.66 0.0 27.7 68.5 78.6 1.903 56.72723 60.63570 0 1 1 0 0 0 0
145.1665801 18:37:26 207.19 14.88 -2.91 841.2 529.0 462.4 -1.34 6.91 1.02 -16.6 -1.89 -14.0 0.00 -0.10 0.41 0.0 27.7 68.5 78.6 1.901 56.72454 60.63129 0 1 1 0 0 0 0
148.1665783 18:37:29 203.90 14.23 -3.06 836.7 517.0 463.6 -1.42 7.00 1.04 -42.4 -4.68 -14.0 0.00 -0.01 0.26 0.0 27.7 68.5 78.6 1.900 56.72169 60.62713 0 1 1 0 0 0 0
151.1665765 18:37:32 200.69 13.94 -3.75 834.2 504.1 464.0 -0.05 7.12 1.08 -40.8 -4.35 -38.0 0.00 -0.01 0.11 0.0 27.7 68.4 78.5 1.885 56.71854 60.62306 0 1 1 0 0 0 0
154.1665747 18:37:35 197.05 14.06 -4.52 838.0 500.9 461.9 2.14 7.12 1.07 -37.5 -3.90 -38.0 0.00 0.00 0.35 0.0 27.7 66.9 75.6 1.699 56.71501 60.61909 0 1 1 0 0 0 0
157.1665729 18:37:39 193.59 14.01 -4.28 844.9 505.7 458.8 1.68 6.92 1.01 -13.7 -1.61 -24.4 0.00 0.12 0.36 0.0 27.7 66.6 75.1 1.672 56.71150 60.61567 0 1 1 0 0 0 0
160.1665711 18:37:42 190.35 13.96 -3.42 848.2 516.7 457.1 0.08 6.81 0.97 -2.3 0.18 -14.8 0.00 0.09 0.50 0.0 27.7 66.6 75.1 1.671 56.70801 60.61272 0 1 1 0 0 0 0
163.1665694 18:37:46 186.98 13.74 -3.11 846.2 520.0 456.6 -1.06 6.97 1.01 -15.6 -1.82 -14.8 0.00 -0.04 0.26 0.0 27.7 66.6 75.1 1.671 56.70432 60.61006 0 1 1 0 0 0 0
166.1665676 18:37:49 183.82 14.01 -2.92 842.0 523.9 456.9 -1.56 7.00 1.02 -18.2 -2.15 -14.8 0.00 0.11 0.51 0.0 27.7 66.6 75.1 1.672 56.70080 60.60792 0 1 1 0 0 0 0
169.1665658 18:37:52 180.33 13.94 -2.95 836.4 524.1 457.4 -1.62 7.06 1.04 -21.7 -2.58 -19.6 0.00 0.02 0.51 0.0 27.7 66.6 75.1 1.672 56.69695 60.60603 0 1 1 0 0 0 0
172.1665640 18:37:55 176.83 13.67 -3.16 831.4 522.7 457.6 -1.22 7.09 1.04 -26.9 -3.06 -22.8 0.00 0.00 0.36 0.0 27.7 66.4 74.8 1.652 56.69300 60.60456 0 1 1 0 0 0 0
175.1665622 18:37:58 173.47 13.82 -3.84 828.7 530.8 456.9 -0.13 7.24 1.08 -44.3 -4.75 -42.8 0.00 1.02 0.35 0.0 27.7 66.3 74.6 1.642 56.68913 60.60355 0 1 1 0 0 0 0
178.1665604 18:38:01 169.78 15.49 -4.73 831.2 547.2 454.4 1.69 7.34 1.10 -27.9 -2.25 -46.8 0.00 0.46 0.11 0.0 27.7 65.5 73.6 1.550 56.68533 60.60300 0 1 1 0 0 0 0
181.1665586 18:38:04 166.22 15.65 -3.82 835.2 554.8 451.8 0.28 6.92 0.98 -38.5 -3.68 -46.8 0.00 0.00 -0.02 0.0 27.7 64.9 73.0 1.477 56.68162 60.60289 0 1 1 0 0 0 0
184.1665568 18:38:09 162.60 15.17 -3.73 835.6 560.6 449.8 -0.07 7.13 1.02 -21.7 -2.33 -25.2 0.00 -0.02 0.26 0.0 27.7 64.7 72.9 1.461 56.67800 60.60319 0 1 1 0 0 0 0
187.1665551 18:38:12 158.89 14.75 -3.44 834.0 560.7 448.2 -0.82 7.15 1.02 -28.4 -3.10 -28.4 0.00 0.61 0.26 0.0 27.7 64.6 72.8 1.457 56.67399 60.60400 0 1 1 0 0 0 0
190.1665533 18:38:15 155.21 15.35 -3.61 831.3 565.8 446.9 -0.74 7.30 1.05 -35.7 -4.00 -35.6 0.00 0.15 0.26 0.0 27.7 64.6 72.8 1.458 56.67041 60.60515 0 1 1 0 0 0 0
193.1665515 18:38:18 151.63 15.49 -3.94 829.6 567.8 445.5 -0.24 7.40 1.06 -43.6 -4.88 -43.6 0.00 -0.01 0.26 0.0 27.7 64.5 72.8 1.460 56.66702 60.60664 0 1 1 0 0 0 0
196.1665497 18:38:21 147.84 15.21 -3.76 829.7 573.0 443.6 -0.12 7.22 1.02 -31.8 -2.62 -43.6 0.00 0.00 0.26 0.0 27.7 64.5 72.8 1.463 56.66344 60.60867 0 1 1 0 0 0 0
199.1665479 18:38:24 144.10 14.91 -3.79 828.5 573.0 442.3 -0.44 7.34 1.04 -33.6 -3.67 -43.6 0.00 0.00 0.26 0.0 27.7 66.1 74.4 1.646 56.66001 60.61106 0 1 1 0 0 0 0
202.1665461 18:38:27 140.42 14.61 -3.82 826.9 572.4 442.1 -0.44 7.37 1.04 -39.7 -4.06 -43.6 0.00 0.00 0.36 0.0 27.7 67.2 76.4 1.785 56.65659 60.61392 0 1 1 0 0 0 0
205.1665443 18:38:30 136.98 14.32 -4.01 826.1 572.5 442.2 -0.03 7.39 1.05 -43.8 -4.92 -43.6 0.00 0.00 0.35 0.0 27.7 67.9 77.9 1.880 56.65339 60.61706 0 1 1 0 0 0 0
208.1665425 18:38:34 133.45 14.02 -4.45 827.4 576.3 441.9 0.91 7.47 1.07 -30.8 -2.62 -43.6 0.00 0.00 0.35 0.0 27.7 68.2 78.5 1.921 56.65026 60.62060 0 1 1 0 0 0 0
211.1665408 18:38:37 130.07 13.72 -4.12 830.0 583.9 441.6 0.54 7.25 1.01 -30.4 -2.70 -43.6 0.00 0.00 0.33 0.0 27.7 68.3 78.6 1.936 56.64723 60.62451 0 1 1 0 0 0 0
214.1665390 18:38:40 126.74 13.82 -4.45 831.8 588.5 441.4 0.88 7.43 1.05 -40.3 -4.18 -43.6 0.00 1.29 0.35 0.0 27.7 68.4 78.6 1.940 56.64439 60.62864 0 1 1 0 0 0 0
217.1665372 18:38:44 123.01 15.39 -4.55 835.5 596.3 440.7 1.22 7.36 1.03 -38.2 -3.98 -43.6 0.00 0.54 0.26 0.0 27.7 68.4 78.6 1.940 56.64167 60.63310 0 1 1 0 0 0 0
220.1665354 18:38:47 119.18 15.73 -4.43 838.4 595.2 440.3 0.71 7.40 1.04 -43.5 -4.74 -43.6 0.00 -0.08 0.26 0.0 27.7 68.4 78.6 1.940 56.63909 60.63794 0 1 1 0 0 0 0
223.1665336 18:38:50 115.25 15.37 -4.78 841.7 594.6 439.6 1.39 7.50 1.06 -31.1 -3.62 -43.6 0.00 -0.00 0.28 0.0 27.7 68.4 78.6 1.941 56.63675 60.64298 0 1 1 0 0 0 0
226.1665318 18:38:53 111.58 14.94 -4.04 845.0 594.9 439.3 0.21 7.21 0.99 -37.4 -4.05 -38.0 0.00 -0.05 0.27 0.0 27.7 68.4 78.6 1.940 56.63449 60.64854 0 1 1 0 0 0 0
229.1665300 18:38:56 107.92 14.62 -4.23 845.8 598.7 439.5 0.40 7.43 1.05 -35.0 -3.92 -35.6 0.00 -0.01 0.26 0.0 27.7 68.4 78.6 1.940 56.63253 60.65405 0 1 1 0 0 0 0
232.1665282 18:38:59 104.33 14.31 -3.90 847.2 604.6 439.7 0.14 7.26 1.01 -15.2 -1.36 -29.2 0.00 -0.01 0.50 0.0 27.7 68.4 78.6 1.939 56.63069 60.66007 0 1 1 0 0 0 0
235.1665264 18:39:02 100.77 14.02 -3.36 845.2 599.7 441.0 -1.14 7.25 1.01 -29.7 -3.09 -24.4 0.00 0.23 0.26 0.0 27.7 68.4 78.6 1.937 56.62903 60.66637 0 1 1 0 0 0 0
238.1665247 18:39:05 97.38 13.99 -3.69 841.9 594.5 442.3 -0.72 7.41 1.05 -34.7 -3.87 -34.0 0.00 0.05 0.26 0.0 27.7 68.4 78.6 1.936 56.62764 60.67258 0 1 1 0 0 0 0
241.1665229 18:39:10 94.00 13.99 -3.81 840.4 585.3 443.1 -0.27 7.35 1.04 -24.9 -2.22 -34.0 0.00 0.00 0.27 0.0 27.7 68.4 78.6 1.935 56.62648 60.67885 0 1 1 0 0 0 0
244.1665211 18:39:13 90.68 13.88 -3.63 839.2 577.9 444.0 -0.50 7.24 1.02 -31.9 -3.37 -34.0 0.00 0.25 0.26 0.0 27.7 68.4 78.6 1.934 56.62552 60.68527 0 1 1 0 0 0 0
247.1665193 18:39:16 87.32 14.41 -3.79 837.8 565.7 444.7 -0.33 7.31 1.04 -33.7 -3.69 -34.0 0.00 0.01 0.49 0.0 27.7 68.4 78.6 1.933 56.62476 60.69175 0 1 1 0 0 0 0
250.1665175 18:39:19 83.80 14.41 -3.94 837.2 558.9 445.2 -0.00 7.32 1.05 -33.6 -3.70 -34.0 0.00 -0.25 0.35 0.0 27.7 68.4 78.6 1.933 56.62422 60.69831 0 1 1 0 0 0 0
253.1665157 18:39:22 80.72 7.45 -4.29 838.1 538.2 445.2 0.79 7.37 1.06 -33.4 -3.49 -34.0 0.00 -6.05 -0.80 0.0 27.7 68.4 78.6 1.932 56.62389 60.70512 0 1 1 0 0 0 0
256.1665139 18:39:26 80.56 -1.20 -4.38 843.4 546.5 444.2 2.24 7.30 1.05 92.9 14.66 -34.0 0.00 -0.01 -0.63 0.0 27.7 68.4 78.6 1.934 56.62369 60.71180 0 1 1 0 0 0 0
259.1665121 18:39:29 80.86 -1.51 -3.70 843.1 551.0 444.9 -0.94 7.32 1.04 -34.1 -3.48 -34.0 0.00 -0.03 -0.49 0.0 27.7 68.4 78.6 1.932 56.62347 60.71827 0 1 1 0 0 0 0
262.1665104 18:39:32 81.11 0.73 -4.47 844.0 562.9 445.0 1.33 7.39 1.06 -32.0 -3.24 -34.0 0.00 0.52 0.04 0.0 27.7 68.4 78.6 1.932 56.62322 60.72511 0 1 1 0 0 0 0
265.1665086 18:39:35 80.72 1.71 -3.93 848.6 572.0 444.4 1.07 6.98 0.96 -21.4 -0.75 -34.0 0.00 -0.00 0.02 0.0 27.7 68.4 78.6 1.932 56.62298 60.73161 0 1 1 0 0 0 0
268.1665068 18:39:39 80.33 1.69 -3.88 851.2 578.4 444.2 0.57 7.09 0.99 -22.8 -1.54 -34.0 0.00 -0.00 0.04 0.0 27.7 68.4 78.6 1.932 56.62276 60.73825 0 1 1 0 0 0 0
271.1665050 18:39:42 79.95 1.65 -3.73 852.5 579.3 444.3 0.28 7.12 1.00 -5.1 -0.52 -10.0 0.00 -0.00 0.04 0.0 27.7 67.9 77.7 1.866 56.62257 60.74474 0 1 1 0 0 0 0
274.1665032 18:39:45 79.58 1.50 -3.22 852.6 577.6 444.4 -0.50 7.00 0.97 7.5 0.55 7.6 0.00 -0.07 0.04 0.0 27.7 66.9 75.9 1.746 56.62238 60.75177 0 1 1 0 0 0 0
277.1665014 18:39:48 79.32 0.04 -2.46 848.4 572.1 445.5 -2.13 6.93 0.95 6.9 0.52 7.6 0.00 -0.55 -0.11 0.0 27.7 66.8 75.7 1.728 56.62222 60.75851 0 1 1 0 0 0 0
280.1664996 18:39:51 79.53 -0.79 -2.36 839.5 564.2 447.7 -2.95 7.11 1.01 -25.8 -2.99 -10.8 0.00 -0.02 0.02 0.0 27.7 66.8 75.7 1.724 56.62206 60.76532 0 1 1 0 0 0 0
283.1664978 18:39:55 79.74 -0.65 -3.72 833.4 567.2 448.5 -0.46 7.48 1.10 -36.8 -4.21 -34.0 0.00 0.07 0.05 0.0 27.7 66.8 75.7 1.724 56.62190 60.77175 0 1 1 0 0 0 0
286.1664960 18:39:58 79.92 -0.37 -3.92 834.1 572.1 447.8 0.61 7.15 1.02 -17.9 -1.57 -30.8 0.00 -0.00 0.05 0.0 27.7 66.8 75.7 1.726 56.62172 60.77836 0 1 1 0 0 0 0
289.1664943 18:40:01 80.11 -0.27 -4.11 836.9 576.7 446.3 1.08 7.15 1.01 -22.7 -1.72 -28.4 0.00 -0.00 0.05 0.0 27.7 66.6 75.2 1.696 56.62151 60.78533 0 1 1 0 0 0 0
292.1664925 18:40:04 80.28 -0.05 -3.74 840.4 579.7 444.7 0.87 7.00 0.97 -11.6 0.67 -28.4 0.00 0.15 0.05 0.0 27.7 66.1 74.3 1.643 56.62131 60.79175 0 1 1 0 0 0 0
295.1664907 18:40:07 80.40 0.22 -3.85 841.2 581.9 443.6 0.11 7.21 1.01 -28.5 -3.20 -28.4 0.00 -0.03 0.05 0.0 27.7 66.0 74.1 1.626 56.62111 60.79789 0 1 1 0 0 0 0
298.1664889 18:40:11 80.45 0.58 -3.98 842.7 584.0 442.1 0.59 7.20 1.01 -16.4 -1.80 -16.4 0.00 0.43 0.05 0.0 27.7 65.9 74.0 1.619 56.62088 60.80470 0 1 1 0 0 0 0
301.1664871 18:40:14 80.35 0.95 -3.93 844.8 577.4 440.6 0.60 7.19 1.00 -2.7 -0.50 -6.0 0.00 -0.02 -0.04 0.0 27.7 65.8 73.9 1.616 56.62066 60.81141 0 1 1 0 0 0 0
304.1664853 18:40:17 80.30 -0.19 -3.43 845.3 559.2 439.7 -0.40 7.10 0.97 -4.7 -0.54 -2.8 0.00 -0.31 0.05 0.0 27.7 65.8 73.9 1.615 56.62044 60.81810 0 1 1 0 0 0 0
307.1664835 18:40:20 80.48 -0.75 -3.39 843.0 549.0 439.6 -0.88 7.25 1.00 -24.5 -2.54 -22.0 0.00 -0.26 0.04 0.0 27.7 65.8 73.9 1.615 56.62023 60.82467 0 1 1 0 0 0 0
310.1664817 18:40:24 80.78 -0.85 -3.73 841.0 536.9 439.1 -0.23 7.34 1.02 -21.9 -2.38 -22.0 0.00 -0.04 0.04 0.0 27.7 65.6 73.7 1.585 56.61998 60.83154 0 1 1 0 0 0 0
313.1664800 18:40:27 81.08 -0.75 -3.91 841.0 534.2 437.6 0.18 7.33 1.02 -21.0 -2.32 -22.0 0.00 -0.04 0.02 0.0 27.7 64.1 72.4 1.433 56.61974 60.83799 0 1 1 0 0 0 0
316.1664782 18:40:30 81.42 -0.64 -3.92 841.8 539.4 435.4 0.23 7.31 1.00 -18.5 -1.95 -19.6 0.00 -0.01 0.05 0.0 27.7 63.4 71.8 1.381 56.61946 60.84472 0 1 1 0 0 0 0
319.1664764 18:40:33 81.73 -0.54 -3.96 842.4 543.7 433.2 0.18 7.37 1.00 -19.6 -2.19 -19.6 0.00 1.07 0.05 0.0 27.6 63.2 71.7 1.368 56.61916 60.85140 0 1 1 0 0 0 0
322.1664746 18:40:38 81.99 0.30 -3.89 842.9 552.7 430.9 0.04 7.39 1.00 -15.0 -1.68 -19.6 0.00 -0.02 -0.05 0.0 27.6 63.1 71.6 1.367 56.61882 60.85848 0 1 1 0 0 0 0
325.1664728 18:40:41 82.15 0.29 -3.86 842.5 561.5 429.0 -0.22 7.45 1.00 -21.6 -2.51 -19.6 0.00 -0.02 -0.05 0.0 27.6 63.1 71.6 1.368 56.61849 60.86513 0 1 1 0 0 0 0
328.1664710 18:40:44 82.31 0.21 -3.88 841.7 565.5 427.3 -0.24 7.49 1.00 -22.0 -2.55 -19.6 0.00 -0.01 -0.05 0.0 27.6 63.1 71.6 1.371 56.61816 60.87168 0 1 1 0 0 0 0
331.1664692 18:40:47 82.44 0.29 -3.88 840.8 574.5 425.6 -0.31 7.51 1.00 -23.9 -2.78 -19.6 0.00 -0.00 -0.05 0.0 27.6 62.6 71.2 1.335 56.61782 60.87813 0 1 1 0 0 0 0
334.1664674 18:40:50 82.54 0.19 -3.93 839.8 578.4 423.6 -0.30 7.57 1.01 -24.6 -2.88 -19.6 0.00 0.00 -0.05 0.0 27.6 61.9 70.7 1.283 56.61748 60.88467 0 1 1 0 0 0 0
337.1664656 18:40:54 82.62 0.08 -3.90 838.7 578.4 421.8 -0.38 7.59 1.00 -22.8 -2.72 -19.6 0.00 0.00 -0.05 0.0 27.6 63.1 71.7 1.383 56.61712 60.89130 0 1 1 0 0 0 0
340.1664639 18:40:57 82.73 0.06 -3.86 837.2 579.2 420.7 -0.55 7.61 1.00 -27.5 -3.18 -19.6 0.00 0.00 -0.05 0.0 27.6 63.5 72.1 1.425 56.61677 60.89763 0 1 1 0 0 0 0
343.1664621 18:41:00 82.82 0.31 -3.96 835.5 578.7 419.7 -0.48 7.67 1.01 -30.7 -3.46 -28.4 0.00 0.39 -0.05 0.0 27.6 63.6 72.1 1.436 56.61643 60.90373 0 1 1 0 0 0 0
346.1664603 18:41:03 82.77 0.73 -4.17 834.5 578.7 418.4 -0.11 7.74 1.02 -28.4 -3.18 -28.4 0.00 0.06 -0.04 0.0 27.6 63.6 72.2 1.441 56.61608 60.91008 0 1 1 0 0 0 0
349.1664585 18:41:06 82.67 0.65 -4.19 834.3 573.4 417.0 -0.05 7.71 1.00 -28.4 -3.18 -28.4 0.00 -0.02 -0.04 0.0 27.6 63.6 72.2 1.444 56.61572 60.91662 0 1 1 0 0 0 0
352.1664567 18:41:10 82.41 1.68 -4.27 834.2 571.6 415.6 -0.01 7.76 1.01 -30.8 -3.53 -28.4 0.00 0.02 -0.05 0.0 27.6 63.6 72.2 1.446 56.61537 60.92312 0 1 1 0 0 0 0
355.1664549 18:41:14 81.92 1.78 -4.30 834.3 584.6 414.1 0.04 7.78 1.00 -28.7 -3.22 -28.4 0.00 -0.04 -0.04 0.0 27.6 63.6 72.2 1.448 56.61506 60.92939 0 1 1 0 0 0 0
358.1664531 18:41:17 81.56 0.83 -4.23 834.2 595.0 412.7 -0.11 7.78 1.00 -28.5 -3.23 -28.4 0.00 -0.01 -0.04 0.0 27.6 63.6 72.2 1.450 56.61476 60.93604 0 1 1 0 0 0 0
361.1664513 18:41:20 81.34 0.60 -4.21 833.5 611.7 411.6 -0.27 7.83 1.00 -30.7 -3.52 -28.4 0.00 -0.01 -0.04 0.0 27.6 63.6 72.2 1.452 56.61450 60.94206 0 1 1 0 0 0 0
364.1664496 18:41:23 81.13 0.41 -4.22 832.7 615.0 410.7 -0.28 7.85 1.00 -30.5 -3.53 -28.4 0.00 -0.01 -0.04 0.0 27.6 63.6 72.2 1.454 56.61427 60.94787 0 1 1 0 0 0 0
367.1664478 18:41:27 80.91 0.23 -4.19 831.6 620.8 409.7 -0.38 7.86 1.00 -30.5 -3.51 -28.4 0.00 -0.00 -0.04 0.0 27.6 63.6 72.2 1.457 56.61402 60.95439 0 1 1 0 0 0 0
370.1664460 18:41:30 80.71 0.06 -4.30 830.6 620.6 408.7 -0.23 7.92 1.01 -31.7 -3.65 -30.0 0.00 0.00 -0.04 0.0 27.6 63.6 72.2 1.459 56.61379 60.96068 0 1 1 0 0 0 0
373.1664442 18:41:33 80.53 -0.05 -4.42 830.0 619.5 407.6 -0.07 7.97 1.01 -32.4 -3.79 -30.0 0.00 -0.00 -0.04 0.0 27.6 63.6 72.2 1.461 56.61358 60.96670 0 1 1 0 0 0 0
376.1664424 18:41:36 80.34 -0.07 -4.63 830.4 645.3 406.0 0.30 7.99 1.01 -32.9 -3.82 -30.0 0.00 0.00 -0.04 0.0 27.6 63.5 72.2 1.465 56.61336 60.97336 0 1 1 0 0 0 0
379.1664406 18:41:40 80.18 -0.06 -4.57 831.3 611.4 404.6 0.18 7.97 1.00 -32.6 -3.79 -30.0 0.00 0.00 -0.04 0.0 27.6 63.3 71.9 1.445 56.61317 60.97957 0 1 1 0 0 0 0
382.1664388 18:41:43 80.03 -0.06 -4.48 831.5 606.0 403.0 -0.05 8.00 1.00 -32.7 -3.84 -30.0 0.00 0.00 -0.04 0.0 27.6 62.4 71.2 1.374 56.61300 60.98544 0 1 1 0 0 0 0
385.1664370 18:41:46 79.89 -0.06 -4.35 830.9 606.1 401.7 -0.34 8.02 0.99 -32.0 -3.77 -30.0 0.00 0.00 -0.04 0.0 27.6 62.6 71.5 1.399 56.61282 60.99154 0 1 1 0 0 0 0
388.1664353 18:41:49 79.75 -0.10 -4.10 829.0 603.9 401.0 -0.82 8.01 0.99 -29.7 -3.40 -30.0 0.00 -1.82 -0.04 0.0 27.6 62.8 71.6 1.412 56.61265 60.99786 0 1 1 0 0 0 0
391.1664335 18:41:53 79.74 -0.87 -3.96 825.6 592.7 400.7 -1.26 8.03 0.99 -49.1 -7.52 -30.0 0.00 -0.00 0.05 0.0 27.6 62.8 71.6 1.416 56.61249 61.00397 0 1 1 0 0 0 0
394.1664317 18:41:56 79.83 -0.83 -4.54 822.6 585.8 400.1 -0.54 8.28 1.04 -58.2 -6.67 -52.4 0.00 0.00 0.05 0.0 27.6 62.8 71.6 1.418 56.61234 61.00967 0 1 1 0 0 0 0
397.1664299 18:41:59 79.94 -0.70 -5.35 823.2 582.1 398.2 0.94 8.38 1.05 -58.2 -6.44 -56.4 0.00 0.00 0.05 0.0 27.6 62.8 71.6 1.421 56.61216 61.01605 0 1 1 0 0 0 0
400.1664281 18:42:02 80.04 -0.56 -5.44 827.3 585.8 395.3 1.29 8.23 1.00 -56.2 -6.06 -56.4 0.00 -0.01 0.05 0.0 27.6 61.7 70.7 1.338 56.61199 61.02210 0 1 1 0 0 0 0
403.1664263 18:42:05 80.15 -0.43 -5.31 831.8 591.5 392.0 1.21 8.22 0.99 -41.8 -3.68 -56.4 0.00 -0.00 0.05 0.0 27.6 61.0 70.2 1.285 56.61180 61.02822 0 1 1 0 0 0 0
406.1664245 18:42:09 80.26 -0.27 -5.21 834.4 600.9 389.2 0.53 8.35 1.00 -57.1 -6.29 -56.4 0.00 -0.01 0.05 0.0 27.6 60.7 70.0 1.269 56.61162 61.03399 0 1 1 0 0 0 0
409.1664227 18:42:13 80.36 -0.11 -5.34 836.6 607.4 386.4 0.79 8.48 1.01 -39.6 -4.54 -39.6 0.00 0.00 0.05 0.0 27.6 60.7 70.0 1.271 56.61142 61.03992 0 1 1 0 0 0 0
412.1664209 18:42:16 80.46 -0.00 -5.03 838.3 618.3 384.0 0.17 8.41 0.98 -45.9 -5.40 -39.6 0.00 -0.16 0.05 0.0 27.6 60.7 70.0 1.275 56.61122 61.04582 0 1 1 0 0 0 0
415.1664192 18:42:19 80.57 -0.05 -5.01 838.4 623.3 382.1 -0.13 8.55 0.99 -51.3 -5.94 -48.4 0.00 -0.03 0.05 0.0 27.6 60.7 70.0 1.279 56.61103 61.05153 0 1 1 0 0 0 0
418.1664174 18:42:22 80.71 0.03 -5.13 837.9 631.0 380.3 -0.12 8.67 1.01 -58.0 -6.63 -54.8 0.00 -0.04 0.05 0.0 27.6 60.6 70.0 1.281 56.61082 61.05719 0 1 1 0 0 0 0
421.1664156 18:42:26 80.85 0.04 -5.20 837.8 632.1 378.4 -0.01 8.70 1.00 -55.2 -6.20 -54.8 0.00 -0.02 0.05 0.0 27.6 60.6 70.0 1.284 56.61060 61.06307 0 1 1 0 0 0 0
424.1664138 18:42:29 81.01 0.05 -5.17 837.6 636.1 376.6 -0.11 8.72 1.00 -51.9 -5.89 -51.6 0.00 -0.01 0.05 0.0 27.6 60.6 70.0 1.286 56.61038 61.06889 0 1 1 0 0 0 0
427.1664120 18:42:32 81.17 0.64 -5.15 836.9 634.0 375.0 -0.31 8.78 1.00 -65.7 -7.95 -51.6 0.00 3.93 0.20 0.0 27.6 60.6 70.0 1.288 56.61013 61.07500 0 1 1 0 0 0 0
430.1664102 18:42:36 79.77 8.14 -6.74 838.0 635.3 371.8 1.44 9.37 1.08 -81.7 -10.01 -63.6 0.00 3.13 0.56 0.0 27.6 60.6 70.0 1.292 56.60991 61.08105 0 1 1 0 0 0 0
433.1664084 18:42:39 77.06 10.24 -6.49 845.1 639.6 367.7 2.02 8.90 0.98 -72.0 -7.11 -75.6 0.00 -0.00 0.41 0.0 27.6 60.5 70.0 1.296 56.60981 61.08680 0 1 1 0 0 0 0
436.1664066 18:42:43 74.14 10.43 -6.69 850.8 662.9 363.7 1.60 9.22 1.01 -75.8 -8.45 -75.6 0.00 0.27 0.67 0.0 27.6 60.5 70.0 1.303 56.60988 61.09252 0 1 1 0 0 0 0
439.1664049 18:42:46 71.06 10.60 -6.73 855.9 633.3 360.5 1.48 9.33 1.01 -75.8 -8.49 -75.6 0.00 0.12 0.40 0.0 27.6 63.7 72.7 1.590 56.61011 61.09805 0 1 1 0 0 0 0
442.1664031 18:42:49 68.08 10.71 -6.46 860.3 653.9 359.3 1.17 9.28 1.00 -64.3 -7.45 -64.4 0.00 0.14 0.65 0.0 27.7 66.2 75.5 1.858 56.61048 61.10338 0 1 1 0 0 0 0
445.1664013 18:42:52 64.93 10.75 -5.93 862.7 636.5 360.1 0.27 9.21 0.99 -65.9 -7.64 -63.6 0.00 0.00 0.40 0.0 27.7 67.0 76.9 1.969 56.61103 61.10886 0 1 1 0 0 0 0
448.1663995 18:42:55 61.89 10.74 -5.67 862.9 650.0 361.2 -0.19 9.23 1.00 -65.5 -7.65 -63.6 0.00 1.21 0.43 0.0 27.7 66.2 75.3 1.856 56.61175 61.11429 0 1 1 0 0 0 0
451.1663977 18:42:58 58.38 12.75 -5.57 861.5 655.0 362.5 -0.55 9.28 1.01 -74.6 -9.09 -63.6 0.00 0.59 0.57 0.0 27.7 66.1 75.1 1.838 56.61266 61.11979 0 1 1 0 0 0 0
454.1663959 18:43:01 54.49 13.40 -5.56 859.8 653.6 363.8 -0.55 9.27 1.02 -76.9 -8.91 -74.0 0.00 -0.02 0.57 0.0 27.7 66.1 75.1 1.834 56.61371 61.12494 0 1 1 0 0 0 0
457.1663941 18:43:04 50.68 13.22 -5.38 857.7 646.0 365.3 -0.79 9.22 1.02 -74.0 -8.34 -74.0 0.00 -0.00 0.42 0.0 27.7 66.1 75.1 1.832 56.61499 61.13009 0 1 1 0 0 0 0
460.1663923 18:43:07 47.14 13.00 -5.26 854.9 639.2 366.9 -0.96 9.18 1.02 -74.0 -8.32 -74.0 0.00 -0.00 0.65 0.0 27.7 66.1 75.1 1.829 56.61640 61.13489 0 1 1 0 0 0 0
463.1663905 18:43:12 43.33 12.77 -5.21 851.7 627.1 368.7 -0.99 9.14 1.02 -74.0 -8.30 -74.0 0.00 0.67 0.43 0.0 27.7 66.1 75.1 1.827 56.61801 61.13963 0 1 1 0 0 0 0
466.1663888 18:43:15 39.64 13.37 -5.18 848.5 620.8 370.4 -0.97 9.10 1.03 -74.1 -8.30 -74.0 0.00 -0.00 0.42 0.0 27.7 66.1 75.1 1.824 56.61983 61.14427 0 1 1 0 0 0 0
469.1663870 18:43:18 35.96 13.24 -5.35 845.6 614.0 371.9 -0.76 9.13 1.04 -76.7 -8.58 -76.4 0.00 -0.00 0.41 0.0 27.7 66.1 75.1 1.822 56.62173 61.14852 0 1 1 0 0 0 0
472.1663852 18:43:22 32.30 12.99 -5.52 843.8 611.2 372.9 -0.33 9.08 1.04 -76.3 -8.49 -76.4 0.00 -0.00 0.26 0.0 27.7 65.8 74.5 1.783 56.62382 61.15260 0 1 1 0 0 0 0
475.1663834 18:43:25 28.83 12.76 -5.74 843.4 614.5 373.3 0.09 9.07 1.04 -71.2 -8.12 -76.4 0.00 0.07 0.48 0.0 27.7 65.6 74.0 1.746 56.62603 61.15641 0 1 1 0 0 0 0
478.1663816 18:43:28 25.24 12.66 -5.56 843.5 623.2 373.3 -0.02 8.96 1.02 -72.6 -7.87 -76.4 0.00 0.16 0.28 0.0 27.7 65.0 73.6 1.675 56.62839 61.16001 0 1 1 0 0 0 0
481.1663798 18:43:31 21.73 12.89 -5.59 843.2 627.4 373.3 -0.12 9.01 1.03 -75.2 -8.28 -76.4 0.00 1.16 0.51 0.0 27.7 64.8 73.4 1.657 56.63085 61.16330 0 1 1 0 0 0 0
484.1663780 18:43:34 18.29 13.21 -5.73 843.2 632.1 373.0 0.09 9.04 1.03 -76.2 -8.51 -76.4 0.00 0.16 0.26 0.0 27.7 64.8 73.4 1.652 56.63329 61.16618 0 1 1 0 0 0 0
487.1663762 18:43:37 14.53 13.33 -5.77 843.8 632.0 372.5 0.28 9.04 1.03 -53.4 -3.76 -76.4 0.00 0.50 0.50 0.0 27.7 64.7 73.3 1.651 56.63600 61.16896 0 1 1 0 0 0 0
490.1663745 18:43:40 10.83 13.61 -5.36 843.5 623.1 372.6 -0.41 8.93 1.01 -72.8 -7.76 -76.4 0.00 0.22 0.41 0.0 27.7 64.7 73.3 1.650 56.63878 61.17139 0 1 1 0 0 0 0
493.1663727 18:43:44 7.11 13.63 -5.40 841.8 616.1 372.9 -0.55 9.04 1.03 -76.7 -8.57 -76.4 0.00 -0.02 0.41 0.0 27.7 64.7 73.3 1.650 56.64159 61.17344 0 1 1 0 0 0 0
496.1663709 18:43:48 3.00 13.37 -5.56 840.5 603.3 373.0 -0.25 9.06 1.04 -76.4 -8.49 -76.4 0.00 -0.01 0.26 0.0 27.7 64.7 73.3 1.650 56.64470 61.17529 0 1 1 0 0 0 0
499.1663691 18:43:51 359.34 13.11 -5.67 840.1 599.8 372.8 0.01 9.04 1.03 -75.2 -8.25 -76.4 0.00 -0.00 0.50 0.0 27.7 64.7 73.3 1.651 56.64774 61.17668 0 1 1 0 0 0 0
502.1663673 18:43:54 355.90 12.88 -5.73 840.3 604.5 372.5 0.12 9.03 1.03 -75.0 -8.25 -76.4 0.00 0.00 0.26 0.0 27.7 64.7 73.3 1.651 56.65061 61.17766 0 1 1 0 0 0 0
505.1663655 18:43:57 352.62 9.64 -5.68 840.9 601.9 372.1 0.29 8.99 1.02 -58.8 -5.07 -76.4 0.00 -4.36 0.04 0.0 27.7 64.7 73.3 1.652 56.65366 61.17835 0 1 1 0 0 0 0
508.1663637 18:44:00 351.59 -1.78 -3.70 839.8 597.9 373.4 -1.65 8.31 0.91 -40.7 0.68 -76.4 0.00 0.08 -0.38 0.0 27.7 64.7 73.3 1.651 56.65674 61.17881 0 1 1 0 0 0 0
511.1663619 18:44:03 352.49 -3.02 -4.66 833.4 593.3 375.0 -1.79 9.06 1.05 -78.8 -8.69 -76.4 0.00 2.62 -0.11 0.0 27.7 64.7 73.3 1.648 56.65963 61.17925 0 1 1 0 0 0 0
514.1663601 18:44:06 352.63 2.17 -5.59 830.3 587.6 375.6 0.03 9.08 1.05 -76.3 -8.30 -76.4 0.00 0.00 0.10 0.0 27.7 64.7 73.3 1.647 56.66286 61.17982 0 1 1 0 0 0 0
517.1663584 18:44:09 351.75 3.85 -5.86 832.0 587.0 374.8 0.84 8.90 1.02 -68.8 -7.52 -71.6 0.00 -0.01 0.18 0.0 27.7 64.7 73.3 1.649 56.66594 61.18033 0 1 1 0 0 0 0
520.1663566 18:44:12 350.81 3.69 -5.64 835.2 589.3 373.6 0.94 8.71 0.98 -59.9 -5.48 -71.6 0.00 -1.17 -0.04 0.0 27.7 64.7 73.3 1.651 56.66896 61.18074 0 1 1 0 1 0 0
523.1663548 18:44:16 350.22 0.94 -4.56 836.4 589.1 372.7 -0.65 8.42 0.93 -60.0 -5.71 -61.2 0.00 -0.65 -0.11 0.0 27.7 64.7 73.3 1.652 56.67212 61.18108 0 1 1 0 1 0 0
526.1663530 18:44:19 350.19 0.20 -4.76 833.0 586.2 372.1 -1.22 8.89 1.00 -68.4 -7.62 -68.4 0.00 -0.00 0.04 0.0 27.7 64.7 73.3 1.654 56.67509 61.18138 0 1 1 0 1 0 0
529.1663512 18:44:22 350.20 0.08 -4.81 829.3 583.4 371.1 -1.14 8.92 1.00 -68.4 -7.66 -68.4 0.00 -0.00 0.05 0.0 27.7 64.7 73.3 1.657 56.67808 61.18168 0 1 1 0 1 0 0
532.1663494 18:44:25 350.21 -0.00 -4.79 825.6 579.1 369.8 -1.16 8.93 1.01 -68.4 -7.68 -68.4 -0.08 -0.00 0.04 0.9 27.7 64.7 73.3 1.660 56.68113 61.18199 0 1 1 0 1 0 0
533.8885706 18:44:26 350.21 -0.04 -4.76 823.9 576.3 368.2 -0.54 8.67 1.04 -68.4 -7.65 -68.4 -0.42 -0.00 0.04 5.0 27.7 64.7 73.3 1.664 56.68295 61.18218 0 1 1 0 1 0 0
534.8885700 18:44:27 350.21 -0.08 -4.83 823.5 575.1 366.9 -0.09 8.47 1.05 -73.7 -8.11 -74.0 -0.61 -0.00 -0.18 7.0 27.7 64.7 73.3 1.667 56.68384 61.18227 0 1 1 0 1 0 0
535.8885694 18:44:28 350.23 -0.07 -4.98 823.7 575.4 364.8 0.54 8.29 1.07 -73.2 -8.03 -74.0 -0.82 0.00 0.05 9.3 27.7 64.7 73.3 1.671 56.68483 61.18238 0 1 1 0 1 0 0
536.8885688 18:44:29 350.23 -0.09 -5.13 824.5 575.7 362.5 1.17 8.10 1.07 -72.6 -7.97 -74.0 -1.02 0.00 0.05 11.4 27.6 64.9 73.6 1.700 56.68575 61.18247 0 1 1 0 1 0 0
537.8885682 18:44:30 350.24 -0.06 -5.26 826.4 577.8 359.0 1.95 7.85 1.07 -56.5 -6.55 -73.2 -1.22 -0.00 0.05 14.1 27.5 65.7 74.5 1.805 56.68692 61.18260 0 1 1 0 1 0 0
538.8885676 18:44:32 350.25 -0.09 -5.07 828.6 579.6 356.0 2.35 7.47 1.05 -20.1 -3.74 -63.6 -1.41 0.00 0.05 16.3 27.5 66.0 75.0 1.851 56.68785 61.18270 0 1 1 0 1 0 0
539.8885670 18:44:33 350.26 -0.07 -4.38 830.9 581.4 352.8 2.25 6.93 1.00 -0.1 -0.43 -60.4 -1.61 -0.01 0.04 18.4 27.5 66.2 75.6 1.895 56.68876 61.18280 0 1 1 0 1 0 0
540.8885664 18:44:34 350.27 -0.03 -3.77 833.2 583.7 349.2 1.66 6.47 0.96 -22.1 -2.89 -60.4 -1.82 -0.02 0.04 20.8 27.5 66.4 75.9 1.928 56.68978 61.18290 0 1 1 0 1 0 0
541.8885658 18:44:35 350.28 0.00 -3.25 834.6 584.8 345.9 1.12 6.24 0.96 -12.1 -1.97 -60.4 -2.02 -0.01 0.04 23.0 27.5 66.5 76.1 1.945 56.69069 61.18300 0 1 1 0 1 0 0
542.8885653 18:44:36 350.30 0.01 -2.80 835.6 588.0 342.3 0.54 6.05 0.96 -30.5 -3.66 -60.4 -2.20 -0.00 0.04 25.5 27.5 66.5 76.2 1.959 56.69171 61.18311 0 1 1 0 1 0 0
543.8885647 18:44:37 350.31 0.02 -2.67 836.0 588.4 338.6 0.25 6.02 0.98 -38.7 -4.92 -60.4 -2.41 -0.01 0.04 27.8 27.5 66.5 76.2 1.968 56.69268 61.18322 0 1 1 0 1 0 0
544.8885641 18:44:38 350.33 0.02 -2.58 836.2 592.0 334.9 0.04 6.02 0.99 -44.3 -4.97 -60.4 -2.61 -0.01 0.04 28.0 27.5 66.5 76.2 1.976 56.69365 61.18333 0 1 1 0 1 0 0
545.8885635 18:44:39 350.34 0.01 -2.60 836.2 595.7 331.5 -0.21 6.13 0.99 -47.9 -5.36 -60.4 -2.81 -0.01 0.04 28.0 27.5 66.5 76.2 1.983 56.69459 61.18343 0 1 1 0 1 0 0
546.8885629 18:44:40 350.36 0.01 -2.67 835.8 595.4 328.1 -0.39 6.31 0.99 -48.6 -5.44 -60.4 -3.01 -0.00 0.04 28.0 27.5 66.5 76.2 1.989 56.69553 61.18353 0 1 1 0 1 0 0
547.8885623 18:44:41 350.38 0.01 -2.79 835.3 598.6 324.8 -0.51 6.50 1.00 -50.6 -5.63 -60.4 -3.04 -0.00 0.04 28.0 27.5 66.8 77.0 2.037 56.69652 61.18364 0 1 1 0 1 0 0
548.8885617 18:44:42 350.39 0.01 -2.92 834.7 598.1 321.9 -0.58 6.67 1.00 -60.4 -6.73 -60.4 -3.04 0.00 0.04 28.0 27.5 67.3 77.8 2.108 56.69740 61.18374 0 1 1 0 1 0 0
549.8885611 18:44:43 350.41 0.08 -3.07 834.2 601.2 319.4 -0.58 6.85 1.01 -60.9 -6.67 -60.4 -3.04 1.04 0.04 28.0 27.5 67.5 78.3 2.149 56.69822 61.18383 0 1 1 0 1 0 0
550.8885605 18:44:44 350.42 0.37 -3.19 833.5 600.6 316.7 -0.58 6.98 1.01 -60.8 -6.71 -60.4 -3.04 0.69 0.19 28.0 27.5 68.0 78.7 2.217 56.69913 61.18393 0 1 1 0 1 0 0
551.8885599 18:44:46 350.39 0.63 -3.27 832.9 603.6 314.4 -0.59 7.09 1.01 -61.0 -6.77 -60.4 -3.04 0.70 0.19 28.0 27.5 68.4 78.9 2.289 56.69998 61.18403 0 1 1 0 0 0 0
552.8885593 18:44:47 350.32 0.94 -3.34 832.3 603.0 312.0 -0.64 7.19 1.00 -74.4 -7.46 -60.4 -3.04 1.66 0.19 28.0 27.5 68.7 79.1 2.331 56.70087 61.18413 0 1 1 0 1 0 0
553.8885587 18:44:48 350.21 1.75 -3.57 831.6 606.2 310.0 -0.62 7.36 1.01 -74.7 -8.21 -63.6 -3.04 5.21 0.50 28.0 27.5 68.8 79.1 2.354 56.70166 61.18421 0 1 1 0 1 0 0
554.8885581 18:44:49 350.00 3.94 -3.80 831.0 607.0 307.8 -0.52 7.54 1.02 -77.7 -8.52 -66.0 -3.04 5.58 1.11 28.0 27.5 68.9 79.2 2.369 56.70251 61.18430 0 1 1 0 1 0 0
555.8885575 18:44:50 349.41 6.39 -4.10 830.5 612.5 305.7 -0.39 7.71 1.02 -89.4 -9.64 -70.8 -3.04 3.57 1.42 28.0 27.5 68.9 79.2 2.379 56.70333 61.18437 0 1 1 0 1 0 0
556.8885569 18:44:51 348.57 8.65 -4.43 830.2 615.7 303.3 -0.20 7.91 1.03 -88.8 -9.88 -70.8 -3.04 3.58 1.42 28.0 27.5 69.6 79.6 2.475 56.70425 61.18442 0 1 1 0 1 0 0
557.8885563 18:44:52 347.52 10.31 -4.62 830.0 622.0 301.6 -0.09 8.03 1.03 -89.9 -9.77 -70.8 -3.04 2.97 1.57 28.0 27.5 71.1 80.4 2.773 56.70498 61.18444 0 1 1 0 1 0 0
558.8885557 18:44:53 346.21 11.74 -4.89 830.0 625.4 300.0 0.02 8.15 1.04 -101.4 -10.98 -70.8 -3.04 1.05 1.57 28.0 27.5 72.3 81.0 3.045 56.70583 61.18444 0 1 1 0 1 0 0
559.8885551 18:44:54 344.64 12.53 -5.04 830.1 630.5 298.9 0.16 8.27 1.04 -84.9 -9.66 -70.8 -3.04 0.64 1.55 28.0 27.5 73.4 81.5 3.293 56.70666 61.18439 0 1 1 0 1 0 0
560.8885545 18:44:55 343.05 13.05 -4.99 830.3 632.1 298.1 0.17 8.23 1.03 -83.7 -9.32 -70.8 -3.04 1.94 1.32 28.0 27.5 74.1 81.8 3.444 56.70759 61.18430 0 1 1 0 1 0 0
561.8885539 18:44:56 341.45 13.62 -4.93 830.4 636.1 297.5 0.05 8.19 1.02 -83.6 -9.49 -70.8 -3.04 -0.32 1.57 28.0 27.5 74.4 82.0 3.518 56.70843 61.18416 0 1 1 0 1 0 0
562.8885533 18:44:57 339.64 13.86 -5.04 830.4 637.0 297.0 -0.04 8.26 1.02 -94.4 -10.70 -70.8 -3.04 -0.06 1.02 28.0 27.5 74.6 82.1 3.559 56.70929 61.18398 0 1 1 0 1 0 0
563.8885527 18:44:58 337.98 13.91 -5.09 830.4 638.8 296.7 -0.03 8.36 1.03 -88.1 -10.18 -78.0 -3.04 -0.00 1.26 28.0 27.5 74.7 82.1 3.581 56.71011 61.18375 0 1 1 0 1 0 0
564.8885521 18:44:59 336.33 13.89 -5.04 830.3 638.6 296.4 -0.06 8.34 1.03 -92.4 -10.27 -92.4 -3.04 -0.03 1.17 28.0 27.5 74.7 82.1 3.594 56.71091 61.18349 0 1 1 0 1 0 0
565.8885515 18:45:00 334.67 13.84 -5.11 830.3 639.0 296.1 -0.08 8.38 1.03 -95.1 -10.54 -94.8 -3.04 -0.03 1.04 28.0 27.5 74.8 82.1 3.601 56.71165 61.18321 0 1 1 0 1 0 0
566.8885509 18:45:01 333.11 13.77 -5.20 830.2 638.8 295.8 -0.04 8.44 1.04 -95.1 -10.64 -94.8 -3.04 -0.02 1.26 28.0 27.5 74.8 82.1 3.606 56.71245 61.18286 0 1 1 0 1 0 0
567.8885504 18:45:02 331.51 13.70 -5.27 830.2 635.9 295.5 0.02 8.47 1.04 -95.1 -10.58 -94.8 -3.04 -0.01 1.03 28.0 27.5 74.8 82.1 3.608 56.71321 61.18248 0 1 1 0 1 0 0
568.8885498 18:45:03 329.75 13.62 -5.34 830.2 635.9 295.1 0.09 8.50 1.04 -95.0 -10.64 -94.8 -3.04 -0.00 1.11 28.0 27.5 74.8 82.2 3.610 56.71403 61.18203 0 1 1 0 1 0 0
569.8885492 18:45:04 327.80 13.53 -5.43 830.4 631.4 294.7 0.17 8.52 1.04 -94.9 -10.56 -94.8 -3.04 -0.00 1.11 28.0 27.5 74.8 82.2 3.612 56.71495 61.18146 0 1 1 0 1 0 0
570.8885486 18:45:05 326.13 13.46 -5.49 830.6 626.8 294.3 0.23 8.53 1.04 -94.9 -10.56 -94.8 -3.04 -0.00 0.88 28.0 27.5 74.8 82.2 3.613 56.71572 61.18094 0 1 1 0 1 0 0
571.8885480 18:45:06 324.30 13.37 -5.55 830.9 627.0 293.9 0.30 8.55 1.04 -94.8 -10.55 -94.8 -3.04 -0.18 0.88 28.0 27.5 74.8 82.2 3.614 56.71657 61.18031 0 1 1 0 1 0 0
572.8885474 18:45:07 322.68 13.15 -5.61 831.2 632.5 293.5 0.35 8.57 1.04 -94.8 -10.55 -94.8 -3.04 -0.92 0.72 28.0 27.5 74.8 82.2 3.615 56.71730 61.17970 0 1 1 0 1 0 0
573.8885468 18:45:10 321.03 12.82 -5.68 831.7 632.2 293.0 0.42 8.59 1.04 -94.8 -10.53 -94.8 -3.04 -0.24 0.79 28.0 27.5 74.8 82.2 3.616 56.71805 61.17905 0 1 1 0 1 0 0
574.8885462 18:45:11 319.52 12.57 -5.75 832.1 649.2 292.6 0.49 8.62 1.03 -94.7 -10.55 -94.8 -3.04 -0.15 0.57 28.0 27.5 74.8 82.2 3.617 56.71876 61.17838 0 1 1 0 1 0 0
575.8885456 18:45:12 318.03 12.38 -5.81 832.7 649.3 292.1 0.56 8.64 1.03 -94.6 -10.52 -94.8 -3.04 -0.15 0.80 28.0 27.5 74.8 82.2 3.618 56.71945 61.17769 0 1 1 0 1 0 0
576.8885450 18:45:13 316.43 12.21 -5.89 833.3 614.3 291.6 0.63 8.66 1.03 -94.5 -10.51 -94.8 -3.04 -0.13 0.56 28.0 27.5 74.8 82.2 3.619 56.72013 61.17695 0 1 1 0 1 0 0
577.8885444 18:45:14 314.98 12.17 -5.95 834.0 615.0 291.1 0.70 8.68 1.03 -92.9 -10.37 -94.8 -3.04 4.06 0.81 28.0 27.5 74.8 82.2 3.620 56.72085 61.17614 0 1 1 0 1 0 0
578.8885438 18:45:15 313.55 13.11 -5.97 834.7 615.3 290.6 0.70 8.67 1.03 -94.7 -10.60 -94.8 -3.04 3.64 1.11 28.0 27.5 74.8 82.2 3.621 56.72148 61.17538 0 1 1 0 1 0 0
579.8885432 18:45:16 311.98 14.46 -5.97 835.4 619.6 290.1 0.62 8.67 1.02 -95.4 -10.67 -94.8 -3.04 1.21 1.39 28.0 27.5 74.8 82.2 3.621 56.72209 61.17460 0 1 1 0 1 0 0
580.8885426 18:45:17 310.31 15.42 -5.92 836.0 620.3 289.7 0.47 8.68 1.02 -98.8 -11.07 -94.8 -3.04 0.12 1.18 28.0 27.5 74.8 82.2 3.622 56.72272 61.17374 0 1 1 0 1 0 0
581.8885420 18:45:18 308.27 15.86 -5.87 836.4 622.0 289.3 0.29 8.72 1.02 -98.8 -11.14 -94.8 -3.04 0.00 1.03 28.0 27.5 74.8 82.2 3.623 56.72337 61.17280 0 1 1 0 1 0 0
582.8885414 18:45:19 305.99 15.99 -5.78 836.7 620.3 289.1 0.12 8.75 1.02 -98.1 -10.99 -94.8 -3.04 0.00 1.03 28.0 27.5 74.8 82.2 3.623 56.72400 61.17182 0 1 1 0 1 0 0
583.8885408 18:45:20 304.24 15.94 -5.70 836.7 620.1 288.9 -0.03 8.77 1.03 -100.3 -11.26 -94.8 -3.04 -0.18 0.89 28.0 27.5 74.8 82.2 3.624 56.72456 61.17089 0 1 1 0 1 0 0
584.8885402 18:45:21 302.30 15.82 -5.66 836.7 616.2 288.8 -0.15 8.81 1.03 -109.1 -12.20 -94.8 -3.04 -0.01 0.88 28.0 27.5 74.9 82.2 3.655 56.72513 61.16987 0 1 1 0 1 0 0
585.8885396 18:45:22 300.25 15.72 -5.75 836.5 615.8 288.7 -0.18 8.90 1.04 -107.1 -11.97 -94.8 -3.04 -0.01 0.88 28.0 27.5 75.1 82.3 3.702 56.72565 61.16887 0 1 1 0 1 0 0
586.8885390 18:45:23 298.52 15.62 -5.80 836.3 611.2 288.7 -0.14 8.95 1.04 -104.9 -11.74 -94.8 -3.04 0.00 0.88 28.0 27.5 75.3 82.4 3.744 56.72617 61.16781 0 1 1 0 1 0 0
587.8885384 18:45:24 296.66 15.52 -5.83 836.2 610.9 288.7 -0.09 8.96 1.04 -105.3 -11.74 -94.8 -3.04 0.01 0.88 28.0 27.5 75.6 82.6 3.807 56.72662 61.16683 0 1 1 0 1 0 0
588.8885378 18:45:25 294.84 15.42 -5.87 836.1 606.0 288.9 -0.03 8.96 1.04 -104.0 -11.70 -94.8 -3.04 0.01 0.88 28.0 27.5 75.8 82.7 3.850 56.72708 61.16575 0 1 1 0 1 0 0
589.8885372 18:45:26 292.99 15.32 -5.91 836.2 605.8 289.0 0.05 8.95 1.04 -105.8 -11.83 -94.8 -3.04 0.02 0.73 28.0 27.5 75.9 82.7 3.876 56.72757 61.16453 0 1 1 0 1 0 0
590.8885366 18:45:27 291.12 15.22 -6.00 836.2 601.2 289.1 0.14 8.96 1.05 -110.8 -12.34 -94.8 -3.04 0.02 0.73 28.0 27.5 76.0 82.8 3.890 56.72802 61.16335 0 1 1 0 1 0 0
591.8885360 18:45:28 289.26 15.13 -6.18 836.4 601.3 289.2 0.30 9.01 1.05 -112.9 -12.63 -94.8 -3.04 0.01 0.57 28.0 27.5 76.0 82.8 3.897 56.72843 61.16215 0 1 1 0 1 0 0
592.8885354 18:45:29 287.37 15.05 -6.38 836.9 597.5 289.1 0.53 9.08 1.06 -99.4 -11.08 -94.8 -3.04 0.07 0.80 28.0 27.5 76.0 82.8 3.901 56.72884 61.16090 0 1 1 0 1 0 0
593.8885349 18:45:30 285.38 14.95 -6.33 837.6 597.9 289.1 0.69 8.98 1.05 -100.7 -11.35 -94.8 -3.04 0.05 0.72 28.0 27.5 76.1 82.8 3.904 56.72924 61.15953 0 1 1 0 1 0 0
594.8885343 18:45:31 283.44 14.88 -6.36 838.3 594.6 289.0 0.75 8.91 1.04 -106.5 -11.91 -94.8 -3.04 0.06 0.57 28.0 27.5 76.1 82.8 3.905 56.72959 61.15829 0 1 1 0 1 0 0
595.8885337 18:45:32 281.74 14.81 -6.47 839.1 595.5 288.8 0.84 8.94 1.04 -105.5 -11.85 -94.8 -3.04 0.07 0.79 28.0 27.5 76.1 82.8 3.906 56.72993 61.15694 0 1 1 0 1 0 0
596.8885331 18:45:33 279.68 14.74 -6.57 840.1 594.0 288.7 0.95 8.97 1.04 -105.5 -11.74 -94.8 -3.04 0.08 0.57 28.0 27.5 76.1 82.8 3.907 56.73024 61.15558 0 1 1 0 1 0 0
597.8885325 18:45:35 277.98 14.68 -6.66 841.1 595.0 288.4 1.06 8.98 1.04 -106.3 -11.89 -94.8 -3.04 0.08 0.57 28.0 27.5 76.1 82.8 3.908 56.73051 61.15432 0 1 1 0 1 0 0
598.8885319 18:45:36 276.03 14.61 -6.77 842.4 597.3 288.1 1.20 9.00 1.04 -105.4 -11.71 -94.8 -3.04 0.09 0.57 28.0 27.5 76.1 82.8 3.908 56.73080 61.15276 0 1 1 0 1 0 0
599.8885313 18:45:37 274.23 14.55 -6.86 843.8 600.7 287.7 1.31 9.02 1.04 -105.8 -11.71 -94.8 -3.04 0.08 0.57 28.0 27.5 76.1 82.8 3.908 56.73104 61.15139 0 1 1 0 1 0 0
600.8885307 18:45:38 272.15 14.49 -6.97 845.4 602.4 287.3 1.43 9.03 1.04 -105.4 -11.74 -94.8 -3.04 0.09 0.57 28.0 27.5 76.1 82.8 3.908 56.73127 61.14983 0 1 1 0 1 0 0
601.8885301 18:45:39 270.43 14.44 -7.05 846.8 606.6 286.9 1.52 9.05 1.04 -105.0 -11.84 -94.8 -3.04 0.08 0.57 28.0 27.5 76.1 82.8 3.909 56.73143 61.14858 0 1 1 0 1 0 0
602.8885295 18:45:40 268.73 14.39 -7.12 848.3 608.2 286.5 1.61 9.07 1.04 -105.0 -11.79 -94.8 -3.04 0.10 0.57 28.0 27.5 76.1 82.8 3.909 56.73158 61.14726 0 1 1 0 1 0 0
603.8885289 18:45:41 266.97 14.34 -7.16 850.0 613.1 286.0 1.67 9.07 1.04 -97.0 -10.94 -94.8 -3.04 0.05 0.57 28.0 27.5 76.1 82.8 3.909 56.73172 61.14587 0 1 1 0 1 0 0
604.8885283 18:45:42 265.15 14.27 -7.06 852.0 614.8 285.6 1.65 9.02 1.03 -93.6 -10.60 -94.8 -3.04 -0.02 0.57 28.0 27.5 76.1 82.8 3.909 56.73184 61.14429 0 1 1 0 1 0 0
605.8885277 18:45:44 263.27 14.16 -6.85 853.9 619.2 285.2 1.50 8.95 1.02 -68.3 -7.70 -94.8 -3.04 -0.01 0.57 28.0 27.5 76.1 82.8 3.909 56.73194 61.14267 0 1 1 0 1 0 0
606.8885271 18:45:45 261.65 13.78 -6.44 855.2 619.0 285.1 1.21 8.75 1.00 -85.9 -9.76 -94.8 -3.04 -8.15 0.57 28.0 27.5 76.1 82.8 3.909 56.73199 61.14140 0 1 1 0 1 0 0
607.8885265 18:45:46 259.99 11.36 -6.20 856.4 614.8 285.1 0.91 8.75 1.00 -77.9 -8.97 -94.8 -3.04 -5.22 -0.49 28.0 27.5 76.1 82.8 3.908 56.73203 61.13997 0 1 1 0 1 0 0
608.8885259 18:45:47 258.73 9.03 -5.95 857.2 610.7 285.2 0.73 8.76 1.00 -64.1 -7.19 -94.8 -3.04 -1.07 -0.58 28.0 27.5 76.1 82.8 3.908 56.73205 61.13857 0 1 1 0 1 0 0
609.8885253 18:45:48 257.71 7.69 -5.55 857.9 611.0 285.5 0.48 8.62 0.99 -58.6 -6.68 -94.8 -3.04 -0.47 0.03 28.0 27.5 76.1 82.8 3.907 56.73205 61.13718 0 1 1 0 1 0 0
610.8885247 18:45:49 256.81 6.91 -5.14 858.3 609.9 286.0 0.10 8.48 0.97 -60.4 -6.86 -94.8 -3.04 -0.14 -0.19 28.0 27.5 76.1 82.8 3.906 56.73204 61.13569 0 1 1 0 1 0 0
611.8885241 18:45:50 256.00 6.54 -4.84 858.2 612.2 286.6 -0.26 8.41 0.97 -58.6 -6.56 -94.8 -3.04 -0.48 -0.19 28.0 27.5 76.1 82.8 3.904 56.73203 61.13440 0 1 1 0 1 0 0
612.8885235 18:45:51 255.24 6.18 -4.58 857.7 611.0 287.3 -0.65 8.39 0.97 -65.1 -7.31 -94.8 -3.04 -1.16 -0.19 28.0 27.5 76.1 82.8 3.903 56.73200 61.13294 0 1 1 0 1 0 0
613.8885229 18:45:52 254.42 5.53 -4.36 856.8 602.4 288.2 -0.96 8.41 0.98 -69.9 -7.92 -94.8 -3.04 -2.96 -0.19 28.0 27.6 76.1 82.8 3.900 56.73195 61.13139 0 1 1 0 1 0 0
614.8885223 18:45:53 253.64 4.16 -4.21 855.5 599.7 289.3 -1.16 8.44 0.99 -66.4 -7.67 -94.8 -3.04 -3.00 -0.65 28.0 27.6 76.1 82.8 3.899 56.73189 61.12969 0 1 1 0 1 0 0
615.8885217 18:45:54 253.17 2.93 -4.12 854.4 597.5 290.2 -1.24 8.42 0.99 -90.1 -9.41 -94.8 -3.04 -1.12 -0.79 28.0 27.6 76.1 82.8 3.897 56.73184 61.12837 0 1 1 0 1 0 0
616.8885211 18:45:55 252.86 1.96 -4.33 853.1 595.9 291.0 -1.15 8.54 1.01 -72.4 -8.25 -91.6 -3.04 -0.03 -0.58 28.0 27.6 76.1 82.8 3.895 56.73178 61.12692 0 1 1 0 1 0 0
617.8885205 18:45:56 252.62 1.50 -4.27 852.0 596.4 291.8 -1.03 8.52 1.02 -51.6 -5.84 -90.0 -3.04 -0.06 -0.42 28.0 27.6 75.8 82.7 3.842 56.73172 61.12556 0 1 1 0 1 0 0
618.8885200 18:45:57 252.40 1.23 -4.03 850.9 595.0 292.4 -1.07 8.33 1.00 -42.6 -4.84 -83.6 -3.04 -0.13 -0.65 28.0 27.6 74.9 82.2 3.622 56.73165 61.12411 0 1 1 0 1 0 0
619.8885194 18:45:58 252.23 0.99 -3.61 849.8 597.2 292.9 -1.30 8.12 0.98 -30.6 -3.52 -69.2 -3.04 -2.07 -0.42 28.0 27.6 74.3 81.9 3.496 56.73158 61.12272 0 1 1 0 1 0 0
620.8885188 18:45:59 252.07 0.32 -3.03 848.1 595.0 293.5 -1.81 7.86 0.96 -46.2 -5.14 -58.8 -3.04 -2.10 -0.65 28.0 27.6 73.9 81.7 3.417 56.73150 61.12121 0 1 1 0 1 0 0
621.8885182 18:46:00 252.00 -0.66 -2.72 845.9 596.7 294.1 -2.35 7.80 0.95 -49.8 -5.42 -58.8 -3.04 -3.97 -0.80 28.0 27.6 73.7 81.6 3.374 56.73143 61.11976 0 1 1 0 1 0 0
622.8885176 18:46:01 252.08 -2.20 -2.45 842.9 593.8 294.9 -2.83 7.84 0.96 -54.7 -6.27 -54.0 -3.04 -0.21 -1.10 28.0 27.6 73.6 81.6 3.347 56.73134 61.11812 0 1 1 0 1 0 0
623.8885170 18:46:02 252.36 -2.92 -2.24 839.4 594.4 295.9 -3.19 7.88 0.97 -63.0 -6.96 -60.4 -3.04 -0.01 -0.75 28.0 27.6 73.6 81.5 3.334 56.73126 61.11651 0 1 1 0 1 0 0
624.8885164 18:46:03 252.65 -3.17 -2.26 836.1 591.2 296.7 -3.37 7.95 0.99 -78.7 -8.76 -70.8 -3.04 0.00 -0.75 28.0 27.6 73.5 81.5 3.326 56.73120 61.11512 0 1 1 0 1 0 0
625.8885158 18:46:04 252.97 -3.29 -2.52 832.7 591.3 297.5 -3.30 8.12 1.01 -91.2 -10.15 -81.2 -3.04 0.00 -0.79 28.0 27.6 73.5 81.5 3.322 56.73114 61.11368 0 1 1 0 1 0 0
626.8885152 18:46:05 253.35 -3.35 -2.98 829.0 588.7 298.1 -2.91 8.33 1.04 -97.0 -10.81 -90.0 -3.04 0.00 -0.59 28.0 27.6 73.5 81.5 3.321 56.73108 61.11205 0 1 1 0 1 0 0
627.8885146 18:46:06 253.68 -3.38 -3.55 826.3 586.4 298.3 -2.35 8.50 1.06 -114.7 -12.91 -92.4 -3.04 0.00 -0.42 28.0 27.6 73.5 81.5 3.320 56.73103 61.11064 0 1 1 0 1 0 0
628.8885140 18:46:07 254.02 -3.40 -4.13 824.4 584.9 298.3 -1.65 8.69 1.08 -94.9 -10.67 -94.8 -3.04 -0.00 -0.64 28.0 27.6 73.5 81.5 3.320 56.73099 61.10932 0 1 1 0 1 0 0
629.8885134 18:46:09 254.36 -3.41 -4.49 823.0 581.1 298.1 -0.93 8.65 1.08 -94.8 -10.61 -94.8 -3.04 0.00 -0.43 28.0 27.6 73.5 81.5 3.321 56.73095 61.10789 0 1 1 0 1 0 0
630.8885128 18:46:10 254.68 -3.37 -4.79 822.4 580.7 297.6 -0.36 8.57 1.07 -92.5 -10.02 -94.8 -3.04 0.72 -0.43 28.0 27.6 73.5 81.5 3.323 56.73092 61.10652 0 1 1 0 1 0 0
631.8885122 18:46:11 254.99 -3.20 -5.13 822.2 577.2 296.9 0.16 8.52 1.06 -84.6 -9.61 -94.8 -3.04 0.05 -0.27 28.0 27.6 73.5 81.5 3.325 56.73089 61.10502 0 1 1 0 1 0 0
632.8885116 18:46:12 255.28 -3.11 -5.25 822.5 577.6 296.1 0.53 8.46 1.04 -77.9 -8.74 -94.8 -3.04 0.09 -0.49 28.0 27.6 73.5 81.5 3.326 56.73086 61.10364 0 1 1 0 1 0 0
633.8885110 18:46:14 255.63 -3.01 -5.20 823.3 574.3 295.1 0.70 8.31 1.02 -60.0 -7.00 -94.8 -3.04 1.11 -0.27 28.0 27.6 73.1 81.3 3.245 56.73084 61.10200 0 1 1 0 1 0 0
634.8885104 18:46:15 255.93 -2.56 -5.02 824.0 570.7 294.0 0.60 8.16 1.00 -64.1 -7.31 -94.8 -3.04 1.13 -0.12 28.0 27.6 72.7 81.1 3.157 56.73082 61.10053 0 1 1 0 1 0 0
635.8885098 18:46:16 256.16 -2.18 -4.99 824.5 571.1 293.0 0.42 8.14 0.99 -80.2 -8.98 -94.8 -3.04 0.10 -0.19 28.0 27.6 72.5 81.0 3.107 56.73081 61.09904 0 1 1 0 1 0 0
636.8885092 18:46:17 256.35 -1.99 -5.07 824.9 568.7 291.9 0.34 8.28 1.00 -70.1 -7.88 -94.8 -3.04 0.29 -0.19 28.0 27.6 72.3 80.9 3.082 56.73081 61.09767 0 1 1 0 1 0 0
637.8885086 18:46:18 256.55 -1.84 -5.03 825.2 568.9 290.9 0.24 8.33 1.00 -73.9 -8.35 -94.8 -3.04 0.12 -0.19 28.0 27.6 72.3 80.9 3.067 56.73080 61.09622 0 1 1 0 1 0 0
638.8885080 18:46:19 256.72 -1.75 -5.00 825.5 568.2 289.9 0.13 8.38 0.99 -72.8 -8.10 -94.8 -3.04 -0.01 0.02 28.0 27.4 72.2 80.9 3.060 56.73080 61.09477 0 1 1 0 1 0 0
639.8885074 18:46:20 256.86 -1.71 -4.94 825.5 568.2 289.0 -0.00 8.42 0.99 -92.0 -10.19 -94.8 -3.04 -0.00 -0.18 28.0 27.3 72.2 80.9 3.056 56.73080 61.09337 0 1 1 0 1 0 0
640.8885068 18:46:21 257.05 -1.69 -5.25 825.5 568.0 287.9 -0.01 8.61 1.00 -95.1 -10.30 -94.8 -3.04 -0.01 0.02 28.0 27.3 72.2 80.9 3.055 56.73080 61.09190 0 1 1 0 1 0 0
641.8885062 18:46:22 257.23 -1.68 -5.54 825.6 568.3 286.8 0.17 8.82 1.02 -95.1 -10.40 -94.8 -3.04 -0.01 -0.17 28.0 27.3 72.2 80.9 3.055 56.73080 61.09032 0 1 1 0 1 0 0
642.8885056 18:46:23 257.39 -1.67 -5.74 825.8 568.4 285.7 0.37 8.94 1.02 -88.7 -10.40 -94.8 -3.04 -0.01 0.04 28.0 27.3 72.2 80.8 3.056 56.73081 61.08894 0 1 1 0 1 0 0
643.8885051 18:46:24 257.54 -1.66 -5.70 826.3 568.8 284.6 0.49 8.92 1.02 -78.7 -8.91 -94.8 -3.04 -0.01 -0.19 28.0 27.3 72.1 80.8 3.058 56.73082 61.08742 0 1 1 0 1 0 0
644.8885045 18:46:25 257.72 -1.65 -5.48 826.8 568.5 283.6 0.38 8.80 1.00 -64.3 -7.59 -94.8 -3.04 -0.01 -0.19 28.0 27.3 72.1 80.8 3.059 56.73083 61.08597 0 1 1 0 1 0 0
645.8885039 18:46:26 257.89 -1.63 -5.13 827.1 568.5 282.7 0.02 8.66 0.97 -62.8 -7.28 -94.8 -3.04 -0.01 0.03 28.0 27.3 72.1 80.8 3.061 56.73085 61.08439 0 1 1 0 1 0 0
646.8885033 18:46:27 258.05 -1.62 -5.00 827.0 567.1 282.1 -0.35 8.67 0.97 -72.4 -8.41 -94.8 -3.04 -0.00 0.04 28.0 27.3 72.1 80.8 3.061 56.73087 61.08301 0 1 1 0 1 0 0
647.8885027 18:46:28 258.20 -1.60 -4.93 826.5 566.5 281.5 -0.61 8.79 0.98 -83.0 -9.30 -94.8 -3.04 -0.01 0.04 28.0 27.3 72.1 80.8 3.062 56.73088 61.08160 0 1 1 0 1 0 0
648.8885021 18:46:29 258.38 -1.59 -5.07 825.6 563.1 280.9 -0.75 8.98 0.99 -94.8 -10.63 -94.8 -3.04 -0.01 0.04 28.0 27.3 72.1 80.8 3.064 56.73091 61.08000 0 1 1 0 1 0 0
649.8885015 18:46:30 258.55 -1.57 -5.23 824.9 562.5 280.4 -0.71 9.15 1.01 -97.3 -10.81 -97.2 -3.04 -0.01 0.02 28.0 27.3 72.1 80.8 3.064 56.73093 61.07860 0 1 1 0 1 0 0
650.8885009 18:46:31 258.71 -1.56 -5.40 824.1 558.8 279.8 -0.59 9.27 1.01 -97.3 -10.75 -97.2 -3.04 -0.01 0.02 28.0 27.3 72.1 80.8 3.066 56.73096 61.07709 0 1 1 0 1 0 0
651.8885003 18:46:32 258.87 -1.54 -5.55 823.5 558.4 279.1 -0.45 9.34 1.02 -96.9 -10.85 -97.2 -3.04 -0.01 0.02 28.0 27.3 72.1 80.8 3.067 56.73099 61.07564 0 1 1 0 1 0 0
652.8884997 18:46:33 259.02 -1.53 -5.64 823.1 554.8 278.5 -0.32 9.37 1.02 -90.7 -10.16 -97.2 -3.04 -0.01 -0.19 28.0 27.3 72.1 80.8 3.069 56.73102 61.07421 0 1 1 0 1 0 0
653.8884991 18:46:35 259.17 -1.51 -5.65 822.8 554.5 277.9 -0.27 9.35 1.01 -87.8 -9.79 -97.2 -3.04 -0.01 0.04 28.0 27.3 72.1 80.8 3.070 56.73105 61.07286 0 1 1 0 1 0 0
654.8884985 18:46:36 259.33 -1.50 -5.60 822.5 551.0 277.3 -0.29 9.32 1.00 -86.7 -9.75 -97.2 -3.04 -0.00 0.04 28.0 27.3 72.1 80.8 3.071 56.73108 61.07153 0 1 1 0 1 0 0
655.8884979 18:46:37 259.45 -1.48 -5.54 822.2 550.6 276.7 -0.37 9.31 1.00 -86.1 -9.65 -97.2 -3.04 -0.01 -0.19 28.0 27.3 72.1 80.8 3.072 56.73111 61.07019 0 1 1 0 1 0 0
656.8884973 18:46:38 259.62 -1.46 -5.50 821.7 546.9 276.2 -0.47 9.32 0.99 -94.4 -10.50 -97.2 -3.04 -0.01 0.04 28.0 27.3 72.1 80.8 3.073 56.73115 61.06879 0 1 1 0 1 0 0
657.8884967 18:46:39 259.76 -1.44 -5.58 821.2 543.6 275.7 -0.53 9.40 1.00 -96.2 -10.74 -97.2 -3.04 0.78 0.04 28.0 27.3 72.1 80.8 3.074 56.73119 61.06737 0 1 1 0 1 0 0
658.8884961 18:46:40 259.93 -1.20 -5.67 820.6 543.1 275.1 -0.53 9.49 1.00 -97.0 -10.87 -97.2 -3.04 0.62 0.04 28.0 27.3 72.1 80.8 3.075 56.73124 61.06592 0 1 1 0 1 0 0
659.8884955 18:46:41 260.05 -0.94 -5.55 820.0 539.8 274.7 -0.53 9.52 1.00 -71.4 -7.97 -97.2 -3.04 -0.13 0.17 28.0 27.3 72.1 80.8 3.076 56.73128 61.06442 0 1 1 0 1 0 0
660.8884949 18:46:42 260.13 -0.85 -5.13 819.4 538.8 274.5 -0.76 9.30 0.98 -64.6 -7.40 -97.2 -3.04 -0.01 -0.04 28.0 27.3 72.1 80.8 3.077 56.73132 61.06313 0 1 1 0 1 0 0
661.8884943 18:46:43 260.22 -0.82 -4.83 818.3 534.9 274.4 -1.19 9.18 0.97 -81.6 -9.53 -97.2 -3.04 -0.23 0.19 28.0 27.3 72.1 80.8 3.077 56.73137 61.06166 0 1 1 0 1 0 0
662.8884937 18:46:44 260.30 -0.86 -4.73 816.9 533.4 274.4 -1.51 9.26 0.97 -97.1 -10.85 -97.2 -3.04 -0.20 -0.02 28.0 27.3 72.1 80.8 3.078 56.73142 61.06026 0 1 1 0 1 0 0
663.8884931 18:46:46 260.39 -0.90 -4.83 815.3 529.6 274.4 -1.64 9.42 0.99 -100.5 -11.07 -97.2 -3.04 -0.02 -0.02 28.0 27.3 72.1 80.8 3.078 56.73146 61.05899 0 1 1 0 1 0 0
664.8884925 18:46:47 260.48 -0.92 -4.99 813.7 528.1 274.4 -1.61 9.59 1.00 -103.0 -11.36 -97.2 -3.04 -0.02 -0.02 28.0 27.3 72.1 80.8 3.079 56.73151 61.05769 0 1 1 0 1 0 0
665.8884919 18:46:48 260.57 -0.93 -5.17 812.1 524.5 274.3 -1.49 9.69 1.01 -104.2 -11.66 -97.2 -3.04 -0.01 -0.02 28.0 27.3 72.1 80.8 3.080 56.73156 61.05637 0 1 1 0 1 0 0
666.8884913 18:46:49 260.66 -0.93 -5.32 810.6 523.1 274.3 -1.30 9.75 1.02 -100.3 -11.10 -97.2 -3.04 -0.01 -0.02 28.0 27.3 72.9 81.3 3.257 56.73161 61.05497 0 1 1 0 1 0 0
667.8884907 18:46:50 260.75 -0.93 -5.40 809.3 520.3 274.7 -1.11 9.73 1.02 -97.6 -10.83 -97.2 -3.04 -0.01 -0.02 28.0 27.3 74.6 82.2 3.657 56.73166 61.05363 0 1 1 0 1 0 0
668.8884902 18:46:51 260.84 -0.84 -5.51 808.2 519.3 275.5 -0.90 9.68 1.02 -97.0 -10.88 -97.2 -3.04 1.52 -0.02 28.0 27.3 75.7 82.7 3.899 56.73171 61.05223 0 1 1 0 1 0 0
669.8884896 18:46:52 260.92 -0.54 -5.63 807.4 517.7 276.4 -0.68 9.64 1.02 -96.6 -10.82 -97.2 -3.04 0.58 0.19 28.0 27.3 76.3 83.0 4.023 56.73176 61.05093 0 1 1 0 1 0 0
670.8884890 18:46:53 260.93 -0.23 -5.76 806.8 517.2 277.5 -0.40 9.58 1.02 -96.2 -10.63 -97.2 -3.04 0.72 0.19 28.0 27.3 76.7 83.2 4.101 56.73182 61.04946 0 1 1 0 1 0 0
671.8884884 18:46:54 260.92 0.06 -5.91 806.4 516.7 278.4 -0.12 9.53 1.03 -95.9 -10.77 -97.2 -3.04 0.09 0.19 28.0 27.3 76.9 83.2 4.141 56.73187 61.04805 0 1 1 0 1 0 0
672.8884878 18:46:55 260.88 0.24 -6.06 806.4 516.9 279.2 0.16 9.47 1.03 -96.9 -10.68 -97.2 -3.04 0.06 0.19 28.0 27.3 77.0 83.3 4.161 56.73192 61.04673 0 1 1 0 1 0 0
673.8884872 18:46:56 260.81 0.34 -6.30 806.9 517.5 280.1 0.54 9.43 1.03 -97.3 -10.69 -97.2 -3.04 -0.01 0.19 28.0 27.3 77.1 83.3 4.174 56.73199 61.04504 0 1 1 0 1 0 0
674.8884866 18:46:57 260.73 0.35 -6.49 807.5 518.4 280.5 0.84 9.41 1.03 -97.2 -10.68 -97.2 -3.04 -0.01 -0.04 28.0 27.3 77.1 83.3 4.179 56.73204 61.04375 0 1 1 0 1 0 0
675.8884860 18:46:58 260.67 0.34 -6.73 808.7 520.1 280.9 1.22 9.38 1.03 -97.2 -10.66 -97.2 -3.04 -0.01 0.18 28.0 27.3 77.1 83.4 4.182 56.73209 61.04221 0 1 1 0 1 0 0
676.8884854 18:46:59 260.60 0.30 -6.92 810.0 521.7 281.1 1.53 9.36 1.03 -86.5 -9.81 -89.2 -3.04 -0.01 -0.04 28.0 27.3 77.1 83.4 4.183 56.73214 61.04093 0 1 1 0 1 0 0
677.8884848 18:47:00 260.53 0.28 -6.63 811.8 524.0 281.4 1.69 9.15 1.01 -51.6 -6.17 -74.8 -3.04 -0.00 -0.04 28.0 27.3 77.1 83.4 4.183 56.73219 61.03942 0 1 1 0 1 0 0
678.8884842 18:47:01 260.46 0.24 -6.27 813.4 525.3 281.8 1.51 8.82 0.98 -61.5 -6.85 -74.8 -3.04 -0.53 0.19 28.0 27.3 77.1 83.4 4.183 56.73224 61.03814 0 1 1 0 1 0 0
679.8884836 18:47:02 260.39 0.11 -5.96 814.9 528.9 282.2 1.19 8.68 0.97 -71.6 -7.78 -74.8 -3.04 -0.57 -0.04 28.0 27.3 77.1 83.4 4.181 56.73228 61.03671 0 1 1 0 1 0 0
680.8884830 18:47:03 260.34 -0.18 -5.89 816.2 530.1 282.8 0.89 8.71 0.98 -74.8 -8.42 -74.8 -3.04 -0.96 -0.04 28.0 27.3 77.1 83.4 4.179 56.73234 61.03504 0 1 1 0 1 0 0
681.8884824 18:47:04 260.31 -0.42 -5.84 817.1 534.0 283.3 0.77 8.77 0.99 -74.8 -8.43 -74.8 -3.04 -0.18 -0.04 28.0 27.3 77.2 83.4 4.177 56.73238 61.03366 0 1 1 0 1 0 0
682.8884818 18:47:05 260.31 -0.52 -5.77 817.9 538.4 284.0 0.69 8.78 0.99 -75.0 -8.40 -74.8 -3.04 -0.05 0.04 28.0 27.3 77.2 83.4 4.175 56.73243 61.03213 0 1 1 0 1 0 0
683.8884812 18:47:06 260.32 -0.55 -5.72 818.6 539.0 284.5 0.65 8.78 1.00 -79.4 -8.70 -78.0 -3.04 -0.04 -0.19 28.0 27.3 77.2 83.4 4.173 56.73248 61.03083 0 1 1 0 1 0 0
684.8884806 18:47:08 260.34 -0.55 -5.75 819.3 542.8 285.1 0.66 8.79 1.00 -78.8 -8.82 -78.8 -3.04 -0.05 0.04 28.0 27.3 77.2 83.4 4.172 56.73253 61.02933 0 1 1 0 1 0 0
685.8884800 18:47:09 260.36 -0.54 -5.78 820.1 543.7 285.7 0.72 8.78 1.00 -78.8 -8.80 -78.8 -3.04 -0.05 0.04 28.0 27.3 77.2 83.4 4.170 56.73258 61.02777 0 1 1 0 1 0 0
686.8884794 18:47:10 260.39 -0.52 -5.80 820.9 547.4 286.2 0.79 8.77 1.01 -78.8 -8.82 -78.8 -3.04 -0.04 0.02 28.0 27.3 77.2 83.4 4.168 56.73263 61.02634 0 1 1 0 1 0 0
687.8884788 18:47:11 260.43 -0.49 -5.83 821.8 548.4 286.7 0.88 8.74 1.01 -78.8 -8.79 -78.8 -3.04 -0.04 0.02 28.0 27.3 77.2 83.4 4.167 56.73268 61.02478 0 1 1 0 1 0 0
688.8884782 18:47:13 260.45 -0.47 -5.87 822.8 551.4 287.1 0.96 8.72 1.01 -72.7 -8.49 -78.8 -3.04 -0.04 0.02 28.0 27.3 77.2 83.4 4.166 56.73273 61.02342 0 1 1 0 1 0 0
689.8884776 18:47:14 260.48 -0.44 -5.79 823.9 552.4 287.6 1.00 8.65 1.00 -67.1 -7.69 -78.8 -3.04 -0.03 0.04 28.0 27.3 77.2 83.4 4.164 56.73278 61.02191 0 1 1 0 1 0 0
690.8884770 18:47:15 260.52 -0.41 -5.58 825.0 553.5 288.1 0.93 8.52 0.99 -62.7 -7.23 -78.8 -3.04 -0.03 -0.19 28.0 27.3 77.2 83.4 4.162 56.73284 61.02031 0 1 1 0 1 0 0
691.8884764 18:47:16 260.56 -0.38 -5.41 826.0 554.3 288.6 0.77 8.42 0.99 -63.6 -7.33 -78.8 -3.04 -0.03 0.04 28.0 27.3 77.2 83.4 4.160 56.73289 61.01880 0 1 1 0 1 0 0
692.8884758 18:47:17 260.59 -0.34 -5.26 826.6 554.6 289.1 0.62 8.36 0.98 -58.8 -6.94 -78.8 -3.04 -0.03 0.04 28.0 27.3 77.2 83.4 4.159 56.73294 61.01751 0 1 1 0 1 0 0
693.8884752 18:47:18 260.62 -0.31 -5.00 827.3 555.0 289.6 0.57 8.23 1.00 -45.9 -5.15 -78.8 -3.21 -0.03 0.04 30.1 27.3 77.2 83.4 4.157 56.73299 61.01605 0 1 1 0 1 0 0
694.8884747 18:47:19 260.66 -0.27 -4.59 827.9 555.0 289.7 0.64 7.89 1.01 -38.1 -4.37 -78.8 -3.41 -0.03 0.04 32.3 27.3 77.2 83.4 4.157 56.73304 61.01469 0 1 1 0 1 0 0
695.8884741 18:47:20 260.70 -0.23 -4.19 828.5 555.4 289.5 0.68 7.47 1.01 -34.6 -4.49 -78.8 -3.61 -0.02 0.04 34.5 27.3 77.2 83.4 4.158 56.73309 61.01329 0 1 1 0 1 0 0
696.8884735 18:47:21 260.74 -0.19 -3.78 829.3 555.8 288.6 0.70 7.02 1.01 -36.8 -4.52 -78.8 -3.81 -0.03 0.04 37.0 27.3 77.2 83.4 4.160 56.73315 61.01172 0 1 1 0 1 0 0
697.8884729 18:47:22 260.78 -0.16 -3.38 830.1 556.4 287.4 0.72 6.61 1.01 -30.3 -3.80 -78.8 -4.01 -0.03 0.04 39.3 27.3 77.2 83.4 4.163 56.73321 61.01021 0 1 1 0 1 0 0
698.8884723 18:47:24 260.83 -0.12 -2.75 830.9 557.7 285.7 0.64 6.11 1.00 -17.4 -1.91 -78.8 -4.20 -0.04 0.04 41.8 27.3 77.2 83.4 4.167 56.73327 61.00864 0 1 1 0 1 0 0
699.8884717 18:47:25 260.88 -0.08 -2.24 831.5 560.5 283.9 0.39 5.64 0.99 -16.2 -1.88 -78.8 -4.40 -0.04 0.04 44.2 27.3 77.0 83.3 4.143 56.73332 61.00718 0 1 1 0 1 0 0
700.8884711 18:47:26 260.92 -0.06 -1.83 831.8 560.6 282.0 0.05 5.37 0.97 -41.6 -4.14 -78.8 -4.60 -0.04 0.04 45.0 27.3 75.8 82.6 3.871 56.73338 61.00584 0 1 1 0 1 0 0
701.8884705 18:47:27 260.97 -0.05 -1.73 831.7 563.2 279.8 -0.39 5.43 0.97 -26.6 -3.26 -72.4 -4.80 -0.04 0.04 45.0 27.3 74.7 82.2 3.657 56.73343 61.00447 0 1 1 0 1 0 0
702.8884699 18:47:28 261.01 -0.04 -1.26 831.0 562.4 277.6 -0.91 5.46 0.96 -12.6 -1.91 -65.2 -5.01 -0.04 0.04 45.0 27.3 74.1 81.9 3.529 56.73349 61.00307 0 1 1 0 1 0 0
703.8884693 18:47:29 261.06 -0.03 -0.80 829.6 563.9 275.6 -1.64 5.47 0.94 -1.4 -0.14 -55.6 -5.21 -0.04 0.04 45.0 27.3 73.8 81.7 3.456 56.73355 61.00157 0 1 1 0 1 0 0
704.8884687 18:47:30 261.13 -0.02 -0.26 827.6 561.8 274.1 -2.38 5.49 0.94 -9.1 0.43 -42.8 -5.39 -0.03 0.04 45.0 27.3 73.5 81.5 3.393 56.73361 61.00022 0 1 1 0 1 0 0
705.8884681 18:47:31 261.16 -0.00 0.01 824.7 562.0 272.8 -3.10 5.62 0.94 -8.5 -1.11 -34.0 -5.50 -0.04 0.04 45.0 27.4 73.2 81.4 3.322 56.73366 60.99886 0 1 1 0 1 0 0
706.8884675 18:47:32 261.21 0.01 0.33 821.3 558.6 271.8 -3.69 5.79 0.95 -14.9 -1.77 -26.0 -5.50 -0.04 0.04 45.0 27.4 73.0 81.3 3.284 56.73372 60.99756 0 1 1 0 1 0 0
707.8884669 18:47:33 261.26 0.02 0.55 817.3 557.7 271.1 -4.20 5.95 0.95 -29.9 -3.37 -26.0 -5.50 -0.03 0.04 45.0 27.4 72.9 81.2 3.263 56.73377 60.99626 0 1 1 0 1 0 0
708.8884663 18:47:34 261.31 0.04 0.64 812.6 553.0 270.4 -4.60 6.14 0.97 -48.6 -5.49 -28.4 -5.50 -0.05 0.04 45.0 27.4 72.8 81.2 3.252 56.73383 60.99490 0 1 1 0 1 0 0
709.8884657 18:47:35 261.37 0.03 0.41 806.8 550.2 269.7 -4.80 6.43 0.99 -68.1 -7.37 -36.4 -5.50 -0.04 0.04 45.0 27.4 72.8 81.2 3.246 56.73390 60.99332 0 1 1 0 1 0 0
710.8884651 18:47:36 261.43 0.03 0.27 801.6 545.0 269.2 -4.74 6.69 1.01 -41.5 -4.84 -37.2 -5.50 -0.03 0.04 45.0 27.4 72.7 81.2 3.248 56.73396 60.99195 0 1 1 0 1 0 0
711.8884645 18:47:37 261.49 0.04 0.41 796.4 542.9 268.7 -4.77 6.66 1.00 -47.3 -5.27 -37.2 -5.50 -0.01 0.04 45.0 27.4 72.7 81.2 3.249 56.73402 60.99058 0 1 1 0 1 0 0
712.8884639 18:47:39 261.54 0.05 0.44 791.2 537.7 268.2 -4.85 6.65 1.00 -56.5 -6.26 -37.2 -5.50 -0.01 0.04 45.0 27.4 72.7 81.2 3.250 56.73409 60.98922 0 1 1 0 1 0 0
713.8884633 18:47:40 261.60 0.06 0.38 785.7 535.2 267.8 -4.90 6.72 1.00 -62.0 -6.74 -42.0 -5.50 -0.01 0.04 45.0 27.4 72.7 81.2 3.252 56.73415 60.98781 0 1 1 0 1 0 0
714.8884627 18:47:41 261.66 0.06 0.27 780.3 529.8 267.3 -4.89 6.82 1.01 -65.3 -7.19 -45.2 -5.50 -0.01 0.04 45.0 27.4 72.7 81.2 3.255 56.73422 60.98643 0 1 1 0 1 0 0
715.8884621 18:47:42 261.72 0.07 0.12 774.7 527.0 266.8 -4.80 6.92 1.01 -67.6 -7.41 -46.8 -5.50 -0.00 0.04 45.0 27.4 72.7 81.2 3.257 56.73428 60.98499 0 1 1 0 1 0 0
716.8884615 18:47:43 261.78 0.06 -0.03 769.1 524.0 266.3 -4.68 7.00 1.02 -67.4 -7.36 -46.8 -5.50 -0.00 0.04 45.0 27.4 72.7 81.2 3.260 56.73436 60.98351 0 1 1 0 1 0 0
717.8884609 18:47:44 261.83 0.06 -0.12 764.5 519.4 265.9 -4.57 7.04 1.02 -53.1 -6.47 -46.8 -5.50 0.02 0.04 45.0 27.4 73.5 81.6 3.446 56.73441 60.98227 0 1 1 0 1 0 0
718.8884603 18:47:45 261.89 0.16 -0.01 758.5 515.3 265.9 -4.53 6.97 1.01 -53.8 -5.93 -46.8 -5.50 0.71 0.04 45.0 27.4 74.4 82.1 3.663 56.73449 60.98064 0 1 1 0 1 0 0
719.8884598 18:47:46 261.94 0.41 0.03 753.5 510.3 266.1 -4.55 6.91 1.01 -50.1 -5.67 -46.8 -5.50 0.14 0.19 45.0 27.4 74.8 82.3 3.756 56.73456 60.97928 0 1 1 0 1 0 0
720.8884592 18:47:47 261.95 0.59 0.04 748.5 505.6 266.4 -4.57 6.90 1.01 -51.1 -5.79 -46.8 -5.50 0.11 0.19 45.0 27.4 75.0 82.4 3.807 56.73463 60.97792 0 1 1 0 1 0 0
721.8884586 18:47:48 261.92 0.69 -0.00 742.7 499.8 266.8 -4.55 6.89 1.01 -54.8 -5.78 -46.8 -5.50 0.05 0.19 45.0 27.4 75.2 82.4 3.838 56.73471 60.97633 0 1 1 0 1 0 0
722.8884580 18:47:50 261.88 0.71 -0.01 737.9 494.9 267.2 -4.50 6.88 1.01 -55.1 -6.53 -46.8 -5.50 -0.01 0.17 45.0 27.4 75.2 82.4 3.852 56.73477 60.97498 0 1 1 0 1 0 0
723.8884574 18:47:51 261.84 0.68 -0.05 733.5 490.6 267.5 -4.45 6.88 1.01 -61.2 -6.84 -46.8 -5.50 -0.01 0.17 45.0 27.4 75.3 82.5 3.860 56.73483 60.97378 0 1 1 0 1 0 0
724.8884568 18:47:52 261.79 0.65 -0.13 728.9 485.9 267.8 -4.36 6.88 1.01 -70.4 -7.46 -46.8 -5.50 -0.01 0.19 45.0 27.4 75.3 82.5 3.866 56.73489 60.97248 0 1 1 0 1 0 0
725.8884562 18:47:53 261.75 0.61 -0.18 724.2 481.1 268.0 -4.25 6.88 1.02 -56.4 -6.31 -46.8 -5.50 -0.00 -0.04 45.0 27.4 75.3 82.5 3.870 56.73496 60.97110 0 1 1 0 1 0 0
726.8884556 18:47:54 261.71 0.57 -0.22 719.7 476.5 268.2 -4.16 6.84 1.01 -54.5 -6.07 -46.8 -5.50 0.00 -0.04 45.0 27.4 75.3 82.5 3.873 56.73502 60.96977 0 1 1 0 1 0 0
727.8884550 18:47:55 261.67 0.52 -0.21 715.5 472.4 268.4 -4.10 6.81 1.01 -49.2 -5.52 -46.8 -5.50 -0.01 0.19 45.0 27.4 75.3 82.5 3.876 56.73508 60.96851 0 1 1 0 1 0 0
728.8884544 18:47:56 261.62 0.48 -0.18 710.9 467.8 268.5 -4.07 6.75 1.01 -50.4 -5.74 -46.8 -5.50 -0.01 -0.04 45.0 27.4 75.3 82.5 3.878 56.73514 60.96708 0 1 1 0 1 0 0
729.8884538 18:47:57 261.59 0.62 -0.20 706.6 463.6 268.7 -4.06 6.72 1.01 -54.3 -6.14 -46.8 -5.50 0.00 0.19 45.0 27.4 75.3 82.5 3.880 56.73520 60.96577 0 1 1 0 1 0 0
730.8884532 18:47:58 261.50 0.72 -0.21 702.3 460.6 268.8 -4.04 6.73 1.01 -47.1 -5.27 -46.8 -5.50 0.00 0.19 45.0 27.1 75.3 82.5 3.882 56.73526 60.96444 0 1 1 0 1 0 0
731.8884526 18:47:59 261.41 0.81 -0.15 698.2 456.5 268.9 -4.04 6.68 1.01 -47.5 -5.33 -46.8 -5.50 1.53 0.19 45.0 27.1 75.3 82.5 3.884 56.73531 60.96317 0 1 1 0 1 0 0
732.8884520 18:48:00 261.31 1.23 -0.11 693.8 454.7 269.1 -4.07 6.65 1.00 -47.6 -5.33 -46.8 -5.50 -0.01 0.34 45.0 27.1 75.3 82.5 3.886 56.73537 60.96179 0 1 1 0 1 0 0
733.8884514 18:48:01 261.14 1.46 -0.08 689.7 450.6 269.2 -4.10 6.63 1.00 -48.1 -5.43 -46.8 -5.50 -0.00 0.26 45.0 27.1 75.3 82.5 3.887 56.73542 60.96053 0 1 1 0 1 0 0
734.8884508 18:48:02 260.95 1.52 -0.05 685.2 448.9 269.4 -4.13 6.63 1.00 -49.7 -5.57 -46.8 -5.50 -0.02 0.26 45.0 27.1 75.3 82.5 3.890 56.73548 60.95916 0 1 1 0 1 0 0
735.8884502 18:48:03 260.74 1.44 -0.04 681.3 444.9 269.6 -4.14 6.62 1.01 -49.2 -5.52 -46.8 -5.50 -0.48 0.12 45.0 27.1 75.5 82.6 3.938 56.73552 60.95797 0 1 1 0 1 0 0
736.8884496 18:48:04 260.55 1.15 -0.05 676.6 442.8 269.9 -4.14 6.62 1.01 -48.8 -5.50 -46.8 -5.50 -0.35 -0.04 45.0 27.1 75.7 82.7 3.984 56.73557 60.95654 0 1 1 0 1 0 0
737.8884490 18:48:05 260.39 0.90 -0.05 671.8 440.2 270.2 -4.12 6.61 1.01 -48.7 -5.45 -46.8 -5.50 -0.32 -0.04 45.0 27.1 75.8 82.7 4.010 56.73562 60.95509 0 1 1 0 1 0 0
738.8884484 18:48:06 260.25 0.59 -0.05 667.6 435.9 270.5 -4.10 6.59 1.01 -48.9 -5.45 -46.8 -5.50 -1.41 -0.04 45.0 27.1 75.9 82.8 4.023 56.73566 60.95378 0 1 1 0 1 0 0
739.8884478 18:48:09 260.12 0.16 -0.06 662.9 432.8 270.9 -4.06 6.58 1.01 -48.9 -5.48 -46.8 -5.50 -0.26 -0.04 45.0 27.1 75.9 82.8 4.032 56.73570 60.95235 0 1 1 0 1 0 0
740.8884472 18:48:10 260.04 -0.13 -0.07 658.6 428.5 271.1 -4.01 6.56 1.01 -47.4 -5.33 -46.8 -5.50 -1.31 -0.19 45.0 27.1 75.9 82.8 4.037 56.73574 60.95100 0 1 1 0 1 0 0
741.8884466 18:48:11 260.01 -0.39 -0.08 654.4 423.4 271.4 -3.98 6.53 1.01 -47.1 -5.27 -46.8 -5.50 -0.04 -0.19 45.0 27.1 75.9 82.8 4.041 56.73578 60.94966 0 1 1 0 1 0 0
742.8884460 18:48:12 260.03 -0.46 -0.08 650.1 419.1 271.7 -3.94 6.51 1.01 -47.1 -5.26 -46.8 -5.50 -0.02 -0.19 45.0 27.1 75.9 82.8 4.044 56.73582 60.94830 0 1 1 0 1 0 0
743.8884454 18:48:13 260.00 -0.47 -0.09 645.6 412.5 271.9 -3.91 6.49 1.01 -47.0 -5.26 -46.8 -5.50 -0.02 -0.19 45.0 27.1 76.0 82.8 4.046 56.73586 60.94683 0 1 1 0 1 0 0
744.8884449 18:48:14 260.01 -0.46 -0.11 641.7 408.6 272.1 -3.87 6.47 1.01 -47.1 -5.25 -46.8 -5.50 -0.02 0.04 45.0 27.1 76.1 82.9 4.080 56.73590 60.94555 0 1 1 0 1 0 0
745.8884443 18:48:15 260.02 -0.43 -0.14 636.9 401.5 272.5 -3.82 6.46 1.01 -46.9 -5.23 -46.8 -5.50 0.02 0.04 45.0 27.1 76.7 83.2 4.228 56.73594 60.94399 0 1 1 0 1 0 0
746.8884437 18:48:16 260.03 -0.39 -0.17 632.5 397.0 273.0 -3.75 6.44 1.01 -46.7 -5.20 -46.8 -5.50 -0.05 -0.19 45.0 27.1 77.1 83.4 4.317 56.73599 60.94251 0 1 1 0 1 0 0
747.8884431 18:48:17 260.04 -0.36 -0.16 628.8 390.8 273.5 -3.68 6.41 1.01 -37.3 -4.31 -38.0 -5.50 -0.02 -0.19 45.0 27.1 77.3 83.5 4.359 56.73602 60.94126 0 1 1 0 1 0 0
748.8884425 18:48:18 260.06 -0.32 -0.10 624.4 386.3 274.2 -3.65 6.32 1.01 -36.7 -4.13 -37.2 -5.50 -0.01 -0.17 45.0 27.1 77.5 83.5 4.388 56.73607 60.93971 0 1 1 0 1 0 0
749.8884419 18:48:20 260.07 -0.29 -0.06 620.7 379.9 274.7 -3.65 6.26 1.01 -36.9 -4.12 -37.2 -5.50 -0.01 0.04 45.0 27.1 77.5 83.6 4.402 56.73611 60.93841 0 1 1 0 1 0 0
750.8884413 18:48:21 260.09 -0.25 0.03 616.4 372.8 275.3 -3.66 6.19 1.01 -28.4 -3.30 -29.2 -5.50 -0.01 0.02 45.0 27.1 77.6 83.6 4.411 56.73616 60.93692 0 1 1 0 1 0 0
751.8884407 18:48:22 260.10 -0.21 0.18 612.6 369.0 275.9 -3.72 6.10 1.00 -22.2 -2.49 -22.8 -5.50 -0.01 0.02 45.0 27.1 77.6 83.6 4.416 56.73620 60.93559 0 1 1 0 1 0 0
752.8884401 18:48:23 260.12 -0.17 0.39 607.8 360.9 276.7 -3.87 5.99 0.99 -23.0 -2.73 -22.8 -5.50 -0.69 0.04 45.0 27.1 77.6 83.6 4.418 56.73625 60.93397 0 1 1 0 1 0 0
753.8884395 18:48:24 260.15 -0.42 0.52 603.8 356.9 277.4 -4.01 5.92 0.99 -23.5 -2.75 -22.8 -5.50 -2.44 -0.19 45.0 27.1 77.6 83.6 4.420 56.73629 60.93266 0 1 1 0 1 0 0
754.8884389 18:48:25 260.21 -1.05 0.66 599.1 349.0 278.2 -4.16 5.87 0.99 -24.4 -2.90 -22.8 -5.50 -0.08 -0.34 45.0 27.1 77.6 83.6 4.422 56.73634 60.93117 0 1 1 0 1 0 0
755.8884383 18:48:26 260.38 -1.28 0.75 594.7 344.6 278.9 -4.26 5.84 1.00 -32.9 -3.65 -22.8 -5.50 0.79 -0.27 45.0 27.1 77.6 83.6 4.422 56.73638 60.92981 0 1 1 0 1 0 0
756.8884377 18:48:27 260.56 -1.18 0.74 589.6 336.4 279.8 -4.30 5.86 1.00 -28.9 -3.27 -22.8 -5.50 0.49 -0.11 45.0 27.1 77.6 83.6 4.423 56.73644 60.92828 0 1 1 0 1 0 0
757.8884371 18:48:28 260.72 -1.02 0.77 585.3 332.1 280.4 -4.30 5.83 1.01 -30.6 -3.36 -22.8 -5.50 0.31 -0.11 45.0 27.1 77.6 83.6 4.424 56.73648 60.92699 0 1 1 0 1 0 0
758.8884365 18:48:29 260.87 -0.88 0.76 580.6 324.3 281.1 -4.27 5.80 1.01 -31.3 -3.69 -22.8 -5.50 -0.01 0.04 45.0 27.1 77.6 83.6 4.426 56.73654 60.92556 0 1 1 0 1 0 0
759.8884359 18:48:30 261.00 -0.79 0.76 576.1 319.8 281.8 -4.22 5.78 1.01 -33.4 -3.72 -27.6 -5.50 -0.01 0.04 45.0 27.1 77.6 83.6 4.427 56.73660 60.92416 0 1 1 0 1 0 0
760.8884353 18:48:31 261.13 -0.73 0.71 571.9 312.9 282.3 -4.15 5.76 1.01 -36.1 -3.83 -30.0 -5.50 -0.00 0.04 45.0 27.1 77.6 83.6 4.428 56.73665 60.92287 0 1 1 0 1 0 0
761.8884347 18:48:32 261.25 -0.67 0.61 567.8 308.8 282.8 -4.04 5.76 1.02 -38.3 -4.21 -30.8 -5.50 -0.01 0.04 45.0 27.1 77.6 83.6 4.429 56.73670 60.92155 0 1 1 0 1 0 0
762.8884341 18:48:33 261.37 -0.61 0.50 563.7 303.0 283.1 -3.89 5.77 1.02 -35.7 -3.96 -32.4 -5.50 -0.01 -0.19 45.0 27.1 76.9 83.2 4.260 56.73676 60.92019 0 1 1 0 1 0 0
763.5551004 18:48:35 261.46 -0.56 0.47 560.6 299.9 283.1 -3.78 5.75 1.02 -33.4 -3.63 -32.4 -5.50 0.51 0.04 45.0 27.1 76.3 83.0 4.142 56.73681 60.91913 0 1 1 0 1 0 0
764.0551001 18:48:35 261.51 -0.51 0.45 558.8 298.1 283.0 -3.73 5.73 1.02 -31.3 -3.60 -32.4 -5.50 0.93 0.04 45.0 27.1 76.1 82.8 4.093 56.73684 60.91851 0 1 1 0 1 0 0
764.5550998 18:48:36 261.58 -0.41 0.45 556.6 295.0 282.9 -3.69 5.71 1.02 -32.2 -3.63 -32.4 -5.50 0.75 0.04 45.0 27.1 75.9 82.7 4.049 56.73688 60.91776 0 1 1 0 1 0 0
765.0550995 18:48:36 261.62 -0.27 0.44 554.7 293.1 282.7 -3.67 5.69 1.01 -32.3 -3.57 -32.4 -5.50 1.78 0.04 45.0 27.1 75.8 82.7 4.018 56.73691 60.91709 0 1 1 0 1 0 1
765.5550992 18:48:36 261.68 -0.11 0.44 553.2 291.5 282.6 -3.66 5.68 1.01 -31.7 -3.59 -32.4 -5.50 0.86 0.04 45.0 27.1 75.7 82.6 4.000 56.73693 60.91653 0 1 1 0 1 0 1
766.0550989 18:48:37 261.73 0.09 0.43 551.1 289.4 282.4 -3.65 5.68 1.01 -26.2 -3.22 -32.4 -5.50 0.01 0.04 45.0 27.1 75.6 82.6 3.981 56.73697 60.91579 0 1 1 0 1 0 1
766.5550986 18:48:37 261.77 0.22 0.47 549.2 286.7 282.2 -3.65 5.67 1.01 -22.1 -2.55 -32.4 -5.50 0.52 0.19 45.0 27.1 75.5 82.6 3.970 56.73700 60.91511 0 1 1 0 1 0 1
767.0550983 18:48:38 261.80 0.32 0.53 547.3 284.7 282.0 -3.68 5.65 1.00 -18.4 -2.14 -32.4 -5.50 1.09 0.19 45.0 27.1 75.5 82.5 3.960 56.73703 60.91442 0 1 1 0 1 0 1
767.5550980 18:48:38 261.82 0.46 0.60 545.4 282.9 281.9 -3.73 5.61 1.00 -21.8 -2.52 -32.4 -5.50 -0.10 0.19 45.0 27.1 75.4 82.5 3.955 56.73707 60.91377 0 1 1 0 1 0 1
768.0550977 18:48:39 261.82 0.56 0.64 543.5 281.0 281.7 -3.79 5.59 1.00 -19.7 -2.12 -32.4 -5.50 -0.01 0.13 45.0 27.1 75.4 82.5 3.949 56.73710 60.91310 0 1 1 0 1 0 1
768.5550974 18:48:39 261.83 0.62 0.68 541.4 278.2 281.6 -3.86 5.58 0.99 -22.1 -2.90 -32.4 -5.50 -0.01 0.13 45.0 27.1 75.4 82.5 3.947 56.73713 60.91239 0 1 1 0 1 0 1
769.0550971 18:48:40 261.82 0.65 0.74 539.3 276.1 281.5 -3.94 5.59 0.99 -17.9 -2.21 -32.4 -5.50 -0.01 0.13 45.0 27.1 75.4 82.5 3.944 56.73717 60.91169 0 1 1 0 1 0 1
769.5550968 18:48:40 261.82 0.65 0.83 537.2 273.9 281.4 -4.02 5.58 0.99 -16.1 -1.93 -32.4 -5.50 -0.00 0.13 45.0 27.1 75.4 82.5 3.943 56.73720 60.91098 0 1 1 0 1 0 1
770.0550965 18:48:41 261.81 0.65 0.92 534.9 271.7 281.3 -4.12 5.56 0.99 -16.9 -1.99 -32.4 -5.50 -0.00 0.13 45.0 27.1 75.4 82.5 3.941 56.73723 60.91026 0 1 1 0 1 0 1
770.5550962 18:48:41 261.81 0.63 1.00 533.0 269.0 281.3 -4.21 5.55 0.99 -17.8 -1.99 -32.4 -5.50 -0.00 0.13 45.0 27.1 75.4 82.5 3.943 56.73726 60.90965 0 1 1 0 1 0 1
771.0550959 18:48:42 261.80 0.62 1.07 530.6 266.7 281.3 -4.32 5.54 0.99 -21.2 -2.34 -32.4 -5.50 -0.00 -0.04 45.0 27.1 75.3 82.5 3.942 56.73730 60.90892 0 1 1 0 1 0 1
771.5550956 18:48:42 261.80 0.60 1.10 527.8 263.8 281.3 -4.43 5.55 0.99 -32.1 -3.57 -32.4 -5.50 -0.00 0.19 45.0 27.1 75.3 82.5 3.943 56.73734 60.90809 0 1 1 0 1 0 1
772.0550953 18:48:43 261.78 0.59 1.08 525.5 261.6 281.3 -4.49 5.59 0.99 -31.2 -3.47 -32.4 -5.50 -0.00 -0.04 45.0 27.1 75.3 82.5 3.942 56.73737 60.90743 0 1 1 0 1 0 1
772.5550950 18:48:43 261.78 0.57 1.07 523.3 258.6 281.3 -4.52 5.64 1.00 -32.0 -3.57 -32.4 -5.50 -0.00 0.19 45.0 27.1 75.3 82.5 3.944 56.73740 60.90679 0 1 1 0 1 0 1
773.0550947 18:48:44 261.77 0.55 1.06 520.3 255.6 281.3 -4.55 5.68 1.00 -32.4 -3.60 -32.4 -5.50 -0.04 -0.04 45.0 27.1 75.3 82.5 3.944 56.73744 60.90593 0 1 1 0 1 0 1
773.5550944 18:48:44 261.77 0.55 1.06 518.1 253.4 281.4 -4.56 5.70 1.00 -32.3 -3.62 -32.4 -5.50 1.38 0.19 45.0 27.1 75.3 82.5 3.946 56.73747 60.90528 0 1 1 0 1 0 1
774.0550941 18:48:45 261.76 0.63 1.05 515.7 250.3 281.4 -4.56 5.72 1.00 -32.3 -3.62 -32.4 -5.50 1.15 0.19 45.0 27.1 75.3 82.5 3.946 56.73750 60.90463 0 1 1 0 1 0 1
774.5550938 18:48:45 261.75 0.78 1.05 513.1 247.6 281.4 -4.56 5.73 1.01 -32.3 -3.61 -32.4 -5.50 0.70 0.19 45.0 27.1 75.3 82.5 3.947 56.73754 60.90388 0 1 1 0 1 0 1
775.0550935 18:48:46 261.72 0.90 1.04 510.8 245.3 281.4 -4.55 5.73 1.01 -32.3 -3.61 -32.4 -5.50 0.06 0.19 45.0 27.1 75.3 82.5 3.947 56.73757 60.90322 0 1 1 0 1 0 1
775.5550932 18:48:46 261.69 0.98 1.04 508.5 243.1 281.5 -4.55 5.73 1.01 -32.3 -3.62 -32.4 -5.50 -0.00 0.34 45.0 27.1 75.3 82.5 3.950 56.73760 60.90257 0 1 1 0 1 0 1
776.0550929 18:48:47 261.64 1.02 1.04 506.0 239.8 281.4 -4.55 5.73 1.01 -21.9 -2.50 -32.4 -5.50 -0.01 0.11 45.0 27.1 75.3 82.5 3.950 56.73763 60.90184 0 1 1 0 1 0 0
776.5550926 18:48:47 261.61 1.04 1.07 503.2 237.1 281.5 -4.55 5.72 1.01 -30.4 -3.52 -32.4 -5.50 -0.00 0.11 45.0 27.1 75.3 82.5 3.952 56.73767 60.90105 0 1 1 0 1 0 0
777.0550923 18:48:48 261.56 1.03 1.10 500.9 234.7 281.5 -4.57 5.70 1.00 -29.5 -3.20 -32.4 -5.50 -0.01 0.34 45.0 27.1 75.3 82.5 3.952 56.73770 60.90039 0 1 1 0 1 0 0
777.5550920 18:48:49 261.52 1.02 1.11 498.3 232.2 281.6 -4.58 5.69 1.00 -27.3 -3.08 -32.4 -5.50 -0.00 0.11 45.0 27.1 75.3 82.5 3.954 56.73773 60.89966 0 1 1 0 1 0 0
778.0550917 18:48:50 261.46 1.00 1.13 495.8 229.2 281.6 -4.60 5.69 1.00 -29.9 -3.37 -32.4 -5.50 -0.00 0.11 45.0 27.1 75.3 82.5 3.954 56.73776 60.89895 0 1 1 0 1 0 0
778.5550915 18:48:50 261.42 0.98 1.13 493.6 226.9 281.7 -4.61 5.69 1.00 -29.9 -3.36 -32.4 -5.50 -0.00 0.11 45.0 27.1 75.3 82.5 3.957 56.73779 60.89832 0 1 1 0 1 0 0
779.0550912 18:48:51 261.37 0.96 1.14 491.3 224.7 281.7 -4.62 5.69 1.00 -29.0 -3.35 -32.4 -5.50 -0.00 0.11 45.0 27.1 75.3 82.5 3.957 56.73781 60.89768 0 1 1 0 1 0 0
779.5550909 18:48:51 261.33 0.93 1.16 488.9 222.3 281.8 -4.63 5.68 1.00 -23.7 -2.80 -32.4 -5.50 -0.00 0.11 45.0 27.1 75.2 82.4 3.936 56.73784 60.89701 0 1 1 0 1 0 0
780.0550906 18:48:52 261.28 0.91 1.20 486.2 219.4 281.8 -4.66 5.67 1.00 -24.8 -2.78 -32.4 -5.50 -0.00 0.11 45.0 27.1 75.1 82.3 3.902 56.73787 60.89625 0 1 1 0 1 0 0
780.5550903 18:48:52 261.23 0.88 1.21 483.8 217.0 281.8 -4.68 5.65 1.00 -32.0 -3.54 -32.4 -5.50 -0.03 0.11 45.0 27.1 75.0 82.3 3.882 56.73790 60.89558 0 1 1 0 1 0 0
781.0550900 18:48:53 261.18 0.85 1.20 481.4 214.6 281.8 -4.70 5.66 1.00 -32.4 -3.63 -32.4 -5.50 -0.10 -0.03 45.0 27.1 74.9 82.3 3.865 56.73793 60.89492 0 1 1 0 1 0 0
781.5550897 18:48:53 261.14 0.82 1.19 478.7 211.8 281.8 -4.71 5.67 1.00 -35.1 -3.82 -34.8 -5.50 -0.17 0.19 45.0 27.1 74.8 82.2 3.852 56.73796 60.89417 0 1 1 0 1 0 0
782.0550894 18:48:54 261.11 0.78 1.17 476.5 209.9 281.7 -4.71 5.69 1.01 -36.9 -4.13 -36.4 -5.50 -0.15 -0.04 45.0 27.1 74.8 82.2 3.843 56.73798 60.89355 0 1 1 0 1 0 0
782.5550891 18:48:54 261.04 0.73 1.13 474.0 207.5 281.7 -4.69 5.72 1.01 -38.8 -4.35 -38.8 -5.50 -0.16 0.19 45.0 27.1 74.8 82.2 3.838 56.73801 60.89288 0 1 1 0 1 0 0
783.0550888 18:48:55 261.00 0.68 1.08 471.2 204.6 281.6 -4.66 5.75 1.01 -38.8 -4.25 -38.8 -5.50 -0.13 -0.02 45.0 27.1 74.7 82.2 3.832 56.73804 60.89209 0 1 1 0 1 0 0
783.5550885 18:48:55 260.95 0.62 1.02 468.2 203.8 281.6 -4.61 5.77 1.01 -38.8 -4.26 -38.8 -5.50 -0.14 -0.02 45.0 27.1 74.7 82.2 3.829 56.73807 60.89125 0 1 1 0 1 0 0
784.0550882 18:48:56 260.91 0.57 0.98 465.8 201.5 281.5 -4.57 5.79 1.01 -38.8 -4.34 -38.8 -5.50 -0.13 -0.02 45.0 27.1 74.7 82.2 3.827 56.73810 60.89059 0 1 1 0 1 0 0
784.5550879 18:48:56 260.87 0.52 0.94 463.0 198.6 281.4 -4.51 5.80 1.01 -38.8 -4.34 -38.8 -5.50 -0.12 -0.02 45.0 27.1 74.7 82.2 3.827 56.73813 60.88977 0 1 1 0 1 0 0
785.0550876 18:48:57 260.84 0.47 0.90 460.8 196.4 281.3 -4.47 5.81 1.01 -38.8 -4.34 -38.8 -5.50 -0.12 -0.02 45.0 27.1 74.7 82.1 3.826 56.73815 60.88913 0 1 1 0 1 0 0
785.5550873 18:48:57 260.80 0.42 0.87 458.5 197.2 281.2 -4.43 5.82 1.01 -38.8 -4.34 -38.8 -5.50 -0.12 -0.02 45.0 27.1 74.7 82.1 3.826 56.73818 60.88848 0 1 1 0 1 0 0
786.0550870 18:48:58 260.77 0.37 0.83 456.0 194.6 281.1 -4.38 5.82 1.01 -38.8 -4.27 -38.8 -5.50 -0.18 -0.02 45.0 27.1 74.7 82.1 3.828 56.73820 60.88772 0 1 1 0 1 0 0
786.5550867 18:48:58 260.73 0.32 0.80 453.8 192.4 280.9 -4.34 5.83 1.01 -38.8 -4.28 -38.8 -5.50 -0.02 -0.02 45.0 27.1 74.7 82.1 3.828 56.73823 60.88708 0 1 1 0 1 0 0
787.0550864 18:48:59 260.70 0.28 0.76 451.3 189.9 280.8 -4.30 5.84 1.01 -38.8 -4.27 -38.8 -5.50 -0.00 -0.02 45.0 27.1 74.7 82.1 3.830 56.73825 60.88632 0 1 1 0 1 0 0
787.5550861 18:48:59 260.66 0.24 0.72 448.4 190.2 280.6 -4.25 5.84 1.01 -37.7 -4.20 -38.8 -5.50 0.46 -0.02 45.0 27.1 74.7 82.1 3.830 56.73828 60.88546 0 1 1 0 1 0 0
788.0550858 18:49:00 260.62 0.24 0.69 445.9 187.6 280.5 -4.21 5.85 1.01 -37.4 -4.13 -38.8 -5.50 -0.02 -0.02 45.0 27.1 74.7 82.1 3.832 56.73831 60.88468 0 1 1 0 1 0 0
788.5550855 18:49:00 260.59 0.23 0.69 443.9 185.6 280.3 -4.19 5.85 1.01 -22.0 -2.84 -38.8 -5.50 -0.07 -0.02 45.0 27.1 74.7 82.1 3.832 56.73833 60.88407 0 1 1 0 1 0 0
789.0550852 18:49:01 260.56 0.20 0.74 441.6 186.5 280.2 -4.18 5.82 1.01 -25.2 -2.69 -38.8 -5.50 -0.00 -0.02 45.0 27.1 74.7 82.1 3.835 56.73836 60.88336 0 1 1 0 1 0 0
789.5550849 18:49:01 260.53 0.18 0.79 439.2 184.1 280.1 -4.20 5.79 1.00 -27.8 -3.24 -38.8 -5.50 -0.00 -0.02 45.0 27.1 74.6 82.1 3.832 56.73838 60.88263 0 1 1 0 1 0 0
790.0550846 18:49:02 260.51 0.17 0.83 437.2 182.1 280.0 -4.23 5.77 1.00 -18.0 -2.14 -38.8 -5.50 -0.01 -0.02 45.0 27.1 74.4 82.0 3.785 56.73840 60.88202 0 1 1 0 1 0 0
790.5550843 18:49:02 260.47 0.15 0.97 434.7 179.6 279.8 -4.30 5.73 1.00 -8.7 -1.09 -38.8 -5.50 -0.00 -0.02 45.0 27.2 74.2 81.9 3.718 56.73843 60.88128 0 1 1 0 1 0 0
791.0550840 18:49:03 260.45 0.13 1.07 432.3 179.9 279.7 -4.41 5.67 0.99 -24.2 -2.73 -38.8 -5.50 -0.00 -0.02 45.0 27.2 73.9 81.8 3.669 56.73845 60.88055 0 1 1 0 1 0 0
791.5550837 18:49:03 260.41 0.11 1.10 430.2 177.9 279.5 -4.49 5.66 0.99 -33.5 -3.69 -38.8 -5.50 -0.01 -0.02 45.0 27.2 73.8 81.7 3.638 56.73847 60.87994 0 1 1 0 1 0 0
792.0550834 18:49:04 260.39 0.09 1.09 427.3 175.0 279.3 -4.59 5.70 0.99 -35.7 -4.01 -38.8 -5.50 -0.01 -0.02 45.0 27.2 73.7 81.6 3.608 56.73850 60.87912 0 1 1 0 1 0 0
792.5550831 18:49:04 260.35 0.07 1.07 424.9 172.5 279.1 -4.64 5.74 0.99 -38.8 -4.28 -38.8 -5.50 -0.03 -0.02 45.0 27.2 73.6 81.6 3.589 56.73852 60.87844 0 1 1 0 1 0 0
793.0550828 18:49:05 260.32 0.04 1.04 422.2 170.6 278.9 -4.67 5.80 1.00 -38.9 -4.30 -38.8 -5.50 -0.08 -0.02 45.0 27.2 73.5 81.6 3.576 56.73854 60.87771 0 1 1 0 1 0 0
793.5550825 18:49:05 260.29 0.01 1.02 419.8 168.2 278.7 -4.68 5.85 1.00 -38.8 -4.35 -38.8 -5.50 -0.15 -0.02 45.0 27.2 73.5 81.5 3.566 56.73856 60.87704 0 1 1 0 1 0 0
794.0550822 18:49:07 260.26 -0.03 1.00 416.7 165.1 278.5 -4.69 5.88 1.00 -41.7 -4.65 -38.8 -5.50 -0.57 -0.02 45.0 27.2 73.4 81.5 3.559 56.73859 60.87619 0 1 1 0 1 0 0
794.5550819 18:49:07 260.23 -0.10 0.97 414.7 163.1 278.3 -4.69 5.92 1.01 -41.5 -4.82 -38.8 -5.50 -1.89 -0.02 45.0 27.2 73.4 81.5 3.555 56.73861 60.87565 0 1 1 0 1 0 0
795.0550816 18:49:08 260.20 -0.36 0.94 411.9 158.0 278.1 -4.67 5.95 1.01 -41.7 -4.62 -38.8 -5.50 -3.17 -0.19 45.0 27.2 73.4 81.5 3.553 56.73863 60.87487 0 1 1 0 1 0 0
795.5550813 18:49:08 260.18 -0.77 0.91 409.3 155.5 277.9 -4.66 5.97 1.01 -41.1 -4.58 -38.8 -5.50 -2.37 -0.34 45.0 27.2 73.4 81.5 3.550 56.73865 60.87418 0 1 1 0 1 0 0
796.0550810 18:49:09 260.18 -1.10 0.90 407.3 153.4 277.8 -4.65 5.99 1.01 -39.1 -4.39 -38.8 -5.50 -0.38 -0.48 45.0 27.2 73.4 81.5 3.550 56.73867 60.87362 0 1 1 0 1 0 0
796.5550807 18:49:09 260.21 -1.42 0.89 404.4 150.6 277.5 -4.64 6.00 1.01 -39.0 -4.37 -38.8 -5.50 -0.51 -0.64 45.0 27.2 73.4 81.5 3.549 56.73870 60.87284 0 1 1 0 1 0 0
797.0550804 18:49:10 260.28 -1.63 0.89 401.7 146.0 277.3 -4.64 6.00 1.01 -39.0 -4.36 -38.8 -5.50 -0.27 -0.42 45.0 27.2 73.3 81.5 3.550 56.73872 60.87207 0 1 1 0 1 0 0
797.5550801 18:49:10 260.36 -1.77 0.90 398.8 143.1 277.1 -4.65 6.01 1.01 -38.9 -4.38 -38.8 -5.50 0.27 -0.27 45.0 27.2 73.3 81.5 3.551 56.73875 60.87130 0 1 1 0 1 0 0
798.0550798 18:49:11 260.47 -1.77 0.90 395.8 140.1 276.9 -4.66 6.01 1.01 -38.8 -4.35 -38.8 -5.50 1.34 -0.27 45.0 27.2 73.3 81.5 3.551 56.73878 60.87046 0 1 1 0 1 0 0
798.5550795 18:49:11 260.56 -1.67 0.91 393.7 141.0 276.8 -4.67 6.02 1.00 -41.4 -4.60 -38.8 -5.50 0.49 -0.27 45.0 27.2 73.3 81.5 3.553 56.73880 60.86990 0 1 1 0 1 0 0
799.0550792 18:49:12 260.64 -1.54 0.90 391.3 138.6 276.6 -4.68 6.03 1.00 -38.9 -4.38 -38.8 -5.50 1.52 -0.12 45.0 27.2 73.3 81.5 3.553 56.73882 60.86924 0 1 1 0 1 0 0
799.5550789 18:49:12 260.71 -1.38 0.91 388.8 136.1 276.4 -4.70 6.04 1.00 -38.8 -4.36 -38.8 -5.50 0.10 0.03 45.0 27.2 73.3 81.5 3.555 56.73884 60.86856 0 1 1 0 1 0 0
800.0550786 18:49:13 260.76 -1.25 0.91 386.3 133.6 276.3 -4.71 6.05 1.00 -38.8 -4.34 -38.8 -5.50 0.37 -0.19 45.0 27.2 73.3 81.5 3.555 56.73887 60.86789 0 1 1 0 1 0 0
800.5550783 18:49:14 260.82 -1.14 0.92 384.0 138.8 276.2 -4.73 6.05 1.00 -38.8 -4.36 -38.8 -5.50 0.25 0.04 45.0 27.2 73.3 81.5 3.557 56.73889 60.86727 0 1 1 0 1 0 0
801.0550780 18:49:15 260.88 -1.02 0.93 381.4 136.2 276.0 -4.74 6.06 1.00 -38.8 -4.36 -38.8 -5.50 0.08 0.04 45.0 27.2 73.3 81.5 3.557 56.73892 60.86658 0 1 1 0 1 0 0
801.5550777 18:49:15 260.91 -0.93 0.94 378.8 133.6 275.9 -4.77 6.07 1.00 -41.3 -4.46 -38.8 -5.50 -0.18 -0.19 45.0 27.2 73.3 81.5 3.560 56.73895 60.86588 0 1 1 0 1 0 0
802.0550774 18:49:16 260.96 -0.87 0.92 376.5 131.3 275.8 -4.78 6.08 1.00 -51.6 -5.76 -38.8 -5.50 -0.21 0.04 45.0 27.2 73.3 81.5 3.560 56.73897 60.86527 0 1 1 0 1 0 0
802.5550771 18:49:16 260.99 -0.84 0.86 373.9 136.2 275.7 -4.77 6.12 1.01 -51.7 -5.15 -38.8 -5.50 -0.15 0.04 45.0 27.2 73.3 81.5 3.562 56.73900 60.86457 0 1 1 0 1 0 0
803.0550768 18:49:17 261.03 -0.83 0.81 371.0 133.3 275.5 -4.75 6.16 1.01 -48.0 -5.23 -41.2 -5.50 -0.18 -0.19 45.0 27.2 73.3 81.5 3.562 56.73903 60.86381 0 1 1 0 1 0 0
803.5550765 18:49:17 261.07 -0.82 0.77 368.7 131.1 275.4 -4.72 6.19 1.01 -51.0 -5.64 -44.4 -5.50 -0.16 0.04 45.0 27.2 73.3 81.5 3.565 56.73905 60.86321 0 1 1 0 1 0 0
804.0550763 18:49:18 261.12 -0.82 0.70 366.0 128.3 275.2 -4.67 6.22 1.01 -52.7 -5.80 -48.4 -5.50 -0.06 0.04 45.0 27.2 73.3 81.5 3.565 56.73908 60.86246 0 1 1 0 1 0 0
804.5550760 18:49:18 261.16 -0.81 0.62 363.2 127.7 275.1 -4.62 6.25 1.01 -52.5 -5.78 -50.0 -5.50 0.05 -0.19 45.0 27.2 73.3 81.5 3.567 56.73912 60.86170 0 1 1 0 1 0 0
805.0550757 18:49:19 261.21 -0.72 0.57 360.9 125.4 274.9 -4.56 6.28 1.02 -52.0 -5.72 -51.6 -5.50 3.11 0.04 45.0 27.2 73.3 81.5 3.568 56.73914 60.86108 0 1 1 0 1 0 0
805.5550754 18:49:19 261.25 -0.48 0.52 358.7 123.2 274.8 -4.51 6.30 1.02 -53.4 -5.85 -53.2 -5.50 1.39 0.04 45.0 27.2 73.3 81.5 3.570 56.73917 60.86046 0 1 1 0 1 0 0
806.0550751 18:49:20 261.29 -0.23 0.46 356.4 120.9 274.6 -4.45 6.32 1.02 -53.6 -5.91 -53.2 -5.50 -0.09 0.19 45.0 27.2 73.3 81.5 3.571 56.73920 60.85983 0 1 1 0 1 0 0
806.5550748 18:49:20 261.32 -0.08 0.40 354.2 118.2 274.4 -4.38 6.34 1.02 -53.2 -5.84 -53.2 -5.50 -1.66 0.19 45.0 27.2 73.3 81.5 3.573 56.73922 60.85919 0 1 1 0 1 0 0
807.0550745 18:49:21 261.33 -0.08 0.35 352.0 116.0 274.2 -4.32 6.36 1.02 -53.1 -5.85 -53.2 -5.50 -1.34 0.19 45.0 27.2 73.3 81.5 3.573 56.73925 60.85856 0 1 1 0 1 0 0
807.5550742 18:49:21 261.33 -0.17 0.28 349.3 113.2 273.9 -4.25 6.37 1.02 -53.2 -5.86 -53.2 -5.50 -0.24 -0.04 45.0 27.2 73.3 81.5 3.576 56.73929 60.85776 0 1 1 0 1 0 0
808.0550739 18:49:22 261.34 -0.22 0.23 347.0 111.0 273.7 -4.19 6.38 1.02 -53.2 -5.96 -53.2 -5.50 -0.26 -0.04 45.0 27.2 73.3 81.5 3.576 56.73931 60.85709 0 1 1 0 1 0 0
808.5550736 18:49:22 261.35 -0.26 0.17 344.7 108.7 273.4 -4.14 6.39 1.02 -53.5 -5.99 -53.2 -5.50 -0.23 -0.04 45.0 27.2 73.3 81.5 3.578 56.73934 60.85640 0 1 1 0 1 0 0
809.0550733 18:49:23 261.37 -0.30 0.12 342.4 106.4 273.2 -4.08 6.41 1.02 -53.5 -5.99 -53.2 -5.50 -0.21 -0.04 45.0 27.2 73.3 81.5 3.579 56.73937 60.85571 0 1 1 0 1 0 0
809.5550730 18:49:23 261.39 -0.32 0.09 340.5 104.5 273.0 -4.04 6.42 1.02 -53.2 -5.88 -53.2 -5.50 0.75 -0.04 45.0 27.2 73.3 81.5 3.581 56.73940 60.85512 0 1 1 0 1 0 0
810.0550727 18:49:24 261.43 -0.27 0.04 338.1 102.1 272.7 -3.99 6.43 1.02 -53.1 -5.87 -53.2 -5.50 -0.02 -0.04 45.0 27.2 73.3 81.5 3.582 56.73943 60.85437 0 1 1 0 1 0 0
810.5550724 18:49:24 261.45 -0.22 0.02 335.7 99.7 272.4 -3.95 6.44 1.02 -45.2 -4.95 -56.4 -5.50 0.07 -0.04 45.0 27.2 73.3 81.5 3.584 56.73947 60.85362 0 1 1 0 1 0 0
811.0550721 18:49:25 261.50 -0.17 0.02 333.5 97.5 272.1 -3.92 6.43 1.01 -46.1 -5.20 -62.0 -5.50 0.85 -0.04 45.0 27.2 73.3 81.5 3.585 56.73950 60.85292 0 1 1 0 1 0 0
811.5550718 18:49:25 261.54 -0.08 0.02 331.6 95.6 271.9 -3.92 6.42 1.01 -46.6 -5.14 -62.0 -5.50 1.95 -0.04 45.0 27.2 73.3 81.5 3.587 56.73953 60.85232 0 1 1 0 1 0 0
812.0550715 18:49:26 261.56 0.11 0.03 329.7 93.7 271.7 -3.92 6.42 1.01 -48.1 -4.89 -62.0 -5.50 2.02 0.19 45.0 27.2 73.3 81.5 3.587 56.73955 60.85170 0 1 1 0 1 0 0
812.5550712 18:49:26 261.58 0.35 0.02 327.7 91.7 271.5 -3.93 6.42 1.01 -47.6 -5.45 -62.0 -5.50 1.25 0.19 45.0 27.2 73.3 81.5 3.590 56.73958 60.85107 0 1 1 0 1 0 0
813.0550709 18:49:27 261.58 0.58 0.01 325.7 89.7 271.3 -3.94 6.43 1.01 -47.3 -5.24 -62.0 -5.50 0.29 0.34 45.0 27.2 73.3 81.5 3.590 56.73961 60.85043 0 1 1 0 1 0 0
813.5550706 18:49:27 261.57 0.73 0.03 323.7 87.7 271.1 -3.95 6.44 1.00 -48.5 -5.28 -62.0 -5.50 -0.00 0.34 45.0 27.2 73.3 81.5 3.592 56.73964 60.84980 0 1 1 0 1 0 0
814.0550703 18:49:29 261.53 0.81 -0.00 321.5 85.5 270.8 -3.96 6.45 1.00 -59.8 -6.72 -62.0 -5.50 -0.03 0.12 45.0 27.2 73.3 81.5 3.593 56.73967 60.84913 0 1 1 0 1 0 0
814.5550700 18:49:29 261.49 0.85 -0.07 319.4 83.4 270.6 -3.95 6.50 1.01 -54.7 -6.29 -62.0 -5.50 -0.10 0.12 45.0 27.2 73.3 81.5 3.595 56.73970 60.84847 0 1 1 0 1 0 0
815.0550697 18:49:30 261.46 0.86 -0.11 317.4 81.4 270.4 -3.93 6.54 1.01 -50.9 -5.71 -62.0 -5.50 -0.31 0.12 45.0 27.2 73.3 81.5 3.595 56.73973 60.84782 0 1 1 0 1 0 0
815.5550694 18:49:30 261.43 0.83 -0.11 315.5 79.6 270.3 -3.92 6.56 1.01 -45.8 -5.13 -62.0 -5.50 -0.24 0.12 45.0 27.2 73.3 81.5 3.597 56.73975 60.84725 0 1 1 0 1 0 0
816.0550691 18:49:31 261.38 0.79 -0.09 313.4 77.4 270.0 -3.91 6.56 1.01 -45.9 -5.14 -62.0 -5.50 -0.24 0.12 45.0 26.9 73.3 81.5 3.598 56.73978 60.84658 0 1 1 0 1 0 0
816.5550688 18:49:31 261.35 0.73 -0.05 311.0 75.0 269.8 -3.93 6.54 1.01 -45.8 -5.13 -62.0 -5.50 -0.27 0.12 45.0 26.9 73.3 81.5 3.600 56.73981 60.84580 0 1 1 0 1 0 0
817.0550685 18:49:32 261.31 0.66 -0.04 309.1 73.2 269.7 -3.95 6.53 1.00 -60.3 -6.72 -62.0 -5.50 -5.03 0.12 45.0 26.9 73.3 81.5 3.600 56.73984 60.84524 0 1 1 0 1 0 0
817.5550682 18:49:32 261.28 0.28 -0.09 307.0 71.0 269.5 -3.97 6.55 1.00 -55.5 -6.24 -62.0 -5.50 -0.66 -0.03 45.0 26.9 73.3 81.5 3.602 56.73987 60.84456 0 1 1 0 1 0 0
818.0550679 18:49:33 261.24 -0.06 -0.09 304.8 68.8 269.3 -3.98 6.59 1.01 -45.1 -5.08 -62.0 -5.50 0.31 -0.18 45.0 26.9 73.3 81.5 3.603 56.73989 60.84388 0 1 1 0 1 0 0
818.5550676 18:49:33 261.24 -0.26 -0.03 302.3 66.3 269.2 -4.00 6.59 1.00 -45.0 -5.09 -62.0 -5.50 1.39 -0.34 45.0 26.9 73.3 81.5 3.605 56.73993 60.84311 0 1 1 0 1 0 1
819.0550673 18:49:34 261.25 -0.26 0.01 300.4 64.4 269.0 -4.03 6.57 1.00 -54.5 -5.76 -62.0 -5.50 1.52 -0.12 45.0 26.9 73.3 81.5 3.605 56.73995 60.84253 0 1 1 0 1 0 1
819.5550670 18:49:34 261.29 -0.16 -0.03 298.0 62.0 268.9 -4.06 6.57 1.00 -58.1 -6.41 -62.0 -5.50 0.01 0.04 45.0 26.9 73.3 81.5 3.607 56.73998 60.84180 0 1 1 0 1 0 1
820.0550667 18:49:35 261.30 -0.10 -0.03 295.9 59.9 268.7 -4.08 6.61 1.00 -29.4 -3.41 -62.0 -5.50 -0.01 0.04 45.0 26.9 73.3 81.5 3.607 56.74001 60.84116 0 1 1 0 1 0 1
820.5550664 18:49:35 261.32 -0.06 0.08 293.5 57.5 268.7 -4.12 6.59 1.00 -46.7 -5.41 -62.0 -5.50 -0.04 0.04 45.0 26.9 73.3 81.5 3.609 56.74004 60.84044 0 1 1 0 1 0 0
821.0550661 18:49:36 261.35 -0.01 0.13 291.4 55.4 268.6 -4.17 6.57 1.00 -39.9 -4.42 -62.0 -5.50 3.40 0.04 45.0 26.9 73.3 81.5 3.609 56.74007 60.83982 0 1 1 0 1 0 0
821.5550658 18:49:36 261.33 0.15 0.17 289.3 53.3 268.6 -4.23 6.55 1.00 -50.9 -5.71 -62.0 -5.50 2.15 0.04 45.0 26.9 73.3 81.5 3.612 56.74009 60.83920 0 1 1 0 1 0 0
822.0550655 18:49:37 261.34 0.46 0.17 287.1 51.1 268.5 -4.28 6.56 1.00 -52.6 -5.74 -62.0 -5.50 3.84 0.04 45.0 26.9 73.3 81.5 3.612 56.74012 60.83855 0 1 1 0 1 0 0
822.2772876 18:49:37 261.34 0.69 0.17 285.9 49.9 268.4 -4.30 6.57 1.00 -52.1 -5.84 -62.0 -5.50 3.65 0.19 45.0 26.9 73.3 81.5 3.612 56.74013 60.83822 0 1 1 0 1 0 0
822.4439542 18:49:37 261.33 0.86 0.17 285.1 49.1 268.5 -4.31 6.58 1.00 -52.5 -5.77 -62.0 -5.50 3.73 0.34 45.0 26.9 73.3 81.5 3.614 56.74014 60.83799 0 1 1 0 1 0 0
822.6106207 18:49:37 261.34 0.95 0.17 284.7 48.7 268.4 -4.32 6.59 1.00 -51.6 -5.84 -62.0 -5.50 3.58 0.34 45.0 26.9 73.3 81.5 3.614 56.74015 60.83788 0 1 1 0 1 0 0
822.7772873 18:49:38 261.33 1.14 0.17 283.9 47.9 268.4 -4.33 6.60 1.00 -52.1 -5.82 -62.0 -5.50 2.85 0.49 45.0 26.9 73.3 81.5 3.614 56.74016 60.83765 0 1 1 0 1 0 0
822.9439539 18:49:38 261.32 1.41 0.17 282.7 46.7 268.4 -4.35 6.61 1.00 -59.0 -6.54 -62.0 -5.50 0.17 0.64 45.0 26.9 73.3 81.5 3.614 56.74017 60.83731 0 1 1 0 1 0 0
823.1106204 18:49:38 261.30 1.49 0.17 282.3 46.3 268.4 -4.35 6.61 1.00 -59.2 -6.62 -62.0 -5.50 0.02 0.64 45.0 26.9 73.3 81.5 3.614 56.74018 60.83720 0 1 1 0 1 0 0
823.2772870 18:49:38 261.28 1.68 0.14 281.2 45.2 268.4 -4.36 6.63 1.00 -59.2 -6.58 -62.0 -5.50 -0.04 0.80 45.0 26.9 73.3 81.5 3.616 56.74019 60.83687 0 1 1 0 1 0 0
823.4439536 18:49:38 261.25 1.73 0.14 280.8 44.8 268.4 -4.36 6.64 1.00 -59.2 -6.66 -62.0 -5.50 -0.03 0.80 45.0 26.9 73.3 81.5 3.616 56.74020 60.83677 0 1 1 0 1 0 0
823.6106202 18:49:38 261.24 1.83 0.12 280.0 44.0 268.4 -4.36 6.65 1.00 -57.4 -6.49 -62.0 -5.50 -0.12 0.80 45.0 26.9 73.3 81.5 3.616 56.74020 60.83654 0 1 1 0 1 0 0
823.7772867 18:49:39 261.21 1.91 0.11 279.1 43.2 268.3 -4.36 6.66 1.00 -60.5 -6.58 -62.0 -5.50 -0.66 0.80 45.0 26.9 73.3 81.5 3.616 56.74021 60.83631 0 1 1 0 1 0 0
823.9439533 18:49:39 261.16 1.96 0.10 278.4 42.4 268.3 -4.36 6.67 1.00 -62.0 -6.93 -62.0 -5.50 -2.13 0.58 45.0 26.9 73.3 81.5 3.616 56.74022 60.83609 0 1 1 0 1 0 0
824.1106199 18:49:39 261.13 1.97 0.09 278.0 42.0 268.3 -4.36 6.69 1.01 -61.9 -6.94 -62.0 -5.50 -2.15 0.58 45.0 26.9 73.3 81.5 3.616 56.74023 60.83599 0 1 1 0 1 0 0
824.2772864 18:49:39 261.08 1.98 0.07 276.8 40.9 268.2 -4.35 6.70 1.01 -61.8 -6.82 -62.0 -5.50 -2.09 0.42 45.0 26.9 73.3 81.5 3.616 56.74024 60.83566 0 1 1 0 1 0 0
824.4439530 18:49:40 261.04 1.97 0.06 276.5 40.5 268.3 -4.35 6.71 1.01 -61.8 -6.93 -62.0 -5.50 -2.09 0.42 45.0 26.9 73.3 81.5 3.618 56.74024 60.83556 0 1 1 0 1 0 0
824.6106196 18:49:40 261.01 1.93 0.04 275.7 39.7 268.3 -4.34 6.72 1.01 -61.8 -6.92 -62.0 -5.50 -2.19 0.27 45.0 26.9 73.3 81.5 3.618 56.74025 60.83533 0 1 1 0 1 0 0
824.7772861 18:49:41 260.94 1.89 0.03 274.9 38.9 268.2 -4.33 6.73 1.01 -61.8 -6.91 -62.0 -5.50 -1.27 0.27 45.0 26.9 73.3 81.5 3.619 56.74026 60.83510 0 1 1 0 1 0 0
824.9439527 18:49:41 260.91 1.84 0.01 274.1 38.1 268.2 -4.32 6.74 1.01 -62.0 -6.94 -62.0 -5.50 -0.68 0.13 45.0 26.9 73.3 81.5 3.619 56.74027 60.83489 0 1 1 0 1 0 0
825.1106193 18:49:41 260.87 1.78 -0.01 273.3 37.3 268.2 -4.31 6.75 1.01 -62.0 -6.83 -62.0 -5.50 -1.84 -0.03 45.0 26.9 73.3 81.5 3.619 56.74028 60.83467 0 1 1 0 1 0 0
825.2772858 18:49:41 260.80 1.71 -0.02 272.5 36.6 268.1 -4.29 6.76 1.01 -62.4 -6.87 -62.0 -5.50 -2.62 -0.03 45.0 26.9 73.3 81.5 3.619 56.74029 60.83444 0 1 1 0 1 0 0
825.4439524 18:49:41 260.79 1.62 -0.04 271.7 35.7 268.2 -4.28 6.77 1.01 -62.3 -6.98 -62.0 -5.50 -3.01 -0.03 45.0 26.9 73.3 81.5 3.620 56.74029 60.83421 0 1 1 0 1 0 0
825.6106190 18:49:41 260.75 1.56 -0.04 271.3 35.3 268.1 -4.27 6.78 1.01 -62.3 -6.98 -62.0 -5.50 -2.97 -0.03 45.0 26.9 73.3 81.5 3.620 56.74030 60.83410 0 1 1 0 1 0 0
825.7772855 18:49:42 260.71 1.38 -0.07 270.1 34.1 268.1 -4.25 6.78 1.01 -62.3 -6.87 -62.0 -5.50 -3.78 -0.03 45.0 26.9 73.3 81.5 3.621 56.74031 60.83375 0 1 1 0 1 0 0
825.9439521 18:49:42 260.68 1.30 -0.08 269.8 33.8 268.1 -4.24 6.79 1.01 -62.4 -7.00 -62.0 -5.50 -4.59 -0.03 45.0 26.9 73.3 81.5 3.621 56.74031 60.83364 0 1 1 0 1 0 0
826.1106187 18:49:42 260.66 1.13 -0.09 269.0 33.0 268.0 -4.22 6.80 1.01 -62.4 -6.99 -62.0 -5.50 -2.33 -0.03 45.0 26.9 73.3 81.5 3.621 56.74032 60.83341 0 1 1 0 1 0 0
826.2772852 18:49:42 260.63 0.96 -0.11 268.2 32.2 268.0 -4.21 6.80 1.02 -62.3 -6.98 -62.0 -5.50 -0.15 -0.03 45.0 26.9 73.3 81.5 3.621 56.74033 60.83319 0 1 1 0 1 0 0
826.4439518 18:49:42 260.60 0.80 -0.13 267.4 31.4 268.0 -4.19 6.81 1.02 -62.1 -6.88 -62.0 -5.50 -0.06 -0.03 45.0 26.9 73.3 81.5 3.623 56.74034 60.83295 0 1 1 0 1 0 0
826.6106184 18:49:42 260.58 0.68 -0.14 266.6 30.6 268.0 -4.17 6.81 1.02 -62.1 -6.95 -62.0 -5.50 -0.04 -0.19 45.0 26.9 73.3 81.5 3.623 56.74035 60.83272 0 1 1 0 1 0 0
826.7772849 18:49:43 260.55 0.56 -0.17 265.8 29.8 267.9 -4.15 6.82 1.02 -62.5 -6.99 -62.0 -5.50 -0.09 -0.19 45.0 26.9 73.3 81.5 3.623 56.74035 60.83248 0 1 1 0 1 0 0
826.9439515 18:49:43 260.53 0.51 -0.17 265.4 29.4 267.9 -4.14 6.82 1.02 -63.1 -7.03 -62.0 -5.50 -0.20 -0.19 45.0 26.9 73.3 81.5 3.623 56.74036 60.83236 0 1 1 0 1 0 0
827.1106181 18:49:43 260.52 0.38 -0.19 264.2 28.2 267.8 -4.11 6.82 1.02 -62.9 -7.05 -62.0 -5.50 -0.49 -0.19 45.0 26.9 73.3 81.5 3.623 56.74037 60.83203 0 1 1 0 1 0 0
827.2772846 18:49:43 260.50 0.34 -0.21 263.9 27.9 267.8 -4.11 6.83 1.02 -63.5 -7.10 -62.0 -5.50 -0.80 -0.19 45.0 26.9 73.3 81.5 3.623 56.74037 60.83192 0 1 1 0 1 0 0
827.4439512 18:49:43 260.49 0.26 -0.22 263.1 27.2 267.8 -4.09 6.83 1.02 -64.2 -7.19 -62.0 -5.50 -1.75 -0.34 45.0 26.9 73.3 81.5 3.623 56.74038 60.83170 0 1 1 0 1 0 0
827.6106178 18:49:43 260.49 0.17 -0.25 262.3 26.3 267.8 -4.07 6.83 1.02 -64.8 -7.21 -62.0 -5.50 -3.64 -0.34 45.0 26.9 73.3 81.5 3.625 56.74039 60.83146 0 1 1 0 1 0 0
827.7772843 18:49:44 260.47 0.06 -0.26 261.6 25.6 267.7 -4.05 6.84 1.02 -64.0 -7.06 -62.0 -5.50 -3.66 -0.34 45.0 26.9 73.3 81.5 3.625 56.74040 60.83124 0 1 1 0 1 0 0
827.9439509 18:49:44 260.47 -0.05 -0.28 261.0 25.0 267.7 -4.03 6.84 1.02 -64.3 -7.02 -62.0 -5.50 -2.26 -0.34 45.0 26.9 73.3 81.5 3.625 56.74040 60.83104 0 1 1 0 1 0 0
828.1106175 18:49:44 260.47 -0.22 -0.31 260.0 24.0 267.6 -4.00 6.85 1.02 -63.4 -7.07 -62.0 -5.50 -0.60 -0.34 45.0 26.9 73.3 81.5 3.625 56.74041 60.83075 0 1 1 0 1 0 0
828.2772840 18:49:44 260.47 -0.27 -0.31 259.7 23.7 267.6 -4.00 6.85 1.02 -62.7 -7.02 -62.0 -5.50 -0.15 -0.34 45.0 26.9 73.3 81.5 3.625 56.74042 60.83065 0 1 1 0 1 0 0
828.4439506 18:49:44 260.47 -0.42 -0.33 258.6 22.6 267.6 -3.97 6.86 1.02 -63.2 -6.92 -62.0 -5.50 -0.02 -0.34 45.0 26.9 73.3 81.5 3.627 56.74043 60.83033 0 1 1 0 1 0 0
828.6106172 18:49:44 260.48 -0.50 -0.35 257.9 21.9 267.5 -3.95 6.86 1.02 -64.3 -7.16 -62.0 -5.50 0.42 -0.34 45.0 26.9 73.3 81.5 3.627 56.74044 60.83010 0 1 1 0 1 0 0
828.7772837 18:49:45 260.48 -0.54 -0.35 257.5 21.5 267.5 -3.94 6.86 1.02 -64.2 -7.21 -62.0 -5.50 0.48 -0.34 45.0 26.9 73.3 81.5 3.628 56.74044 60.82998 0 1 1 0 1 0 0
828.9439503 18:49:45 260.49 -0.59 -0.38 256.8 20.8 267.4 -3.92 6.86 1.02 -64.4 -7.20 -62.0 -5.50 0.77 -0.34 45.0 26.9 73.3 81.5 3.628 56.74045 60.82975 0 1 1 0 1 0 0
829.1106169 18:49:45 260.50 -0.62 -0.39 256.0 20.0 267.3 -3.90 6.87 1.02 -64.0 -7.18 -62.0 -5.50 1.33 -0.12 45.0 26.9 73.3 81.5 3.628 56.74046 60.82951 0 1 1 0 1 0 0
829.2772834 18:49:45 260.52 -0.63 -0.41 255.2 19.3 267.3 -3.87 6.87 1.02 -64.8 -7.13 -62.0 -5.50 1.59 -0.12 45.0 26.9 73.3 81.5 3.628 56.74046 60.82928 0 1 1 0 1 0 0
829.4439500 18:49:45 260.52 -0.63 -0.44 254.6 18.6 267.2 -3.86 6.87 1.02 -65.7 -7.32 -62.0 -5.50 1.74 -0.12 45.0 26.9 73.3 81.5 3.628 56.74047 60.82907 0 1 1 0 1 0 0
829.6106166 18:49:45 260.54 -0.60 -0.45 253.9 18.0 267.2 -3.84 6.88 1.02 -67.0 -7.25 -62.0 -5.50 2.00 -0.12 45.0 26.9 73.3 81.5 3.630 56.74048 60.82886 0 1 1 0 1 0 0
829.7772831 18:49:46 260.54 -0.57 -0.47 253.3 17.3 267.2 -3.81 6.88 1.02 -68.4 -7.61 -62.0 -5.50 1.13 -0.12 45.0 26.9 73.3 81.5 3.630 56.74049 60.82865 0 1 1 0 1 0 0
829.9439497 18:49:46 260.56 -0.53 -0.50 252.6 16.7 267.1 -3.79 6.88 1.02 -72.0 -8.04 -62.0 -5.50 0.13 -0.12 45.0 26.9 73.3 81.5 3.630 56.74049 60.82844 0 1 1 0 1 0 0
830.1106163 18:49:46 260.57 -0.49 -0.52 252.0 16.0 267.0 -3.77 6.89 1.02 -76.7 -8.36 -62.0 -5.50 -0.09 -0.12 45.0 26.9 73.3 81.5 3.631 56.74050 60.82824 0 1 1 0 1 0 0
830.2772828 18:49:46 260.58 -0.46 -0.58 251.4 15.4 267.0 -3.74 6.90 1.02 -72.0 -8.21 -62.0 -5.50 -0.20 -0.12 45.0 26.9 73.3 81.5 3.631 56.74051 60.82803 0 1 1 0 1 0 0
830.4439494 18:49:46 260.58 -0.43 -0.62 250.7 14.7 266.9 -3.71 6.91 1.02 -68.3 -7.43 -62.0 -5.50 -0.38 0.04 45.0 26.9 73.3 81.5 3.631 56.74051 60.82781 0 1 1 0 1 0 0
830.6106160 18:49:46 260.59 -0.41 -0.64 250.1 14.1 266.9 -3.67 6.92 1.02 -68.9 -7.69 -62.0 -5.50 -0.68 0.04 45.0 26.9 73.3 81.5 3.633 56.74052 60.82761 0 1 1 0 1 0 0
830.7772825 18:49:47 260.59 -0.40 -0.68 249.4 13.5 266.8 -3.63 6.93 1.02 -70.3 -7.73 -62.0 -5.50 -0.67 0.04 45.0 26.9 73.3 81.5 3.633 56.74053 60.82739 0 1 1 0 1 0 0
830.9439491 18:49:47 260.61 -0.39 -0.70 248.8 12.8 266.7 -3.59 6.94 1.03 -66.5 -7.47 -62.0 -5.50 -0.08 0.04 45.0 26.9 73.3 81.5 3.633 56.74054 60.82718 0 1 1 0 1 0 0
831.1106157 18:49:47 260.61 -0.38 -0.72 248.2 12.2 266.6 -3.55 6.95 1.03 -70.6 -7.47 -62.0 -5.50 0.00 0.04 45.0 26.9 73.3 81.5 3.633 56.74054 60.82697 0 1 1 0 1 0 0
831.2772822 18:49:47 260.61 -0.37 -0.75 247.5 11.6 266.6 -3.51 6.95 1.03 -75.1 -8.36 -62.0 -5.50 0.02 0.00 45.0 26.9 73.3 81.5 3.633 56.74055 60.82675 0 1 1 0 1 0 0
831.4439488 18:49:47 260.61 -0.37 -0.78 246.9 11.0 266.5 -3.45 6.94 1.03 -80.1 -8.28 -62.0 -5.50 0.16 0.00 45.0 26.9 73.3 81.5 3.633 56.74056 60.82653 0 1 1 0 1 0 0
831.6106154 18:49:47 260.62 -0.36 -0.84 246.4 10.4 266.4 -3.40 6.94 1.03 -89.2 -9.86 -62.0 -5.50 0.25 0.00 45.0 26.9 73.3 81.5 3.635 56.74057 60.82634 0 1 1 0 1 0 0
831.7772819 18:49:48 260.62 -0.35 -0.91 245.8 9.8 266.3 -3.33 6.95 1.03 -112.1 -12.25 -62.0 -5.50 0.23 0.00 45.0 26.9 73.2 81.5 3.634 56.74057 60.82613 0 1 1 0 1 0 0
831.9439485 18:49:48 260.63 -0.33 -1.04 245.2 9.2 266.2 -3.24 6.96 1.04 -111.7 -11.79 -62.0 -5.50 0.25 0.00 45.0 26.9 73.2 81.4 3.612 56.74058 60.82591 0 1 1 0 1 0 0
832.1106151 18:49:48 260.62 -0.32 -1.19 244.6 8.7 266.1 -3.16 6.99 1.04 -101.1 -11.51 -62.0 -5.50 0.23 0.00 45.0 26.9 73.0 81.3 3.561 56.74059 60.82570 0 1 1 0 1 0 0
832.2772817 18:49:48 260.63 -0.31 -1.26 244.3 8.4 266.0 -3.10 7.02 1.05 -92.8 -10.57 -62.0 -5.50 0.20 0.00 45.0 26.9 72.8 81.2 3.515 56.74059 60.82558 0 1 1 0 1 0 0
832.4439482 18:49:48 260.63 -0.29 -1.39 243.7 7.8 265.8 -2.98 7.06 1.06 -85.1 -9.57 -62.0 -5.50 0.10 0.00 45.0 26.9 72.2 80.9 3.384 56.74060 60.82534 0 1 1 0 1 0 0
832.6106148 18:49:48 260.64 -0.28 -1.49 243.1 7.2 265.6 -2.85 7.10 1.06 -91.7 -10.18 -62.0 -5.50 0.09 0.00 45.0 26.9 71.5 80.5 3.194 56.74061 60.82511 0 1 1 0 1 0 0
832.7772814 18:49:49 260.64 -0.26 -1.53 242.8 6.9 265.5 -2.78 7.12 1.07 -90.5 -10.36 -62.0 -5.50 0.17 0.00 45.0 26.9 70.9 80.2 3.065 56.74061 60.82499 0 1 1 0 1 0 0
832.9439479 18:49:49 260.64 -0.25 -1.62 242.3 6.4 265.1 -2.63 7.13 1.07 -91.0 -9.61 -62.0 -5.50 0.31 0.00 45.0 26.9 69.6 79.5 2.781 56.74062 60.82475 0 1 1 0 1 0 0
833.1106145 18:49:49 260.64 -0.23 -1.70 241.8 5.9 264.7 -2.48 7.13 1.08 -95.8 -10.58 -62.0 -5.50 1.10 0.00 45.0 26.9 68.0 78.7 2.527 56.74063 60.82451 0 1 1 0 1 0 0
833.2772811 18:49:49 260.65 -0.21 -1.75 241.5 5.7 264.4 -2.40 7.13 1.08 -99.1 -11.13 -62.0 -5.50 0.97 0.00 45.0 26.9 67.3 78.2 2.423 56.74064 60.82438 0 1 1 0 1 0 0
833.4439476 18:49:49 260.65 -0.17 -1.87 241.0 5.2 263.8 -2.24 7.12 1.08 -88.5 -10.60 -62.0 -5.50 0.67 0.00 45.0 26.9 66.7 77.2 2.328 56.74065 60.82412 0 1 1 0 1 0 0
833.6106142 18:49:49 260.66 -0.14 -1.95 240.5 4.7 263.3 -2.10 7.12 1.08 -85.7 -9.61 -62.0 -5.50 0.03 0.00 45.0 26.9 66.2 76.2 2.253 56.74065 60.82388 0 1 1 0 1 0 0
833.7772808 18:49:50 260.65 -0.12 -1.99 240.4 4.5 263.0 -2.04 7.11 1.08 -87.9 -9.79 -62.0 -5.50 0.02 0.00 45.0 26.9 66.0 75.8 2.223 56.74066 60.82377 0 1 1 0 1 0 0
833.9439473 18:49:50 260.66 -0.08 -2.07 239.8 4.0 262.1 -1.85 7.09 1.08 -88.0 -9.57 -62.0 -5.50 0.02 0.00 45.0 26.9 65.4 74.8 2.140 56.74067 60.82345 0 1 1 0 1 0 0
834.1106139 18:49:50 260.66 -0.07 -2.09 239.7 3.9 261.9 -1.79 7.07 1.08 -83.5 -9.71 -62.0 -5.50 0.04 0.00 45.0 26.9 65.2 74.5 2.116 56.74067 60.82335 0 1 1 0 1 0 0
834.2772805 18:49:50 260.67 -0.04 -2.14 239.4 3.5 261.3 -1.68 7.05 1.08 -80.8 -9.07 -62.0 -5.50 0.04 0.00 45.0 26.9 64.9 73.9 2.068 56.74068 60.82314 0 1 1 0 1 0 0
834.4439470 18:49:50 260.67 -0.02 -2.17 239.1 3.3 260.7 -1.57 7.01 1.08 -84.3 -8.96 -62.0 -5.50 0.04 0.00 45.0 26.9 64.3 73.5 2.005 56.74069 60.82292 0 1 1 0 1 0 0
834.6106136 18:49:50 260.68 -0.00 -2.20 238.8 3.0 260.1 -1.46 6.98 1.08 -79.2 -9.06 -62.0 -5.50 0.23 0.00 45.0 26.9 63.6 73.1 1.943 56.74070 60.82270 0 1 1 0 1 0 0
834.7772802 18:49:51 260.68 0.01 -2.22 238.6 2.8 259.7 -1.41 6.94 1.07 -68.2 -8.19 -62.0 -5.50 0.41 0.00 45.0 26.9 63.3 72.8 1.911 56.74070 60.82259 0 1 1 0 1 0 0
834.9439467 18:49:51 260.69 0.04 -2.22 238.2 2.5 258.7 -1.29 6.90 1.07 -68.8 -7.62 -62.0 -5.50 0.48 0.00 45.0 26.9 62.2 72.1 1.803 56.74071 60.82225 0 1 1 0 1 0 0
835.1106133 18:49:51 260.69 0.06 -2.21 238.0 2.2 258.1 -1.23 6.85 1.06 -76.0 -8.34 -62.0 -5.50 0.43 0.00 45.0 26.9 61.5 71.6 1.732 56.74072 60.82205 0 1 1 0 1 0 0
835.2772799 18:49:51 260.70 0.10 -2.22 237.7 1.9 257.1 -1.14 6.80 1.06 -86.8 -9.20 -62.0 -5.50 0.42 0.00 45.0 26.9 60.4 70.8 1.614 56.74073 60.82175 0 1 1 0 1 0 0
835.4439464 18:49:51 260.69 0.12 -2.24 237.5 1.7 256.4 -1.10 6.75 1.05 -102.3 -10.30 -62.0 -5.50 0.38 0.00 45.0 26.9 59.5 70.2 1.545 56.74074 60.82155 0 1 1 0 1 0 0
835.6106130 18:49:51 260.70 0.13 -2.27 237.4 1.7 256.1 -1.08 6.72 1.05 -111.7 -12.30 -62.0 -5.50 0.25 0.00 45.0 26.9 59.1 69.9 1.516 56.74074 60.82145 0 1 1 0 1 0 0
835.7772796 18:49:52 260.70 0.16 -2.41 237.1 1.4 255.0 -1.01 6.71 1.04 -109.1 -12.04 -62.0 -5.50 0.20 0.00 45.0 26.9 57.8 69.0 1.422 56.74076 60.82114 0 1 1 0 1 0 0
835.9439461 18:49:52 260.71 0.18 -2.51 237.0 1.2 254.3 -0.97 6.72 1.04 -108.8 -12.26 -62.0 -5.50 0.08 0.00 45.0 26.9 57.0 68.5 1.365 56.74076 60.82096 0 1 1 0 1 0 0
836.1106127 18:49:52 260.71 0.19 -2.62 236.8 1.1 253.5 -0.91 6.75 1.04 -104.6 -11.73 -62.0 -5.50 0.07 0.00 45.0 26.9 56.1 67.8 1.300 56.74077 60.82075 0 1 1 0 1 0 0
836.2772793 18:49:52 260.72 0.21 -2.70 236.6 0.9 252.7 -0.86 6.78 1.04 -104.0 -11.45 -62.0 -5.50 0.08 0.00 45.0 26.9 55.2 67.2 1.235 56.74078 60.82055 0 1 1 0 1 0 0
836.4439458 18:49:52 260.72 0.22 -2.78 236.5 0.8 251.9 -0.79 6.81 1.04 -102.9 -11.62 -62.0 -5.50 0.05 0.00 45.0 26.9 54.3 66.6 1.183 56.74078 60.82035 0 1 1 0 1 0 0
836.6106124 18:49:52 260.72 0.22 -2.83 236.4 0.7 251.5 -0.76 6.84 1.05 -103.4 -11.50 -62.0 -5.50 0.05 0.00 45.0 26.9 53.7 66.3 1.155 56.74079 60.82024 0 1 1 0 1 0 0
836.7772790 18:49:53 260.72 0.23 -2.90 236.3 0.5 250.6 -0.69 6.88 1.05 -99.5 -11.20 -62.0 -5.50 0.05 0.00 45.0 26.9 52.8 65.6 1.104 56.74080 60.82002 0 1 1 0 1 0 0
836.9439455 18:49:53 260.73 0.24 -2.98 236.1 0.4 249.7 -0.63 6.90 1.05 -87.6 -10.02 -62.0 -5.50 -0.01 0.00 45.0 26.9 51.8 65.0 1.050 56.74081 60.81979 0 1 1 0 1 0 0
837.1106121 18:49:53 260.72 0.24 -2.99 236.1 0.4 249.2 -0.60 6.93 1.05 -67.3 -8.38 -62.0 -5.50 -0.07 0.00 45.0 26.9 51.3 64.6 1.024 56.74081 60.81968 0 1 1 0 1 0 0
837.2772787 18:49:53 260.73 0.24 -2.96 235.9 0.2 247.8 -0.45 6.94 1.05 -65.8 -7.38 -62.0 -5.50 -0.03 0.00 45.0 26.9 50.0 63.8 0.958 56.74082 60.81937 1 1 1 0 1 0 0
837.4439452 18:49:53 260.73 0.18 -2.93 235.9 0.2 247.4 0.10 6.90 1.12 -69.6 -7.71 -62.0 -5.50 -0.01 0.00 45.0 26.9 49.6 63.5 0.938 56.74082 60.81927 1 1 1 0 1 0 0
837.6106118 18:49:53 260.73 0.08 -2.86 235.9 0.2 246.5 0.19 6.74 1.15 -102.8 -10.58 -62.0 -5.50 -0.01 0.00 45.0 26.9 48.8 63.0 0.893 56.74083 60.81905 1 1 1 0 1 0 0
837.7772784 18:49:54 260.73 -0.02 -2.92 235.9 0.3 245.1 0.05 6.62 1.10 -81.0 -10.59 -62.0 -5.50 -0.00 0.00 45.0 26.9 47.6 62.2 0.834 56.74084 60.81874 0 1 1 0 1 0 0
837.9439449 18:49:54 260.74 -0.06 -2.94 235.9 0.3 244.6 -0.00 6.56 1.06 -63.1 -7.58 -62.0 -5.50 -0.01 0.00 45.0 26.9 47.2 62.0 0.816 56.74085 60.81864 0 1 1 0 1 0 0
838.1106115 18:49:54 260.73 -0.12 -2.93 235.9 0.2 243.6 -0.11 6.54 1.04 -62.4 -6.98 -62.0 -5.50 -0.05 0.00 45.0 26.9 46.5 61.5 0.777 56.74086 60.81843 0 1 1 0 1 0 0
838.2772781 18:49:54 260.74 -0.11 -2.89 235.9 0.2 242.7 -0.05 6.53 1.04 -62.3 -6.97 -62.0 -5.50 -0.04 0.00 45.0 26.9 45.8 61.0 0.742 56.74086 60.81822 1 1 1 0 1 0 0
838.4439446 18:49:54 260.73 -0.05 -2.84 235.9 0.2 242.1 -0.07 6.50 1.04 -62.2 -6.96 -62.0 -5.50 -0.03 0.00 45.0 26.9 45.3 60.8 0.717 56.74087 60.81809 1 1 1 0 1 0 0
838.6106112 18:49:54 260.74 0.10 -2.76 235.9 0.2 241.1 -0.03 6.47 1.04 -62.1 -6.97 -62.0 -5.50 -0.03 0.00 45.0 26.9 44.7 60.3 0.690 56.74088 60.81787 1 1 1 0 1 0 0
838.7772778 18:49:55 260.73 0.14 -2.66 235.9 0.2 239.7 -0.02 6.40 1.03 -62.2 -7.38 -62.0 -5.50 -0.02 0.00 45.0 26.9 43.9 59.8 0.662 56.74089 60.81759 1 1 1 0 1 0 0
838.9439443 18:49:55 260.74 0.12 -2.62 235.9 0.2 239.3 -0.02 6.34 1.02 -62.2 -6.96 -62.0 -5.50 -0.02 0.00 45.0 26.9 43.6 59.6 0.652 56.74089 60.81749 1 1 1 0 1 0 0
839.1106109 18:49:55 260.73 0.08 -2.54 235.9 0.2 238.3 -0.02 6.28 1.02 -62.2 -6.96 -62.0 -5.50 -0.02 0.00 45.0 26.9 43.0 59.3 0.631 56.74090 60.81727 1 1 1 0 1 0 0
839.2772775 18:49:55 260.74 0.06 -2.46 235.9 0.2 237.3 -0.02 6.21 1.02 -62.1 -7.30 -62.0 -5.50 -0.02 0.00 45.0 26.9 42.4 58.9 0.610 56.74091 60.81703 1 1 1 0 1 0 0
839.4439440 18:49:55 260.73 0.07 -2.38 235.9 0.2 236.3 -0.02 6.14 1.02 -62.1 -6.95 -62.0 -5.50 -0.02 0.00 45.0 26.9 41.9 58.6 0.595 56.74091 60.81684 1 1 1 0 1 1 0
839.6106106 18:49:55 260.74 0.07 -2.30 235.9 0.2 235.4 -0.02 6.07 1.01 -62.2 -7.44 -62.0 -5.50 -0.02 0.00 45.0 26.9 41.5 58.3 0.592 56.74092 60.81664 1 1 1 0 1 1 0
839.7772772 18:49:56 260.73 0.05 -2.23 235.8 0.2 234.5 -0.02 5.99 1.01 -62.1 -6.95 -62.0 -5.50 -0.02 0.00 45.0 26.9 41.1 58.1 0.592 56.74093 60.81646 1 1 1 0 1 1 0
839.9439437 18:49:56 260.74 0.05 -2.19 235.8 0.2 234.0 -0.02 5.93 1.01 -62.1 -6.95 -62.0 -5.50 -0.02 0.00 45.0 26.9 40.9 57.9 0.592 56.74093 60.81635 1 1 1 0 1 1 0
840.1106103 18:49:56 260.73 0.04 -2.12 235.8 0.2 233.0 -0.02 5.86 1.01 -62.1 -7.42 -62.0 -5.50 -0.02 0.00 45.0 26.9 40.5 57.7 0.737 56.74094 60.81614 1 1 1 0 1 1 0
840.2772769 18:49:56 260.74 0.03 -2.04 235.8 0.2 232.1 -0.02 5.79 1.01 -62.2 -7.33 -62.0 -5.50 -0.02 0.00 45.0 26.9 40.3 57.6 0.737 56.74095 60.81595 1 1 1 0 1 1 0
840.4439435 18:49:56 260.73 0.03 -1.97 235.8 0.2 231.1 -0.02 5.72 1.01 -62.1 -6.96 -62.0 -5.50 -0.02 0.00 45.0 26.9 40.2 57.6 0.737 56.74095 60.81576 1 1 1 0 1 1 0
840.6106100 18:49:56 260.74 0.03 -1.90 235.8 0.2 230.1 -0.02 5.66 1.01 -62.1 -7.38 -62.0 -5.50 -0.02 0.00 45.0 26.9 40.2 57.6 0.737 56.74096 60.81557 1 1 1 0 1 1 0
840.7772766 18:49:57 260.74 0.03 -1.83 235.8 0.2 229.2 -0.02 5.59 1.01 -62.1 -6.96 -62.0 -5.50 -0.02 0.00 45.0 26.9 40.3 57.8 0.737 56.74097 60.81540 1 1 1 0 1 1 0
840.9439432 18:49:57 260.74 0.03 -1.77 235.8 0.2 228.2 -0.02 5.52 1.01 -62.2 -7.36 -62.0 -5.50 -0.02 0.00 45.0 26.9 40.7 58.2 0.737 56.74097 60.81522 1 1 1 0 1 1 0
841.1106097 18:49:57 260.74 0.02 -1.70 235.8 0.1 227.2 -0.02 5.45 1.01 -62.2 -7.37 -62.0 -5.50 -0.02 0.00 45.0 26.9 41.2 58.6 0.737 56.74098 60.81504 1 1 1 0 1 1 0
841.2772763 18:49:57 260.75 0.04 -1.63 235.8 0.1 226.2 -0.02 5.38 1.01 -62.1 -6.95 -62.0 -5.50 -0.02 0.00 45.0 26.9 41.8 59.1 0.737 56.74099 60.81487 1 1 1 0 1 1 0
841.4439429 18:49:57 260.74 0.02 -1.60 235.8 0.1 225.7 -0.02 5.32 1.01 -62.2 -6.95 -62.0 -5.50 -0.02 0.00 45.0 26.9 42.2 59.4 0.737 56.74099 60.81478 1 1 1 0 1 1 0
841.6106094 18:49:57 260.75 0.05 -1.49 235.8 0.1 224.2 -0.02 5.25 1.01 -62.1 -7.39 -62.0 -5.50 -0.02 0.00 45.0 26.9 43.7 60.5 0.737 56.74100 60.81450 1 1 1 0 1 1 0
841.7772760 18:49:58 260.74 0.03 -1.46 235.8 0.1 223.7 -0.02 5.19 1.01 -62.2 -6.95 -62.0 -5.50 -0.02 0.00 45.0 26.9 44.2 60.9 0.737 56.74100 60.81442 1 1 1 0 1 1 0
841.9439426 18:49:58 260.75 0.02 -1.39 235.8 0.1 222.7 -0.02 5.12 1.01 -62.1 -6.95 -62.0 -5.50 -0.02 0.00 45.0 26.9 45.4 61.8 0.737 56.74101 60.81423 1 1 1 0 1 1 0
842.1106091 18:49:58 260.74 0.04 -1.30 235.8 0.1 221.5 -0.02 5.06 1.01 -62.1 -7.43 -62.0 -5.50 -0.02 0.00 45.0 26.9 47.3 63.3 0.737 56.74102 60.81402 1 1 1 0 1 1 0
842.2772757 18:49:58 260.75 0.03 -1.24 235.8 0.1 220.4 -0.02 4.99 1.01 -62.1 -6.95 -62.0 -5.50 -0.02 0.00 45.0 26.9 49.6 65.2 0.737 56.74102 60.81384 1 1 1 0 1 1 0
842.4439423 18:49:58 260.74 0.01 -1.20 235.8 0.1 219.9 -0.02 4.93 1.01 -62.1 -6.95 -62.0 -5.50 -0.03 0.00 45.0 26.9 51.2 66.4 0.737 56.74103 60.81375 1 1 1 0 1 1 0
842.6106088 18:49:58 260.75 0.02 -1.12 235.8 0.1 218.8 -0.02 4.86 1.01 -62.1 -7.36 -62.0 -5.50 -0.02 0.00 45.0 26.9 54.8 69.0 0.737 56.74103 60.81356 1 1 1 0 1 1 0
842.7772754 18:49:59 260.74 0.01 -1.06 235.8 0.1 217.7 -0.02 4.80 1.01 -62.1 -6.95 -62.0 -5.50 -0.03 0.00 45.0 26.9 58.4 71.4 0.737 56.74104 60.81337 1 1 1 0 1 1 0
842.9439420 18:49:59 260.75 0.03 -1.01 235.8 0.1 217.1 -0.02 4.74 1.01 -62.1 -6.95 -62.0 -5.50 -0.02 0.00 45.0 26.9 60.4 72.8 0.737 56.74105 60.81327 1 1 1 0 1 1 0
843.1106085 18:49:59 260.74 0.02 -0.89 235.8 0.1 215.3 -0.02 4.72 1.01 -62.2 -7.40 -62.0 -5.50 -0.03 0.00 45.0 26.9 64.7 76.2 0.737 56.74106 60.81299 1 1 1 0 1 1 0
843.2772751 18:49:59 260.75 0.02 -0.85 235.8 0.1 214.7 -0.02 4.72 1.01 -62.1 -6.96 -62.0 -5.50 -0.03 0.00 45.0 26.9 65.5 77.2 0.737 56.74106 60.81290 1 1 1 0 1 1 0
843.4439417 18:49:59 260.75 0.01 -0.76 235.8 0.1 213.5 -0.02 4.72 1.01 -62.1 -6.95 -62.0 -5.50 -0.03 0.00 45.0 26.9 66.7 78.8 0.737 56.74107 60.81272 1 1 1 0 1 1 0
843.6106082 18:49:59 260.75 0.03 -0.68 235.8 0.1 212.4 -0.02 4.72 1.01 -62.1 -7.46 -62.0 -5.50 -0.02 0.00 45.0 26.9 68.7 80.0 0.737 56.74107 60.81254 1 1 1 0 1 1 0
843.7772748 18:50:00 260.75 0.02 -0.59 235.8 0.1 211.2 -0.02 4.72 1.01 -62.1 -6.95 -62.0 -5.50 -0.03 0.00 45.0 26.9 70.8 81.1 0.737 56.74108 60.81237 1 1 1 0 1 1 0
843.9439414 18:50:00 260.75 0.02 -0.46 235.8 0.1 209.5 -0.01 4.72 1.01 -62.1 -7.46 -62.0 -5.50 -0.02 0.00 45.0 26.9 73.6 82.3 0.737 56.74109 60.81211 1 1 1 0 1 1 0
844.1106079 18:50:00 260.75 0.01 -0.40 235.7 0.1 208.2 -0.01 4.72 1.01 -62.1 -6.95 -62.0 -5.50 -0.03 0.00 45.0 26.9 75.0 83.0 0.737 56.74109 60.81194 1 1 1 0 1 1 0
844.2772745 18:50:00 260.75 0.03 -0.37 235.7 0.1 207.5 -0.01 4.72 1.01 -62.1 -6.95 -62.0 -5.50 -0.03 0.00 45.0 26.9 75.7 83.3 0.737 56.74110 60.81185 1 1 1 0 1 1 0
844.4439411 18:50:00 260.75 0.02 -0.35 235.7 0.1 206.2 -0.01 4.72 1.01 -62.1 -6.95 -62.0 -5.50 -0.03 0.00 45.0 26.9 76.9 83.8 0.737 56.74110 60.81167 1 1 1 0 1 1 0
844.6106076 18:50:00 260.76 0.03 -0.34 235.7 0.1 204.8 -0.01 4.72 1.01 -62.1 -7.04 -62.0 -5.50 -0.03 0.00 45.0 26.9 78.0 84.4 0.737 56.74111 60.81149 1 1 1 0 1 1 0
844.7772742 18:50:01 260.75 0.03 -0.32 235.7 0.1 203.6 -0.01 4.72 1.01 -62.1 -6.95 -62.0 -5.50 -0.02 0.00 45.0 26.9 78.9 84.8 0.737 56.74112 60.81133 1 1 1 0 1 1 0
844.9439408 18:50:01 260.76 0.02 -0.33 235.7 0.1 202.2 -0.01 4.72 1.01 -62.1 -6.97 -62.0 -5.50 -0.02 0.00 45.0 26.9 79.7 85.2 0.737 56.74112 60.81116 1 1 1 0 1 1 0
845.1106073 18:50:01 260.75 0.03 -0.32 235.7 0.1 201.5 -0.01 4.72 1.01 -62.1 -6.95 -62.0 -5.50 -0.02 0.00 45.0 26.9 80.1 85.4 0.737 56.74113 60.81107 1 1 1 0 1 1 0
845.2772739 18:50:01 260.76 0.05 -0.32 235.7 0.1 200.1 -0.01 4.72 1.01 -62.1 -6.95 -62.0 -5.50 -0.02 0.00 45.0 26.9 80.8 85.8 0.737 56.74113 60.81089 1 1 1 0 1 1 0
845.4439405 18:50:01 260.76 0.03 -0.32 235.7 0.1 198.1 -0.01 4.72 1.01 -62.1 -6.98 -62.0 -5.50 -0.02 0.00 45.0 26.9 81.6 86.2 0.737 56.74114 60.81065 1 1 1 0 1 1 0
845.6106070 18:50:01 260.76 0.03 -0.31 235.7 0.1 196.8 -0.01 4.72 1.01 -62.1 -6.98 -62.0 -5.50 -0.02 0.00 45.0 26.9 82.1 86.5 0.737 56.74115 60.81048 1 1 1 0 1 1 0
845.7772736 18:50:02 260.76 0.02 -0.31 235.7 0.1 195.5 -0.01 4.72 1.01 -62.1 -6.95 -62.0 -5.50 -0.02 0.00 45.0 26.9 82.5 86.7 0.737 56.74115 60.81033 1 1 1 0 1 1 0
845.9439402 18:50:02 260.76 0.01 -0.30 235.7 0.1 194.3 -0.01 4.72 1.01 -62.1 -6.98 -62.0 -5.50 -0.02 0.00 45.0 26.9 82.9 86.9 0.737 56.74116 60.81018 1 1 1 0 1 1 0
846.1106067 18:50:02 260.76 0.01 -0.29 235.7 0.1 193.1 -0.01 4.72 1.01 -62.1 -6.95 -62.0 -5.50 -0.02 0.00 45.0 26.9 83.2 87.1 0.737 56.74116 60.81003 1 1 1 0 1 1 0
846.2772733 18:50:02 260.76 0.02 -0.29 235.7 0.1 191.8 -0.01 4.72 1.01 -62.1 -6.95 -62.0 -5.50 -0.02 0.00 45.0 26.9 83.5 87.2 0.737 56.74117 60.80989 1 1 1 0 1 1 0
846.4439399 18:50:02 260.76 0.02 -0.29 235.7 0.1 190.1 -0.00 4.72 1.01 -62.1 -6.98 -62.0 -5.50 -0.03 0.00 45.0 26.9 83.9 87.4 0.737 56.74118 60.80968 1 1 1 0 1 1 0
846.6106064 18:50:02 260.76 0.01 -0.28 235.7 0.1 189.0 -0.00 4.72 1.01 -62.1 -6.95 -62.0 -5.50 -0.02 0.00 45.0 26.9 84.1 87.6 0.737 56.74118 60.80955 1 1 1 0 1 1 0
846.7772730 18:50:03 260.76 -0.01 -0.28 235.7 0.1 187.8 -0.00 4.72 1.01 -62.1 -6.95 -62.0 -5.50 -0.02 0.00 45.0 26.9 84.3 87.7 0.737 56.74119 60.80941 1 1 1 0 1 1 0
846.9439396 18:50:03 260.76 0.00 -0.27 235.7 0.1 186.6 -0.00 4.72 1.01 -62.1 -6.98 -62.0 -5.50 -0.01 0.00 45.0 26.9 84.5 87.8 0.737 56.74119 60.80927 1 1 1 0 1 1 0
847.1106061 18:50:03 260.76 0.01 -0.27 235.7 0.1 185.5 -0.00 4.72 1.01 -62.1 -6.98 -62.0 -5.50 -0.02 0.00 45.0 26.9 84.7 87.9 0.737 56.74120 60.80913 1 1 1 0 1 1 0
847.2772727 18:50:03 260.76 -0.00 -0.27 235.7 0.1 183.7 -0.00 4.72 1.01 -62.1 -6.95 -62.0 -5.50 -0.02 0.00 45.0 26.9 84.9 88.0 0.737 56.74121 60.80893 1 1 1 0 1 1 0
847.4439393 18:50:03 260.76 -0.01 -0.26 235.7 0.1 182.6 -0.00 4.72 1.01 -62.1 -6.98 -62.0 -5.50 -0.02 0.00 45.0 26.9 85.0 88.1 0.737 56.74121 60.80879 1 1 1 0 1 1 0
847.6106058 18:50:03 260.76 -0.00 -0.26 235.7 0.1 181.4 -0.00 4.72 1.01 -62.1 -6.95 -62.0 -5.50 -0.03 0.00 45.0 26.9 85.2 88.2 0.737 56.74122 60.80866 1 1 1 0 1 1 0
847.7772724 18:50:04 260.75 -0.00 -0.25 235.7 0.1 180.3 -0.00 4.72 1.01 -62.1 -6.97 -62.0 -5.50 -0.03 0.00 45.0 26.9 85.3 88.3 0.737 56.74122 60.80852 1 1 1 0 1 1 0
848.2772721 18:50:04 260.76 0.00 -0.24 235.7 0.1 176.0 -0.00 4.72 1.01 -62.1 -6.98 -62.0 -5.50 -0.02 0.00 45.0 26.9 85.7 88.5 0.737 56.74124 60.80803 1 1 1 0 1 1 0
848.7772718 18:50:05 260.75 -0.02 -0.23 235.7 0.1 172.7 -0.00 4.72 1.01 -62.1 -6.95 -62.0 -5.50 -0.02 0.00 45.0 26.9 85.9 88.6 0.737 56.74125 60.80765 1 1 1 0 1 1 0
849.2772715 18:50:05 260.76 0.00 -0.22 235.7 0.1 169.0 -0.00 4.72 1.01 -62.1 -6.95 -62.0 -5.50 -0.02 0.00 45.0 26.9 86.0 88.7 0.737 56.74127 60.80721 1 1 1 0 1 1 0
849.7772712 18:50:06 260.75 -0.01 -0.21 235.7 0.0 165.7 -0.00 4.72 1.01 -62.1 -6.95 -62.0 -5.50 -0.02 0.00 45.0 26.9 86.2 88.8 0.737 56.74128 60.80683 1 1 1 0 1 1 0
850.2772709 18:50:06 260.76 -0.01 -0.21 235.7 0.0 162.3 -0.00 4.72 1.01 -62.1 -6.95 -62.0 -5.50 -0.02 0.00 45.0 26.9 86.2 88.8 0.737 56.74130 60.80645 1 1 1 0 1 1 0
850.7772706 18:50:07 260.76 -0.01 -0.20 235.7 0.0 159.0 -0.00 4.72 1.01 -62.1 -6.97 -62.0 -5.50 -0.02 0.00 45.0 26.9 86.3 88.9 0.737 56.74131 60.80607 1 1 1 0 1 1 0
851.2772703 18:50:07 260.75 -0.02 -0.19 235.7 0.0 155.3 -0.00 4.72 1.01 -62.1 -6.96 -62.0 -5.50 -0.02 0.00 45.0 26.9 86.4 88.9 0.737 56.74133 60.80564 1 1 1 0 1 1 0
851.7772700 18:50:08 260.76 -0.00 -0.17 235.7 0.0 152.4 -0.01 4.72 1.01 -62.1 -6.95 -62.0 -5.50 -0.02 0.00 45.0 26.9 86.4 88.9 0.737 56.74134 60.80534 1 1 1 0 1 1 0
852.2772697 18:50:08 260.75 0.01 -0.04 235.7 0.0 147.1 -0.01 4.72 1.01 -62.1 -6.95 -62.0 -5.50 -0.02 0.00 45.0 26.9 86.4 89.0 0.737 56.74135 60.80497 1 1 1 0 1 1 0
852.7772694 18:50:09 260.76 -0.00 0.03 235.7 0.0 142.3 -0.00 4.72 1.01 -62.1 -6.94 -62.0 -5.50 -0.01 0.00 45.0 26.9 86.4 89.0 0.737 56.74136 60.80467 1 1 1 0 1 1 0
853.2772691 18:50:09 260.75 -0.00 0.02 235.7 0.0 136.5 -0.00 4.72 1.01 -62.1 -6.95 -62.0 -5.50 -0.02 0.00 45.0 26.9 86.4 89.0 0.737 56.74138 60.80432 1 1 1 0 1 1 0
853.7772688 18:50:10 260.76 0.01 -0.05 235.7 0.0 132.4 -0.00 4.72 1.01 -62.1 -6.75 -62.0 -5.50 -0.02 0.00 45.0 26.9 75.1 82.3 2.814 56.74139 60.80394 1 1 1 0 1 1 0
854.2772685 18:50:10 260.75 -0.00 -0.09 235.7 0.0 130.2 -0.00 4.72 1.01 -62.1 -6.95 -62.0 -5.50 -0.02 0.00 45.0 26.9 66.9 78.1 2.402 56.74140 60.80367 1 1 1 0 1 1 0
854.7772682 18:50:11 260.76 0.01 -0.06 235.7 0.0 127.1 -0.00 4.72 1.01 -62.1 -6.94 -62.0 -5.50 -0.02 0.00 45.0 26.9 64.6 74.7 2.431 56.74141 60.80332 1 1 1 0 1 1 0
855.2772679 18:50:11 260.75 -0.02 -0.04 235.7 0.0 124.8 -0.00 4.72 1.01 -62.1 -6.95 -62.0 -5.50 -0.02 0.00 45.0 26.9 63.4 73.4 2.383 56.74142 60.80306 1 1 1 0 1 1 0
855.7772676 18:50:13 260.76 0.00 -0.04 235.7 0.0 121.7 -0.00 4.72 1.01 -62.0 -6.96 -62.0 -5.50 -0.02 0.00 45.0 26.9 60.3 71.6 2.126 56.74144 60.80272 1 1 1 0 1 1 0
856.2772673 18:50:13 260.76 0.00 -0.02 235.7 0.0 118.5 -0.00 4.72 1.01 -62.0 -6.97 -62.0 -5.50 -0.02 0.00 45.0 26.9 56.8 69.5 1.899 56.74145 60.80239 1 1 1 0 1 1 0
856.7772670 18:50:13 260.76 -0.00 -0.01 235.7 0.0 115.4 -0.00 4.72 1.01 -62.0 -6.97 -62.0 -5.50 -0.02 0.00 45.0 26.9 53.3 67.4 1.702 56.74146 60.80209 1 1 1 0 1 1 0
857.2772668 18:50:14 260.76 0.00 0.00 235.7 0.0 111.7 -0.00 4.72 1.01 -62.0 -6.95 -62.0 -5.50 -0.02 0.00 45.0 26.9 49.4 65.1 1.522 56.74147 60.80175 1 1 1 0 1 1 0
857.7772665 18:50:14 260.76 -0.00 0.01 235.7 0.0 108.8 -0.00 4.72 1.01 -62.0 -6.94 -62.0 -5.50 -0.02 0.00 45.0 26.9 46.6 63.5 1.415 56.74148 60.80150 1 1 1 0 1 1 0
858.2772662 18:50:15 260.76 -0.01 -0.07 235.7 0.0 107.2 0.00 4.72 1.01 -62.0 -6.69 -62.0 -5.50 -0.03 0.00 45.0 26.9 44.1 62.1 1.322 56.74149 60.80126 1 1 1 0 1 1 0
858.7772659 18:50:15 260.76 -0.00 -0.16 235.7 0.0 106.3 -0.00 4.72 1.01 -62.0 -6.94 -62.0 -5.50 -0.02 0.00 45.0 26.9 41.9 60.8 1.252 56.74150 60.80101 1 1 1 0 1 1 0
859.2772656 18:50:16 260.76 0.02 -0.16 235.7 0.0 105.6 -0.00 4.72 1.01 -62.0 -6.94 -62.0 -5.50 -0.02 0.00 45.0 26.9 39.7 59.6 1.182 56.74151 60.80072 1 1 1 0 1 1 0
859.7772653 18:50:16 260.76 0.00 -0.15 235.7 0.0 104.9 -0.00 4.72 1.01 -62.0 -6.94 -62.0 -5.50 -0.02 0.00 45.0 26.9 37.8 58.5 1.140 56.74152 60.80041 1 1 1 0 1 1 0
860.2772650 18:50:17 260.76 0.01 -0.15 235.7 0.0 103.4 -0.00 4.72 1.01 -62.0 -6.95 -62.0 -5.50 -0.02 0.00 45.0 26.9 34.6 56.7 1.074 56.74155 60.79971 1 1 1 0 1 1 0
860.7772647 18:50:19 260.76 -0.00 -0.14 235.7 0.0 102.9 -0.00 4.72 1.01 -62.0 -6.94 -62.0 -5.50 -0.02 0.00 45.0 26.9 34.0 56.3 1.061 56.74156 60.79948 1 1 1 0 1 1 0